<?xml version="1.0" encoding="UTF-8" standalone="no" ?>
<gpx xmlns="http://www.topografix.com/GPX/1/1" xmlns:xsi="http://www.w3.org/2001/XMLSchema-instance" xsi:schemaLocation="http://www.topografix.com/GPX/1/1 http://www.topografix.com/GPX/1/1/gpx.xsd" version="1.1" creator="VisuGPX - https://www.visugpx.com">
  <metadata>
    <name>Course Eiffage sur le viaduc de Millau</name>
    <desc><![CDATA[Cyclemeter Course 22 mai 2016 09:13:24]]></desc>
  </metadata>
  <trk>
    <name><![CDATA[Millau]]></name>
    <trkseg>
      <trkpt lat="44.09707" lon="3.07668">
        <ele>375.2</ele>
        <time>2016-05-22T07:13:24Z</time>
      </trkpt>
      <trkpt lat="44.09704" lon="3.07666">
        <ele>375.2</ele>
        <time>2016-05-22T07:13:26Z</time>
      </trkpt>
      <trkpt lat="44.0969" lon="3.07665">
        <ele>374.9</ele>
        <time>2016-05-22T07:13:32Z</time>
      </trkpt>
      <trkpt lat="44.09675" lon="3.07664">
        <ele>374.5</ele>
        <time>2016-05-22T07:13:38Z</time>
      </trkpt>
      <trkpt lat="44.0966" lon="3.07665">
        <ele>374.2</ele>
        <time>2016-05-22T07:13:44Z</time>
      </trkpt>
      <trkpt lat="44.09646" lon="3.07664">
        <ele>373.9</ele>
        <time>2016-05-22T07:13:50Z</time>
      </trkpt>
      <trkpt lat="44.09632" lon="3.07665">
        <ele>373.6</ele>
        <time>2016-05-22T07:13:56Z</time>
      </trkpt>
      <trkpt lat="44.09617" lon="3.07664">
        <ele>373.2</ele>
        <time>2016-05-22T07:14:02Z</time>
      </trkpt>
      <trkpt lat="44.09603" lon="3.07667">
        <ele>372.9</ele>
        <time>2016-05-22T07:14:09Z</time>
      </trkpt>
      <trkpt lat="44.09588" lon="3.07666">
        <ele>372.5</ele>
        <time>2016-05-22T07:14:15Z</time>
      </trkpt>
      <trkpt lat="44.09573" lon="3.07662">
        <ele>372.2</ele>
        <time>2016-05-22T07:14:21Z</time>
      </trkpt>
      <trkpt lat="44.09558" lon="3.07659">
        <ele>371.9</ele>
        <time>2016-05-22T07:14:27Z</time>
      </trkpt>
      <trkpt lat="44.09544" lon="3.07656">
        <ele>371.3</ele>
        <time>2016-05-22T07:14:34Z</time>
      </trkpt>
      <trkpt lat="44.09536" lon="3.07669">
        <ele>370.8</ele>
        <time>2016-05-22T07:14:41Z</time>
      </trkpt>
      <trkpt lat="44.09536" lon="3.0765">
        <ele>370.3</ele>
        <time>2016-05-22T07:14:47Z</time>
      </trkpt>
      <trkpt lat="44.09533" lon="3.07632">
        <ele>368.9</ele>
        <time>2016-05-22T07:15:04Z</time>
      </trkpt>
      <trkpt lat="44.09525" lon="3.07615">
        <ele>368.3</ele>
        <time>2016-05-22T07:15:12Z</time>
      </trkpt>
      <trkpt lat="44.0952" lon="3.07596">
        <ele>368</ele>
        <time>2016-05-22T07:15:17Z</time>
      </trkpt>
      <trkpt lat="44.09513" lon="3.07579">
        <ele>367.6</ele>
        <time>2016-05-22T07:15:22Z</time>
      </trkpt>
      <trkpt lat="44.09507" lon="3.07561">
        <ele>367.2</ele>
        <time>2016-05-22T07:15:28Z</time>
      </trkpt>
      <trkpt lat="44.09501" lon="3.07542">
        <ele>366.7</ele>
        <time>2016-05-22T07:15:35Z</time>
      </trkpt>
      <trkpt lat="44.09493" lon="3.07525">
        <ele>366.2</ele>
        <time>2016-05-22T07:15:42Z</time>
      </trkpt>
      <trkpt lat="44.09485" lon="3.07506">
        <ele>365.8</ele>
        <time>2016-05-22T07:15:49Z</time>
      </trkpt>
      <trkpt lat="44.09476" lon="3.07488">
        <ele>366.3</ele>
        <time>2016-05-22T07:15:56Z</time>
      </trkpt>
      <trkpt lat="44.09466" lon="3.07474">
        <ele>366.8</ele>
        <time>2016-05-22T07:16:02Z</time>
      </trkpt>
      <trkpt lat="44.0946" lon="3.07456">
        <ele>367.4</ele>
        <time>2016-05-22T07:16:09Z</time>
      </trkpt>
      <trkpt lat="44.09454" lon="3.07437">
        <ele>368</ele>
        <time>2016-05-22T07:16:16Z</time>
      </trkpt>
      <trkpt lat="44.09447" lon="3.07421">
        <ele>368.6</ele>
        <time>2016-05-22T07:16:23Z</time>
      </trkpt>
      <trkpt lat="44.09439" lon="3.07404">
        <ele>369.1</ele>
        <time>2016-05-22T07:16:30Z</time>
      </trkpt>
      <trkpt lat="44.09439" lon="3.07385">
        <ele>368.9</ele>
        <time>2016-05-22T07:16:36Z</time>
      </trkpt>
      <trkpt lat="44.09437" lon="3.07365">
        <ele>368.7</ele>
        <time>2016-05-22T07:16:42Z</time>
      </trkpt>
      <trkpt lat="44.09434" lon="3.07346">
        <ele>368.5</ele>
        <time>2016-05-22T07:16:49Z</time>
      </trkpt>
      <trkpt lat="44.09427" lon="3.07327">
        <ele>368.3</ele>
        <time>2016-05-22T07:16:57Z</time>
      </trkpt>
      <trkpt lat="44.09416" lon="3.07314">
        <ele>368.1</ele>
        <time>2016-05-22T07:17:04Z</time>
      </trkpt>
      <trkpt lat="44.09403" lon="3.07304">
        <ele>367.9</ele>
        <time>2016-05-22T07:17:11Z</time>
      </trkpt>
      <trkpt lat="44.09393" lon="3.0729">
        <ele>367.6</ele>
        <time>2016-05-22T07:17:18Z</time>
      </trkpt>
      <trkpt lat="44.09381" lon="3.07276">
        <ele>367.4</ele>
        <time>2016-05-22T07:17:25Z</time>
      </trkpt>
      <trkpt lat="44.09368" lon="3.0727">
        <ele>367.3</ele>
        <time>2016-05-22T07:17:31Z</time>
      </trkpt>
      <trkpt lat="44.09354" lon="3.07267">
        <ele>367.1</ele>
        <time>2016-05-22T07:17:37Z</time>
      </trkpt>
      <trkpt lat="44.09341" lon="3.07266">
        <ele>366.9</ele>
        <time>2016-05-22T07:17:43Z</time>
      </trkpt>
      <trkpt lat="44.09325" lon="3.07263">
        <ele>366.7</ele>
        <time>2016-05-22T07:17:50Z</time>
      </trkpt>
      <trkpt lat="44.09312" lon="3.07262">
        <ele>366.5</ele>
        <time>2016-05-22T07:17:56Z</time>
      </trkpt>
      <trkpt lat="44.09302" lon="3.07247">
        <ele>366.3</ele>
        <time>2016-05-22T07:18:02Z</time>
      </trkpt>
      <trkpt lat="44.09297" lon="3.07228">
        <ele>366.2</ele>
        <time>2016-05-22T07:18:08Z</time>
      </trkpt>
      <trkpt lat="44.09293" lon="3.07209">
        <ele>366</ele>
        <time>2016-05-22T07:18:14Z</time>
      </trkpt>
      <trkpt lat="44.09288" lon="3.07191">
        <ele>365.8</ele>
        <time>2016-05-22T07:18:20Z</time>
      </trkpt>
      <trkpt lat="44.09282" lon="3.07171">
        <ele>365.7</ele>
        <time>2016-05-22T07:18:27Z</time>
      </trkpt>
      <trkpt lat="44.09276" lon="3.07151">
        <ele>365.5</ele>
        <time>2016-05-22T07:18:33Z</time>
      </trkpt>
      <trkpt lat="44.09266" lon="3.07137">
        <ele>365.4</ele>
        <time>2016-05-22T07:18:39Z</time>
      </trkpt>
      <trkpt lat="44.09258" lon="3.07119">
        <ele>365.2</ele>
        <time>2016-05-22T07:18:46Z</time>
      </trkpt>
      <trkpt lat="44.09249" lon="3.07104">
        <ele>365</ele>
        <time>2016-05-22T07:18:52Z</time>
      </trkpt>
      <trkpt lat="44.09239" lon="3.07089">
        <ele>364.9</ele>
        <time>2016-05-22T07:18:58Z</time>
      </trkpt>
      <trkpt lat="44.0923" lon="3.07072">
        <ele>364.7</ele>
        <time>2016-05-22T07:19:05Z</time>
      </trkpt>
      <trkpt lat="44.0922" lon="3.07055">
        <ele>364.5</ele>
        <time>2016-05-22T07:19:12Z</time>
      </trkpt>
      <trkpt lat="44.09211" lon="3.0704">
        <ele>364.4</ele>
        <time>2016-05-22T07:19:18Z</time>
      </trkpt>
      <trkpt lat="44.09202" lon="3.07022">
        <ele>364.2</ele>
        <time>2016-05-22T07:19:25Z</time>
      </trkpt>
      <trkpt lat="44.09194" lon="3.07007">
        <ele>364</ele>
        <time>2016-05-22T07:19:31Z</time>
      </trkpt>
      <trkpt lat="44.09187" lon="3.0699">
        <ele>363.9</ele>
        <time>2016-05-22T07:19:37Z</time>
      </trkpt>
      <trkpt lat="44.09181" lon="3.06973">
        <ele>363.7</ele>
        <time>2016-05-22T07:19:43Z</time>
      </trkpt>
      <trkpt lat="44.09175" lon="3.06956">
        <ele>363.6</ele>
        <time>2016-05-22T07:19:49Z</time>
      </trkpt>
      <trkpt lat="44.0917" lon="3.06937">
        <ele>363.4</ele>
        <time>2016-05-22T07:19:55Z</time>
      </trkpt>
      <trkpt lat="44.09165" lon="3.06918">
        <ele>363.2</ele>
        <time>2016-05-22T07:20:02Z</time>
      </trkpt>
      <trkpt lat="44.09161" lon="3.06899">
        <ele>363.1</ele>
        <time>2016-05-22T07:20:08Z</time>
      </trkpt>
      <trkpt lat="44.09156" lon="3.0688">
        <ele>362.9</ele>
        <time>2016-05-22T07:20:14Z</time>
      </trkpt>
      <trkpt lat="44.09152" lon="3.06861">
        <ele>362.8</ele>
        <time>2016-05-22T07:20:20Z</time>
      </trkpt>
      <trkpt lat="44.09148" lon="3.06841">
        <ele>362.6</ele>
        <time>2016-05-22T07:20:26Z</time>
      </trkpt>
      <trkpt lat="44.09145" lon="3.06822">
        <ele>362.6</ele>
        <time>2016-05-22T07:20:32Z</time>
      </trkpt>
      <trkpt lat="44.09142" lon="3.06802">
        <ele>362.8</ele>
        <time>2016-05-22T07:20:38Z</time>
      </trkpt>
      <trkpt lat="44.0914" lon="3.06783">
        <ele>362.9</ele>
        <time>2016-05-22T07:20:44Z</time>
      </trkpt>
      <trkpt lat="44.09135" lon="3.06764">
        <ele>363.1</ele>
        <time>2016-05-22T07:20:51Z</time>
      </trkpt>
      <trkpt lat="44.09131" lon="3.06744">
        <ele>363.3</ele>
        <time>2016-05-22T07:20:58Z</time>
      </trkpt>
      <trkpt lat="44.09128" lon="3.06725">
        <ele>363.5</ele>
        <time>2016-05-22T07:21:04Z</time>
      </trkpt>
      <trkpt lat="44.09126" lon="3.06705">
        <ele>363.7</ele>
        <time>2016-05-22T07:21:11Z</time>
      </trkpt>
      <trkpt lat="44.09125" lon="3.06685">
        <ele>363.9</ele>
        <time>2016-05-22T07:21:18Z</time>
      </trkpt>
      <trkpt lat="44.09127" lon="3.06665">
        <ele>364</ele>
        <time>2016-05-22T07:21:24Z</time>
      </trkpt>
      <trkpt lat="44.09131" lon="3.06645">
        <ele>364.2</ele>
        <time>2016-05-22T07:21:30Z</time>
      </trkpt>
      <trkpt lat="44.09136" lon="3.06624">
        <ele>364.3</ele>
        <time>2016-05-22T07:21:36Z</time>
      </trkpt>
      <trkpt lat="44.09141" lon="3.06606">
        <ele>364.5</ele>
        <time>2016-05-22T07:21:42Z</time>
      </trkpt>
      <trkpt lat="44.09144" lon="3.06586">
        <ele>364.7</ele>
        <time>2016-05-22T07:21:49Z</time>
      </trkpt>
      <trkpt lat="44.09152" lon="3.06568">
        <ele>364.9</ele>
        <time>2016-05-22T07:21:56Z</time>
      </trkpt>
      <trkpt lat="44.09163" lon="3.06554">
        <ele>365</ele>
        <time>2016-05-22T07:22:01Z</time>
      </trkpt>
      <trkpt lat="44.09171" lon="3.06536">
        <ele>365.3</ele>
        <time>2016-05-22T07:22:11Z</time>
      </trkpt>
      <trkpt lat="44.0918" lon="3.06519">
        <ele>365.5</ele>
        <time>2016-05-22T07:22:19Z</time>
      </trkpt>
      <trkpt lat="44.0919" lon="3.06504">
        <ele>365.6</ele>
        <time>2016-05-22T07:22:25Z</time>
      </trkpt>
      <trkpt lat="44.092" lon="3.06488">
        <ele>365.8</ele>
        <time>2016-05-22T07:22:32Z</time>
      </trkpt>
      <trkpt lat="44.09211" lon="3.06474">
        <ele>366.2</ele>
        <time>2016-05-22T07:22:39Z</time>
      </trkpt>
      <trkpt lat="44.09221" lon="3.06461">
        <ele>366.9</ele>
        <time>2016-05-22T07:22:45Z</time>
      </trkpt>
      <trkpt lat="44.09233" lon="3.06446">
        <ele>367.8</ele>
        <time>2016-05-22T07:22:52Z</time>
      </trkpt>
      <trkpt lat="44.09242" lon="3.0643">
        <ele>368.6</ele>
        <time>2016-05-22T07:22:59Z</time>
      </trkpt>
      <trkpt lat="44.09251" lon="3.06415">
        <ele>369.4</ele>
        <time>2016-05-22T07:23:05Z</time>
      </trkpt>
      <trkpt lat="44.09252" lon="3.06405">
        <ele>369.6</ele>
        <time>2016-05-22T07:23:09Z</time>
      </trkpt>
      <trkpt lat="44.09247" lon="3.06385">
        <ele>370.1</ele>
        <time>2016-05-22T07:23:16Z</time>
      </trkpt>
      <trkpt lat="44.09242" lon="3.06365">
        <ele>370.5</ele>
        <time>2016-05-22T07:23:22Z</time>
      </trkpt>
      <trkpt lat="44.09235" lon="3.06348">
        <ele>370.9</ele>
        <time>2016-05-22T07:23:29Z</time>
      </trkpt>
      <trkpt lat="44.09224" lon="3.06333">
        <ele>371.4</ele>
        <time>2016-05-22T07:23:36Z</time>
      </trkpt>
      <trkpt lat="44.09216" lon="3.06316">
        <ele>371.9</ele>
        <time>2016-05-22T07:23:43Z</time>
      </trkpt>
      <trkpt lat="44.09207" lon="3.06299">
        <ele>372.3</ele>
        <time>2016-05-22T07:23:50Z</time>
      </trkpt>
      <trkpt lat="44.09195" lon="3.06286">
        <ele>372.7</ele>
        <time>2016-05-22T07:23:57Z</time>
      </trkpt>
      <trkpt lat="44.09185" lon="3.06272">
        <ele>373</ele>
        <time>2016-05-22T07:24:04Z</time>
      </trkpt>
      <trkpt lat="44.09174" lon="3.06258">
        <ele>373.2</ele>
        <time>2016-05-22T07:24:11Z</time>
      </trkpt>
      <trkpt lat="44.09161" lon="3.06246">
        <ele>373.4</ele>
        <time>2016-05-22T07:24:19Z</time>
      </trkpt>
      <trkpt lat="44.09148" lon="3.06235">
        <ele>373.6</ele>
        <time>2016-05-22T07:24:26Z</time>
      </trkpt>
      <trkpt lat="44.09135" lon="3.06224">
        <ele>373.8</ele>
        <time>2016-05-22T07:24:33Z</time>
      </trkpt>
      <trkpt lat="44.09121" lon="3.06217">
        <ele>374</ele>
        <time>2016-05-22T07:24:39Z</time>
      </trkpt>
      <trkpt lat="44.09108" lon="3.06211">
        <ele>374.2</ele>
        <time>2016-05-22T07:24:46Z</time>
      </trkpt>
      <trkpt lat="44.09097" lon="3.06198">
        <ele>374.4</ele>
        <time>2016-05-22T07:24:54Z</time>
      </trkpt>
      <trkpt lat="44.09084" lon="3.06188">
        <ele>374.6</ele>
        <time>2016-05-22T07:25:01Z</time>
      </trkpt>
      <trkpt lat="44.0907" lon="3.06178">
        <ele>374.8</ele>
        <time>2016-05-22T07:25:08Z</time>
      </trkpt>
      <trkpt lat="44.09057" lon="3.06171">
        <ele>375</ele>
        <time>2016-05-22T07:25:14Z</time>
      </trkpt>
      <trkpt lat="44.09043" lon="3.06166">
        <ele>375.2</ele>
        <time>2016-05-22T07:25:20Z</time>
      </trkpt>
      <trkpt lat="44.0903" lon="3.06162">
        <ele>375.4</ele>
        <time>2016-05-22T07:25:26Z</time>
      </trkpt>
      <trkpt lat="44.09015" lon="3.0616">
        <ele>375.6</ele>
        <time>2016-05-22T07:25:32Z</time>
      </trkpt>
      <trkpt lat="44.09002" lon="3.0616">
        <ele>375.8</ele>
        <time>2016-05-22T07:25:39Z</time>
      </trkpt>
      <trkpt lat="44.08986" lon="3.06158">
        <ele>376</ele>
        <time>2016-05-22T07:25:46Z</time>
      </trkpt>
      <trkpt lat="44.08971" lon="3.06155">
        <ele>376</ele>
        <time>2016-05-22T07:25:53Z</time>
      </trkpt>
      <trkpt lat="44.08956" lon="3.06152">
        <ele>375.9</ele>
        <time>2016-05-22T07:26:00Z</time>
      </trkpt>
      <trkpt lat="44.08941" lon="3.06145">
        <ele>375.8</ele>
        <time>2016-05-22T07:26:07Z</time>
      </trkpt>
      <trkpt lat="44.08928" lon="3.06136">
        <ele>375.7</ele>
        <time>2016-05-22T07:26:14Z</time>
      </trkpt>
      <trkpt lat="44.08916" lon="3.06122">
        <ele>375.6</ele>
        <time>2016-05-22T07:26:21Z</time>
      </trkpt>
      <trkpt lat="44.08905" lon="3.06106">
        <ele>375.6</ele>
        <time>2016-05-22T07:26:28Z</time>
      </trkpt>
      <trkpt lat="44.08896" lon="3.06089">
        <ele>375.5</ele>
        <time>2016-05-22T07:26:35Z</time>
      </trkpt>
      <trkpt lat="44.08888" lon="3.0607">
        <ele>375.4</ele>
        <time>2016-05-22T07:26:42Z</time>
      </trkpt>
      <trkpt lat="44.08883" lon="3.06052">
        <ele>375.3</ele>
        <time>2016-05-22T07:26:48Z</time>
      </trkpt>
      <trkpt lat="44.08881" lon="3.0603">
        <ele>375.3</ele>
        <time>2016-05-22T07:26:54Z</time>
      </trkpt>
      <trkpt lat="44.08883" lon="3.06009">
        <ele>375.2</ele>
        <time>2016-05-22T07:27:00Z</time>
      </trkpt>
      <trkpt lat="44.08885" lon="3.05991">
        <ele>375.1</ele>
        <time>2016-05-22T07:27:05Z</time>
      </trkpt>
      <trkpt lat="44.08886" lon="3.05972">
        <ele>375.1</ele>
        <time>2016-05-22T07:27:11Z</time>
      </trkpt>
      <trkpt lat="44.08889" lon="3.05954">
        <ele>375</ele>
        <time>2016-05-22T07:27:17Z</time>
      </trkpt>
      <trkpt lat="44.08888" lon="3.05932">
        <ele>374.9</ele>
        <time>2016-05-22T07:27:25Z</time>
      </trkpt>
      <trkpt lat="44.08889" lon="3.05911">
        <ele>374.8</ele>
        <time>2016-05-22T07:27:34Z</time>
      </trkpt>
      <trkpt lat="44.08892" lon="3.05891">
        <ele>374.7</ele>
        <time>2016-05-22T07:27:41Z</time>
      </trkpt>
      <trkpt lat="44.08895" lon="3.05872">
        <ele>374.7</ele>
        <time>2016-05-22T07:27:48Z</time>
      </trkpt>
      <trkpt lat="44.08897" lon="3.05852">
        <ele>374.6</ele>
        <time>2016-05-22T07:27:57Z</time>
      </trkpt>
      <trkpt lat="44.089" lon="3.05831">
        <ele>374.5</ele>
        <time>2016-05-22T07:28:06Z</time>
      </trkpt>
      <trkpt lat="44.08902" lon="3.05811">
        <ele>374.4</ele>
        <time>2016-05-22T07:28:13Z</time>
      </trkpt>
      <trkpt lat="44.08905" lon="3.058">
        <ele>374.3</ele>
        <time>2016-05-22T07:28:18Z</time>
      </trkpt>
      <trkpt lat="44.0891" lon="3.05782">
        <ele>374.2</ele>
        <time>2016-05-22T07:28:29Z</time>
      </trkpt>
      <trkpt lat="44.08917" lon="3.05765">
        <ele>374.1</ele>
        <time>2016-05-22T07:28:35Z</time>
      </trkpt>
      <trkpt lat="44.08921" lon="3.05747">
        <ele>374</ele>
        <time>2016-05-22T07:28:42Z</time>
      </trkpt>
      <trkpt lat="44.0892" lon="3.05726">
        <ele>373.9</ele>
        <time>2016-05-22T07:28:51Z</time>
      </trkpt>
      <trkpt lat="44.08922" lon="3.05707">
        <ele>373.9</ele>
        <time>2016-05-22T07:28:58Z</time>
      </trkpt>
      <trkpt lat="44.08922" lon="3.05688">
        <ele>373.8</ele>
        <time>2016-05-22T07:29:06Z</time>
      </trkpt>
      <trkpt lat="44.08926" lon="3.05669">
        <ele>373.7</ele>
        <time>2016-05-22T07:29:13Z</time>
      </trkpt>
      <trkpt lat="44.08929" lon="3.05649">
        <ele>373.6</ele>
        <time>2016-05-22T07:29:20Z</time>
      </trkpt>
      <trkpt lat="44.08934" lon="3.05629">
        <ele>373.5</ele>
        <time>2016-05-22T07:29:27Z</time>
      </trkpt>
      <trkpt lat="44.08936" lon="3.0561">
        <ele>373.5</ele>
        <time>2016-05-22T07:29:34Z</time>
      </trkpt>
      <trkpt lat="44.0894" lon="3.0559">
        <ele>373.4</ele>
        <time>2016-05-22T07:29:41Z</time>
      </trkpt>
      <trkpt lat="44.08947" lon="3.05573">
        <ele>373.3</ele>
        <time>2016-05-22T07:29:49Z</time>
      </trkpt>
      <trkpt lat="44.08952" lon="3.05555">
        <ele>373.2</ele>
        <time>2016-05-22T07:29:56Z</time>
      </trkpt>
      <trkpt lat="44.08954" lon="3.05536">
        <ele>373.1</ele>
        <time>2016-05-22T07:30:03Z</time>
      </trkpt>
      <trkpt lat="44.08955" lon="3.05516">
        <ele>373.1</ele>
        <time>2016-05-22T07:30:09Z</time>
      </trkpt>
      <trkpt lat="44.08954" lon="3.05497">
        <ele>373</ele>
        <time>2016-05-22T07:30:14Z</time>
      </trkpt>
      <trkpt lat="44.08958" lon="3.05479">
        <ele>372.9</ele>
        <time>2016-05-22T07:30:20Z</time>
      </trkpt>
      <trkpt lat="44.08961" lon="3.05458">
        <ele>372.9</ele>
        <time>2016-05-22T07:30:26Z</time>
      </trkpt>
      <trkpt lat="44.08966" lon="3.05438">
        <ele>372.8</ele>
        <time>2016-05-22T07:30:33Z</time>
      </trkpt>
      <trkpt lat="44.08971" lon="3.05419">
        <ele>372.7</ele>
        <time>2016-05-22T07:30:39Z</time>
      </trkpt>
      <trkpt lat="44.08977" lon="3.05402">
        <ele>372.7</ele>
        <time>2016-05-22T07:30:44Z</time>
      </trkpt>
      <trkpt lat="44.08985" lon="3.05384">
        <ele>372.4</ele>
        <time>2016-05-22T07:30:50Z</time>
      </trkpt>
      <trkpt lat="44.08993" lon="3.05367">
        <ele>371.8</ele>
        <time>2016-05-22T07:30:57Z</time>
      </trkpt>
      <trkpt lat="44.09003" lon="3.05351">
        <ele>371.3</ele>
        <time>2016-05-22T07:31:03Z</time>
      </trkpt>
      <trkpt lat="44.09011" lon="3.05333">
        <ele>370.8</ele>
        <time>2016-05-22T07:31:09Z</time>
      </trkpt>
      <trkpt lat="44.0902" lon="3.05318">
        <ele>370.3</ele>
        <time>2016-05-22T07:31:15Z</time>
      </trkpt>
      <trkpt lat="44.09028" lon="3.05301">
        <ele>369.8</ele>
        <time>2016-05-22T07:31:21Z</time>
      </trkpt>
      <trkpt lat="44.09037" lon="3.05283">
        <ele>369.3</ele>
        <time>2016-05-22T07:31:27Z</time>
      </trkpt>
      <trkpt lat="44.09045" lon="3.05267">
        <ele>369</ele>
        <time>2016-05-22T07:31:33Z</time>
      </trkpt>
      <trkpt lat="44.09053" lon="3.05249">
        <ele>368.8</ele>
        <time>2016-05-22T07:31:39Z</time>
      </trkpt>
      <trkpt lat="44.09063" lon="3.05233">
        <ele>368.6</ele>
        <time>2016-05-22T07:31:44Z</time>
      </trkpt>
      <trkpt lat="44.09072" lon="3.05219">
        <ele>368.3</ele>
        <time>2016-05-22T07:31:50Z</time>
      </trkpt>
      <trkpt lat="44.09081" lon="3.05201">
        <ele>368</ele>
        <time>2016-05-22T07:31:56Z</time>
      </trkpt>
      <trkpt lat="44.09089" lon="3.05184">
        <ele>367.8</ele>
        <time>2016-05-22T07:32:01Z</time>
      </trkpt>
      <trkpt lat="44.09098" lon="3.05169">
        <ele>367.6</ele>
        <time>2016-05-22T07:32:06Z</time>
      </trkpt>
      <trkpt lat="44.09109" lon="3.05153">
        <ele>367.3</ele>
        <time>2016-05-22T07:32:13Z</time>
      </trkpt>
      <trkpt lat="44.0912" lon="3.05138">
        <ele>367</ele>
        <time>2016-05-22T07:32:19Z</time>
      </trkpt>
      <trkpt lat="44.09131" lon="3.05123">
        <ele>366.7</ele>
        <time>2016-05-22T07:32:25Z</time>
      </trkpt>
      <trkpt lat="44.09141" lon="3.05109">
        <ele>366.5</ele>
        <time>2016-05-22T07:32:31Z</time>
      </trkpt>
      <trkpt lat="44.09149" lon="3.05091">
        <ele>366.2</ele>
        <time>2016-05-22T07:32:38Z</time>
      </trkpt>
      <trkpt lat="44.09157" lon="3.05075">
        <ele>366</ele>
        <time>2016-05-22T07:32:44Z</time>
      </trkpt>
      <trkpt lat="44.09166" lon="3.05058">
        <ele>365.9</ele>
        <time>2016-05-22T07:32:50Z</time>
      </trkpt>
      <trkpt lat="44.09174" lon="3.0504">
        <ele>365.8</ele>
        <time>2016-05-22T07:32:56Z</time>
      </trkpt>
      <trkpt lat="44.09181" lon="3.0502">
        <ele>365.7</ele>
        <time>2016-05-22T07:33:02Z</time>
      </trkpt>
      <trkpt lat="44.09188" lon="3.05003">
        <ele>365.6</ele>
        <time>2016-05-22T07:33:08Z</time>
      </trkpt>
      <trkpt lat="44.09191" lon="3.04984">
        <ele>365.5</ele>
        <time>2016-05-22T07:33:14Z</time>
      </trkpt>
      <trkpt lat="44.09194" lon="3.04964">
        <ele>365.3</ele>
        <time>2016-05-22T07:33:21Z</time>
      </trkpt>
      <trkpt lat="44.09199" lon="3.04944">
        <ele>365.2</ele>
        <time>2016-05-22T07:33:28Z</time>
      </trkpt>
      <trkpt lat="44.09203" lon="3.04925">
        <ele>365.1</ele>
        <time>2016-05-22T07:33:34Z</time>
      </trkpt>
      <trkpt lat="44.09207" lon="3.04904">
        <ele>365</ele>
        <time>2016-05-22T07:33:40Z</time>
      </trkpt>
      <trkpt lat="44.09211" lon="3.04885">
        <ele>364.8</ele>
        <time>2016-05-22T07:33:46Z</time>
      </trkpt>
      <trkpt lat="44.09214" lon="3.04866">
        <ele>364.7</ele>
        <time>2016-05-22T07:33:52Z</time>
      </trkpt>
      <trkpt lat="44.09216" lon="3.04844">
        <ele>364.6</ele>
        <time>2016-05-22T07:33:58Z</time>
      </trkpt>
      <trkpt lat="44.0922" lon="3.04824">
        <ele>364.5</ele>
        <time>2016-05-22T07:34:04Z</time>
      </trkpt>
      <trkpt lat="44.09222" lon="3.04803">
        <ele>364.4</ele>
        <time>2016-05-22T07:34:10Z</time>
      </trkpt>
      <trkpt lat="44.09222" lon="3.04783">
        <ele>364.3</ele>
        <time>2016-05-22T07:34:16Z</time>
      </trkpt>
      <trkpt lat="44.0922" lon="3.04763">
        <ele>364.1</ele>
        <time>2016-05-22T07:34:23Z</time>
      </trkpt>
      <trkpt lat="44.09219" lon="3.04742">
        <ele>364</ele>
        <time>2016-05-22T07:34:31Z</time>
      </trkpt>
      <trkpt lat="44.09219" lon="3.04722">
        <ele>363.8</ele>
        <time>2016-05-22T07:34:38Z</time>
      </trkpt>
      <trkpt lat="44.09217" lon="3.04702">
        <ele>363.7</ele>
        <time>2016-05-22T07:34:44Z</time>
      </trkpt>
      <trkpt lat="44.09215" lon="3.04683">
        <ele>363.6</ele>
        <time>2016-05-22T07:34:50Z</time>
      </trkpt>
      <trkpt lat="44.09212" lon="3.04665">
        <ele>363.5</ele>
        <time>2016-05-22T07:34:56Z</time>
      </trkpt>
      <trkpt lat="44.09209" lon="3.04646">
        <ele>363.4</ele>
        <time>2016-05-22T07:35:02Z</time>
      </trkpt>
      <trkpt lat="44.09207" lon="3.04627">
        <ele>363.3</ele>
        <time>2016-05-22T07:35:08Z</time>
      </trkpt>
      <trkpt lat="44.09202" lon="3.04606">
        <ele>363.1</ele>
        <time>2016-05-22T07:35:15Z</time>
      </trkpt>
      <trkpt lat="44.09199" lon="3.04586">
        <ele>363</ele>
        <time>2016-05-22T07:35:21Z</time>
      </trkpt>
      <trkpt lat="44.09196" lon="3.04567">
        <ele>362.9</ele>
        <time>2016-05-22T07:35:26Z</time>
      </trkpt>
      <trkpt lat="44.09193" lon="3.04547">
        <ele>362.9</ele>
        <time>2016-05-22T07:35:31Z</time>
      </trkpt>
      <trkpt lat="44.0919" lon="3.04528">
        <ele>362.8</ele>
        <time>2016-05-22T07:35:36Z</time>
      </trkpt>
      <trkpt lat="44.09187" lon="3.0451">
        <ele>362.7</ele>
        <time>2016-05-22T07:35:41Z</time>
      </trkpt>
      <trkpt lat="44.09182" lon="3.04491">
        <ele>362.6</ele>
        <time>2016-05-22T07:35:47Z</time>
      </trkpt>
      <trkpt lat="44.09176" lon="3.04471">
        <ele>362.6</ele>
        <time>2016-05-22T07:35:53Z</time>
      </trkpt>
      <trkpt lat="44.09171" lon="3.04453">
        <ele>362.5</ele>
        <time>2016-05-22T07:35:59Z</time>
      </trkpt>
      <trkpt lat="44.09167" lon="3.04434">
        <ele>362.4</ele>
        <time>2016-05-22T07:36:05Z</time>
      </trkpt>
      <trkpt lat="44.09162" lon="3.04415">
        <ele>362.3</ele>
        <time>2016-05-22T07:36:11Z</time>
      </trkpt>
      <trkpt lat="44.0916" lon="3.04397">
        <ele>362.3</ele>
        <time>2016-05-22T07:36:17Z</time>
      </trkpt>
      <trkpt lat="44.09154" lon="3.04378">
        <ele>362.2</ele>
        <time>2016-05-22T07:36:23Z</time>
      </trkpt>
      <trkpt lat="44.09151" lon="3.04357">
        <ele>362.1</ele>
        <time>2016-05-22T07:36:29Z</time>
      </trkpt>
      <trkpt lat="44.09149" lon="3.04336">
        <ele>362</ele>
        <time>2016-05-22T07:36:35Z</time>
      </trkpt>
      <trkpt lat="44.09146" lon="3.04315">
        <ele>362</ele>
        <time>2016-05-22T07:36:41Z</time>
      </trkpt>
      <trkpt lat="44.09144" lon="3.04294">
        <ele>361.9</ele>
        <time>2016-05-22T07:36:48Z</time>
      </trkpt>
      <trkpt lat="44.09144" lon="3.04274">
        <ele>361.8</ele>
        <time>2016-05-22T07:36:54Z</time>
      </trkpt>
      <trkpt lat="44.09144" lon="3.04254">
        <ele>361.7</ele>
        <time>2016-05-22T07:37:00Z</time>
      </trkpt>
      <trkpt lat="44.09144" lon="3.04235">
        <ele>361.6</ele>
        <time>2016-05-22T07:37:06Z</time>
      </trkpt>
      <trkpt lat="44.09148" lon="3.04214">
        <ele>361.6</ele>
        <time>2016-05-22T07:37:12Z</time>
      </trkpt>
      <trkpt lat="44.09153" lon="3.04196">
        <ele>361.5</ele>
        <time>2016-05-22T07:37:16Z</time>
      </trkpt>
      <trkpt lat="44.09157" lon="3.04175">
        <ele>361.4</ele>
        <time>2016-05-22T07:37:22Z</time>
      </trkpt>
      <trkpt lat="44.09162" lon="3.04157">
        <ele>361.3</ele>
        <time>2016-05-22T07:37:30Z</time>
      </trkpt>
      <trkpt lat="44.09167" lon="3.04139">
        <ele>361.2</ele>
        <time>2016-05-22T07:37:37Z</time>
      </trkpt>
      <trkpt lat="44.09176" lon="3.04121">
        <ele>361.2</ele>
        <time>2016-05-22T07:37:43Z</time>
      </trkpt>
      <trkpt lat="44.09185" lon="3.04106">
        <ele>361.1</ele>
        <time>2016-05-22T07:37:48Z</time>
      </trkpt>
      <trkpt lat="44.09196" lon="3.04093">
        <ele>361</ele>
        <time>2016-05-22T07:37:53Z</time>
      </trkpt>
      <trkpt lat="44.09207" lon="3.04081">
        <ele>361</ele>
        <time>2016-05-22T07:37:58Z</time>
      </trkpt>
      <trkpt lat="44.09218" lon="3.04067">
        <ele>360.9</ele>
        <time>2016-05-22T07:38:04Z</time>
      </trkpt>
      <trkpt lat="44.09224" lon="3.04048">
        <ele>360.8</ele>
        <time>2016-05-22T07:38:10Z</time>
      </trkpt>
      <trkpt lat="44.09233" lon="3.04033">
        <ele>360.8</ele>
        <time>2016-05-22T07:38:16Z</time>
      </trkpt>
      <trkpt lat="44.09243" lon="3.04018">
        <ele>360.7</ele>
        <time>2016-05-22T07:38:22Z</time>
      </trkpt>
      <trkpt lat="44.09254" lon="3.04003">
        <ele>360.6</ele>
        <time>2016-05-22T07:38:29Z</time>
      </trkpt>
      <trkpt lat="44.09264" lon="3.03989">
        <ele>360.5</ele>
        <time>2016-05-22T07:38:35Z</time>
      </trkpt>
      <trkpt lat="44.09275" lon="3.03973">
        <ele>360.4</ele>
        <time>2016-05-22T07:38:41Z</time>
      </trkpt>
      <trkpt lat="44.09286" lon="3.03958">
        <ele>360.4</ele>
        <time>2016-05-22T07:38:47Z</time>
      </trkpt>
      <trkpt lat="44.09296" lon="3.03943">
        <ele>360.3</ele>
        <time>2016-05-22T07:38:53Z</time>
      </trkpt>
      <trkpt lat="44.09306" lon="3.03927">
        <ele>360.2</ele>
        <time>2016-05-22T07:38:59Z</time>
      </trkpt>
      <trkpt lat="44.09316" lon="3.03912">
        <ele>360.1</ele>
        <time>2016-05-22T07:39:04Z</time>
      </trkpt>
      <trkpt lat="44.09324" lon="3.03897">
        <ele>360.1</ele>
        <time>2016-05-22T07:39:09Z</time>
      </trkpt>
      <trkpt lat="44.09333" lon="3.03881">
        <ele>360</ele>
        <time>2016-05-22T07:39:14Z</time>
      </trkpt>
      <trkpt lat="44.09342" lon="3.03867">
        <ele>359.9</ele>
        <time>2016-05-22T07:39:19Z</time>
      </trkpt>
      <trkpt lat="44.09349" lon="3.0385">
        <ele>359.9</ele>
        <time>2016-05-22T07:39:25Z</time>
      </trkpt>
      <trkpt lat="44.09356" lon="3.03833">
        <ele>359.8</ele>
        <time>2016-05-22T07:39:32Z</time>
      </trkpt>
      <trkpt lat="44.09363" lon="3.03815">
        <ele>359.7</ele>
        <time>2016-05-22T07:39:38Z</time>
      </trkpt>
      <trkpt lat="44.09371" lon="3.03797">
        <ele>359.6</ele>
        <time>2016-05-22T07:39:43Z</time>
      </trkpt>
      <trkpt lat="44.09378" lon="3.03778">
        <ele>359.6</ele>
        <time>2016-05-22T07:39:48Z</time>
      </trkpt>
      <trkpt lat="44.09382" lon="3.03759">
        <ele>359.5</ele>
        <time>2016-05-22T07:39:53Z</time>
      </trkpt>
      <trkpt lat="44.09387" lon="3.03739">
        <ele>359.4</ele>
        <time>2016-05-22T07:39:59Z</time>
      </trkpt>
      <trkpt lat="44.09394" lon="3.03719">
        <ele>359.3</ele>
        <time>2016-05-22T07:40:06Z</time>
      </trkpt>
      <trkpt lat="44.094" lon="3.037">
        <ele>359.2</ele>
        <time>2016-05-22T07:40:11Z</time>
      </trkpt>
      <trkpt lat="44.09404" lon="3.03679">
        <ele>359.1</ele>
        <time>2016-05-22T07:40:17Z</time>
      </trkpt>
      <trkpt lat="44.09406" lon="3.03658">
        <ele>359.1</ele>
        <time>2016-05-22T07:40:23Z</time>
      </trkpt>
      <trkpt lat="44.09411" lon="3.03637">
        <ele>359</ele>
        <time>2016-05-22T07:40:29Z</time>
      </trkpt>
      <trkpt lat="44.09418" lon="3.03617">
        <ele>358.9</ele>
        <time>2016-05-22T07:40:33Z</time>
      </trkpt>
      <trkpt lat="44.09422" lon="3.03599">
        <ele>358.8</ele>
        <time>2016-05-22T07:40:38Z</time>
      </trkpt>
      <trkpt lat="44.09421" lon="3.03578">
        <ele>358.7</ele>
        <time>2016-05-22T07:40:47Z</time>
      </trkpt>
      <trkpt lat="44.09422" lon="3.03558">
        <ele>358.6</ele>
        <time>2016-05-22T07:40:54Z</time>
      </trkpt>
      <trkpt lat="44.09426" lon="3.03539">
        <ele>358.5</ele>
        <time>2016-05-22T07:41:01Z</time>
      </trkpt>
      <trkpt lat="44.09427" lon="3.03518">
        <ele>358.4</ele>
        <time>2016-05-22T07:41:08Z</time>
      </trkpt>
      <trkpt lat="44.09426" lon="3.03497">
        <ele>358.3</ele>
        <time>2016-05-22T07:41:15Z</time>
      </trkpt>
      <trkpt lat="44.09433" lon="3.0348">
        <ele>358.2</ele>
        <time>2016-05-22T07:41:21Z</time>
      </trkpt>
      <trkpt lat="44.09435" lon="3.03461">
        <ele>358.1</ele>
        <time>2016-05-22T07:41:27Z</time>
      </trkpt>
      <trkpt lat="44.09434" lon="3.03441">
        <ele>358</ele>
        <time>2016-05-22T07:41:34Z</time>
      </trkpt>
      <trkpt lat="44.09434" lon="3.03422">
        <ele>357.9</ele>
        <time>2016-05-22T07:41:40Z</time>
      </trkpt>
      <trkpt lat="44.09433" lon="3.03402">
        <ele>357.9</ele>
        <time>2016-05-22T07:41:46Z</time>
      </trkpt>
      <trkpt lat="44.09432" lon="3.03381">
        <ele>357.8</ele>
        <time>2016-05-22T07:41:53Z</time>
      </trkpt>
      <trkpt lat="44.09432" lon="3.03361">
        <ele>357.7</ele>
        <time>2016-05-22T07:41:59Z</time>
      </trkpt>
      <trkpt lat="44.09432" lon="3.0334">
        <ele>357.6</ele>
        <time>2016-05-22T07:42:04Z</time>
      </trkpt>
      <trkpt lat="44.09431" lon="3.03319">
        <ele>357.5</ele>
        <time>2016-05-22T07:42:09Z</time>
      </trkpt>
      <trkpt lat="44.09422" lon="3.03305">
        <ele>357.4</ele>
        <time>2016-05-22T07:42:15Z</time>
      </trkpt>
      <trkpt lat="44.09414" lon="3.03289">
        <ele>357.4</ele>
        <time>2016-05-22T07:42:21Z</time>
      </trkpt>
      <trkpt lat="44.09406" lon="3.03271">
        <ele>357.3</ele>
        <time>2016-05-22T07:42:28Z</time>
      </trkpt>
      <trkpt lat="44.09402" lon="3.03251">
        <ele>357.2</ele>
        <time>2016-05-22T07:42:34Z</time>
      </trkpt>
      <trkpt lat="44.09397" lon="3.0323">
        <ele>357.1</ele>
        <time>2016-05-22T07:42:40Z</time>
      </trkpt>
      <trkpt lat="44.09392" lon="3.03212">
        <ele>357</ele>
        <time>2016-05-22T07:42:46Z</time>
      </trkpt>
      <trkpt lat="44.09383" lon="3.03196">
        <ele>356.9</ele>
        <time>2016-05-22T07:42:52Z</time>
      </trkpt>
      <trkpt lat="44.09377" lon="3.03178">
        <ele>356.8</ele>
        <time>2016-05-22T07:42:57Z</time>
      </trkpt>
      <trkpt lat="44.09369" lon="3.03163">
        <ele>356.8</ele>
        <time>2016-05-22T07:43:02Z</time>
      </trkpt>
      <trkpt lat="44.09357" lon="3.03152">
        <ele>356.7</ele>
        <time>2016-05-22T07:43:09Z</time>
      </trkpt>
      <trkpt lat="44.09346" lon="3.03135">
        <ele>356.6</ele>
        <time>2016-05-22T07:43:16Z</time>
      </trkpt>
      <trkpt lat="44.09336" lon="3.0312">
        <ele>356.5</ele>
        <time>2016-05-22T07:43:22Z</time>
      </trkpt>
      <trkpt lat="44.09324" lon="3.0311">
        <ele>356.4</ele>
        <time>2016-05-22T07:43:28Z</time>
      </trkpt>
      <trkpt lat="44.09316" lon="3.03091">
        <ele>356.3</ele>
        <time>2016-05-22T07:43:34Z</time>
      </trkpt>
      <trkpt lat="44.09306" lon="3.03076">
        <ele>356.2</ele>
        <time>2016-05-22T07:43:40Z</time>
      </trkpt>
      <trkpt lat="44.09297" lon="3.03059">
        <ele>356.1</ele>
        <time>2016-05-22T07:43:47Z</time>
      </trkpt>
      <trkpt lat="44.09288" lon="3.03041">
        <ele>356.2</ele>
        <time>2016-05-22T07:43:52Z</time>
      </trkpt>
      <trkpt lat="44.09277" lon="3.03029">
        <ele>356.3</ele>
        <time>2016-05-22T07:43:58Z</time>
      </trkpt>
      <trkpt lat="44.09263" lon="3.03017">
        <ele>356.4</ele>
        <time>2016-05-22T07:44:04Z</time>
      </trkpt>
      <trkpt lat="44.0925" lon="3.03005">
        <ele>356.5</ele>
        <time>2016-05-22T07:44:10Z</time>
      </trkpt>
      <trkpt lat="44.09236" lon="3.02999">
        <ele>356.6</ele>
        <time>2016-05-22T07:44:16Z</time>
      </trkpt>
      <trkpt lat="44.09222" lon="3.02993">
        <ele>356.7</ele>
        <time>2016-05-22T07:44:21Z</time>
      </trkpt>
      <trkpt lat="44.0921" lon="3.02982">
        <ele>356.8</ele>
        <time>2016-05-22T07:44:26Z</time>
      </trkpt>
      <trkpt lat="44.09196" lon="3.02972">
        <ele>356.9</ele>
        <time>2016-05-22T07:44:31Z</time>
      </trkpt>
      <trkpt lat="44.09184" lon="3.02958">
        <ele>357</ele>
        <time>2016-05-22T07:44:37Z</time>
      </trkpt>
      <trkpt lat="44.0917" lon="3.02945">
        <ele>357.1</ele>
        <time>2016-05-22T07:44:43Z</time>
      </trkpt>
      <trkpt lat="44.09159" lon="3.02934">
        <ele>357.2</ele>
        <time>2016-05-22T07:44:49Z</time>
      </trkpt>
      <trkpt lat="44.09146" lon="3.02927">
        <ele>357.3</ele>
        <time>2016-05-22T07:44:54Z</time>
      </trkpt>
      <trkpt lat="44.09134" lon="3.02916">
        <ele>357.4</ele>
        <time>2016-05-22T07:45:00Z</time>
      </trkpt>
      <trkpt lat="44.09121" lon="3.02906">
        <ele>357.5</ele>
        <time>2016-05-22T07:45:06Z</time>
      </trkpt>
      <trkpt lat="44.09108" lon="3.02896">
        <ele>357.6</ele>
        <time>2016-05-22T07:45:12Z</time>
      </trkpt>
      <trkpt lat="44.09097" lon="3.02884">
        <ele>357.7</ele>
        <time>2016-05-22T07:45:18Z</time>
      </trkpt>
      <trkpt lat="44.09083" lon="3.02874">
        <ele>357.9</ele>
        <time>2016-05-22T07:45:24Z</time>
      </trkpt>
      <trkpt lat="44.09071" lon="3.02864">
        <ele>357.9</ele>
        <time>2016-05-22T07:45:29Z</time>
      </trkpt>
      <trkpt lat="44.09057" lon="3.02856">
        <ele>358</ele>
        <time>2016-05-22T07:45:35Z</time>
      </trkpt>
      <trkpt lat="44.09043" lon="3.02847">
        <ele>358.2</ele>
        <time>2016-05-22T07:45:42Z</time>
      </trkpt>
      <trkpt lat="44.09028" lon="3.02841">
        <ele>358.3</ele>
        <time>2016-05-22T07:45:49Z</time>
      </trkpt>
      <trkpt lat="44.09013" lon="3.02836">
        <ele>358.4</ele>
        <time>2016-05-22T07:45:55Z</time>
      </trkpt>
      <trkpt lat="44.08999" lon="3.0283">
        <ele>358.5</ele>
        <time>2016-05-22T07:46:01Z</time>
      </trkpt>
      <trkpt lat="44.08984" lon="3.02823">
        <ele>358.6</ele>
        <time>2016-05-22T07:46:07Z</time>
      </trkpt>
      <trkpt lat="44.0897" lon="3.02816">
        <ele>358.7</ele>
        <time>2016-05-22T07:46:13Z</time>
      </trkpt>
      <trkpt lat="44.08956" lon="3.02809">
        <ele>358.8</ele>
        <time>2016-05-22T07:46:19Z</time>
      </trkpt>
      <trkpt lat="44.08943" lon="3.02803">
        <ele>358.9</ele>
        <time>2016-05-22T07:46:25Z</time>
      </trkpt>
      <trkpt lat="44.08929" lon="3.02793">
        <ele>359.1</ele>
        <time>2016-05-22T07:46:31Z</time>
      </trkpt>
      <trkpt lat="44.08915" lon="3.02783">
        <ele>359.2</ele>
        <time>2016-05-22T07:46:38Z</time>
      </trkpt>
      <trkpt lat="44.08903" lon="3.02771">
        <ele>359.3</ele>
        <time>2016-05-22T07:46:45Z</time>
      </trkpt>
      <trkpt lat="44.0889" lon="3.02762">
        <ele>359.4</ele>
        <time>2016-05-22T07:46:52Z</time>
      </trkpt>
      <trkpt lat="44.08878" lon="3.02748">
        <ele>359.6</ele>
        <time>2016-05-22T07:46:59Z</time>
      </trkpt>
      <trkpt lat="44.08864" lon="3.02737">
        <ele>359.7</ele>
        <time>2016-05-22T07:47:06Z</time>
      </trkpt>
      <trkpt lat="44.08852" lon="3.02727">
        <ele>359.8</ele>
        <time>2016-05-22T07:47:12Z</time>
      </trkpt>
      <trkpt lat="44.08851" lon="3.02708">
        <ele>359.9</ele>
        <time>2016-05-22T07:47:18Z</time>
      </trkpt>
      <trkpt lat="44.08852" lon="3.02688">
        <ele>360</ele>
        <time>2016-05-22T07:47:23Z</time>
      </trkpt>
      <trkpt lat="44.08847" lon="3.0267">
        <ele>360.1</ele>
        <time>2016-05-22T07:47:28Z</time>
      </trkpt>
      <trkpt lat="44.08839" lon="3.02654">
        <ele>360.2</ele>
        <time>2016-05-22T07:47:33Z</time>
      </trkpt>
      <trkpt lat="44.0883" lon="3.02636">
        <ele>361.7</ele>
        <time>2016-05-22T07:47:39Z</time>
      </trkpt>
      <trkpt lat="44.08816" lon="3.02627">
        <ele>363.2</ele>
        <time>2016-05-22T07:47:45Z</time>
      </trkpt>
      <trkpt lat="44.08804" lon="3.02613">
        <ele>364.8</ele>
        <time>2016-05-22T07:47:53Z</time>
      </trkpt>
      <trkpt lat="44.08796" lon="3.02598">
        <ele>365.6</ele>
        <time>2016-05-22T07:47:59Z</time>
      </trkpt>
      <trkpt lat="44.08783" lon="3.02591">
        <ele>366.4</ele>
        <time>2016-05-22T07:48:05Z</time>
      </trkpt>
      <trkpt lat="44.08773" lon="3.02578">
        <ele>367.1</ele>
        <time>2016-05-22T07:48:11Z</time>
      </trkpt>
      <trkpt lat="44.08762" lon="3.02565">
        <ele>368</ele>
        <time>2016-05-22T07:48:17Z</time>
      </trkpt>
      <trkpt lat="44.08755" lon="3.02546">
        <ele>369.3</ele>
        <time>2016-05-22T07:48:23Z</time>
      </trkpt>
      <trkpt lat="44.08742" lon="3.02535">
        <ele>370.8</ele>
        <time>2016-05-22T07:48:30Z</time>
      </trkpt>
      <trkpt lat="44.08739" lon="3.02515">
        <ele>372.2</ele>
        <time>2016-05-22T07:48:37Z</time>
      </trkpt>
      <trkpt lat="44.08734" lon="3.02497">
        <ele>373.7</ele>
        <time>2016-05-22T07:48:44Z</time>
      </trkpt>
      <trkpt lat="44.08729" lon="3.02477">
        <ele>375.4</ele>
        <time>2016-05-22T07:48:53Z</time>
      </trkpt>
      <trkpt lat="44.08726" lon="3.02457">
        <ele>376.6</ele>
        <time>2016-05-22T07:49:00Z</time>
      </trkpt>
      <trkpt lat="44.08723" lon="3.02437">
        <ele>377.8</ele>
        <time>2016-05-22T07:49:07Z</time>
      </trkpt>
      <trkpt lat="44.08717" lon="3.02419">
        <ele>379.1</ele>
        <time>2016-05-22T07:49:14Z</time>
      </trkpt>
      <trkpt lat="44.08708" lon="3.02402">
        <ele>380.5</ele>
        <time>2016-05-22T07:49:22Z</time>
      </trkpt>
      <trkpt lat="44.08701" lon="3.02385">
        <ele>381.9</ele>
        <time>2016-05-22T07:49:30Z</time>
      </trkpt>
      <trkpt lat="44.08695" lon="3.02366">
        <ele>383.2</ele>
        <time>2016-05-22T07:49:38Z</time>
      </trkpt>
      <trkpt lat="44.08694" lon="3.02346">
        <ele>384.2</ele>
        <time>2016-05-22T07:49:45Z</time>
      </trkpt>
      <trkpt lat="44.08697" lon="3.02326">
        <ele>385.3</ele>
        <time>2016-05-22T07:49:52Z</time>
      </trkpt>
      <trkpt lat="44.08701" lon="3.02306">
        <ele>386.6</ele>
        <time>2016-05-22T07:49:59Z</time>
      </trkpt>
      <trkpt lat="44.08701" lon="3.02286">
        <ele>388.4</ele>
        <time>2016-05-22T07:50:08Z</time>
      </trkpt>
      <trkpt lat="44.0869" lon="3.02274">
        <ele>389.7</ele>
        <time>2016-05-22T07:50:15Z</time>
      </trkpt>
      <trkpt lat="44.08682" lon="3.02256">
        <ele>391.1</ele>
        <time>2016-05-22T07:50:23Z</time>
      </trkpt>
      <trkpt lat="44.0868" lon="3.02234">
        <ele>392.4</ele>
        <time>2016-05-22T07:50:30Z</time>
      </trkpt>
      <trkpt lat="44.08677" lon="3.02215">
        <ele>393.4</ele>
        <time>2016-05-22T07:50:37Z</time>
      </trkpt>
      <trkpt lat="44.08672" lon="3.02195">
        <ele>394.4</ele>
        <time>2016-05-22T07:50:44Z</time>
      </trkpt>
      <trkpt lat="44.08669" lon="3.02191">
        <ele>395.1</ele>
        <time>2016-05-22T07:50:49Z</time>
      </trkpt>
      <trkpt lat="44.08682" lon="3.02196">
        <ele>395.8</ele>
        <time>2016-05-22T07:50:56Z</time>
      </trkpt>
      <trkpt lat="44.08694" lon="3.0221">
        <ele>396</ele>
        <time>2016-05-22T07:51:02Z</time>
      </trkpt>
      <trkpt lat="44.08702" lon="3.02228">
        <ele>396.2</ele>
        <time>2016-05-22T07:51:08Z</time>
      </trkpt>
      <trkpt lat="44.08709" lon="3.02246">
        <ele>397.2</ele>
        <time>2016-05-22T07:51:14Z</time>
      </trkpt>
      <trkpt lat="44.08718" lon="3.02262">
        <ele>398.8</ele>
        <time>2016-05-22T07:51:21Z</time>
      </trkpt>
      <trkpt lat="44.08725" lon="3.0228">
        <ele>400.1</ele>
        <time>2016-05-22T07:51:28Z</time>
      </trkpt>
      <trkpt lat="44.08732" lon="3.02297">
        <ele>401.5</ele>
        <time>2016-05-22T07:51:35Z</time>
      </trkpt>
      <trkpt lat="44.08735" lon="3.02316">
        <ele>403.2</ele>
        <time>2016-05-22T07:51:43Z</time>
      </trkpt>
      <trkpt lat="44.08739" lon="3.02335">
        <ele>404.8</ele>
        <time>2016-05-22T07:51:50Z</time>
      </trkpt>
      <trkpt lat="44.08747" lon="3.0235">
        <ele>405.8</ele>
        <time>2016-05-22T07:51:57Z</time>
      </trkpt>
      <trkpt lat="44.08758" lon="3.02361">
        <ele>406.9</ele>
        <time>2016-05-22T07:52:04Z</time>
      </trkpt>
      <trkpt lat="44.08773" lon="3.02367">
        <ele>407.9</ele>
        <time>2016-05-22T07:52:11Z</time>
      </trkpt>
      <trkpt lat="44.08788" lon="3.02371">
        <ele>409.2</ele>
        <time>2016-05-22T07:52:18Z</time>
      </trkpt>
      <trkpt lat="44.08801" lon="3.02381">
        <ele>410.8</ele>
        <time>2016-05-22T07:52:26Z</time>
      </trkpt>
      <trkpt lat="44.0881" lon="3.02396">
        <ele>411.9</ele>
        <time>2016-05-22T07:52:33Z</time>
      </trkpt>
      <trkpt lat="44.08815" lon="3.02414">
        <ele>412.9</ele>
        <time>2016-05-22T07:52:41Z</time>
      </trkpt>
      <trkpt lat="44.08818" lon="3.02432">
        <ele>413.9</ele>
        <time>2016-05-22T07:52:49Z</time>
      </trkpt>
      <trkpt lat="44.08823" lon="3.02452">
        <ele>415.1</ele>
        <time>2016-05-22T07:52:58Z</time>
      </trkpt>
      <trkpt lat="44.08832" lon="3.02466">
        <ele>416.1</ele>
        <time>2016-05-22T07:53:06Z</time>
      </trkpt>
      <trkpt lat="44.08843" lon="3.0248">
        <ele>416</ele>
        <time>2016-05-22T07:53:15Z</time>
      </trkpt>
      <trkpt lat="44.08855" lon="3.02492">
        <ele>417.6</ele>
        <time>2016-05-22T07:53:24Z</time>
      </trkpt>
      <trkpt lat="44.08868" lon="3.025">
        <ele>419.1</ele>
        <time>2016-05-22T07:53:33Z</time>
      </trkpt>
      <trkpt lat="44.08883" lon="3.02505">
        <ele>421.8</ele>
        <time>2016-05-22T07:53:42Z</time>
      </trkpt>
      <trkpt lat="44.08897" lon="3.02507">
        <ele>424</ele>
        <time>2016-05-22T07:53:52Z</time>
      </trkpt>
      <trkpt lat="44.08911" lon="3.02512">
        <ele>425.1</ele>
        <time>2016-05-22T07:54:01Z</time>
      </trkpt>
      <trkpt lat="44.08924" lon="3.02517">
        <ele>426.1</ele>
        <time>2016-05-22T07:54:09Z</time>
      </trkpt>
      <trkpt lat="44.08937" lon="3.02513">
        <ele>426.9</ele>
        <time>2016-05-22T07:54:16Z</time>
      </trkpt>
      <trkpt lat="44.08939" lon="3.02496">
        <ele>427.3</ele>
        <time>2016-05-22T07:54:20Z</time>
      </trkpt>
      <trkpt lat="44.08929" lon="3.02482">
        <ele>427.8</ele>
        <time>2016-05-22T07:54:25Z</time>
      </trkpt>
      <trkpt lat="44.08916" lon="3.02476">
        <ele>428.4</ele>
        <time>2016-05-22T07:54:30Z</time>
      </trkpt>
      <trkpt lat="44.08901" lon="3.02471">
        <ele>429</ele>
        <time>2016-05-22T07:54:36Z</time>
      </trkpt>
      <trkpt lat="44.08889" lon="3.02461">
        <ele>429.6</ele>
        <time>2016-05-22T07:54:42Z</time>
      </trkpt>
      <trkpt lat="44.08882" lon="3.02445">
        <ele>430.3</ele>
        <time>2016-05-22T07:54:48Z</time>
      </trkpt>
      <trkpt lat="44.08875" lon="3.02426">
        <ele>431.2</ele>
        <time>2016-05-22T07:54:55Z</time>
      </trkpt>
      <trkpt lat="44.08873" lon="3.02408">
        <ele>432</ele>
        <time>2016-05-22T07:55:01Z</time>
      </trkpt>
      <trkpt lat="44.08862" lon="3.02394">
        <ele>432.9</ele>
        <time>2016-05-22T07:55:08Z</time>
      </trkpt>
      <trkpt lat="44.08858" lon="3.02375">
        <ele>433.8</ele>
        <time>2016-05-22T07:55:15Z</time>
      </trkpt>
      <trkpt lat="44.08856" lon="3.02355">
        <ele>435.6</ele>
        <time>2016-05-22T07:55:23Z</time>
      </trkpt>
      <trkpt lat="44.08865" lon="3.02337">
        <ele>438.2</ele>
        <time>2016-05-22T07:55:36Z</time>
      </trkpt>
      <trkpt lat="44.08867" lon="3.02317">
        <ele>439.9</ele>
        <time>2016-05-22T07:55:43Z</time>
      </trkpt>
      <trkpt lat="44.08862" lon="3.02299">
        <ele>442.3</ele>
        <time>2016-05-22T07:55:51Z</time>
      </trkpt>
      <trkpt lat="44.08852" lon="3.02282">
        <ele>444</ele>
        <time>2016-05-22T07:55:59Z</time>
      </trkpt>
      <trkpt lat="44.08845" lon="3.02264">
        <ele>445.5</ele>
        <time>2016-05-22T07:56:06Z</time>
      </trkpt>
      <trkpt lat="44.08837" lon="3.02246">
        <ele>447.6</ele>
        <time>2016-05-22T07:56:15Z</time>
      </trkpt>
      <trkpt lat="44.0883" lon="3.02228">
        <ele>449.6</ele>
        <time>2016-05-22T07:56:23Z</time>
      </trkpt>
      <trkpt lat="44.0883" lon="3.02208">
        <ele>451.4</ele>
        <time>2016-05-22T07:56:32Z</time>
      </trkpt>
      <trkpt lat="44.08828" lon="3.02187">
        <ele>452.8</ele>
        <time>2016-05-22T07:56:39Z</time>
      </trkpt>
      <trkpt lat="44.08821" lon="3.0217">
        <ele>454.6</ele>
        <time>2016-05-22T07:56:48Z</time>
      </trkpt>
      <trkpt lat="44.08815" lon="3.02152">
        <ele>456.2</ele>
        <time>2016-05-22T07:56:56Z</time>
      </trkpt>
      <trkpt lat="44.08807" lon="3.02135">
        <ele>457.7</ele>
        <time>2016-05-22T07:57:05Z</time>
      </trkpt>
      <trkpt lat="44.08799" lon="3.0212">
        <ele>459.3</ele>
        <time>2016-05-22T07:57:16Z</time>
      </trkpt>
      <trkpt lat="44.08794" lon="3.02101">
        <ele>460.6</ele>
        <time>2016-05-22T07:57:24Z</time>
      </trkpt>
      <trkpt lat="44.08789" lon="3.02084">
        <ele>462.3</ele>
        <time>2016-05-22T07:57:32Z</time>
      </trkpt>
      <trkpt lat="44.08783" lon="3.02067">
        <ele>464</ele>
        <time>2016-05-22T07:57:40Z</time>
      </trkpt>
      <trkpt lat="44.08779" lon="3.02048">
        <ele>465.4</ele>
        <time>2016-05-22T07:57:48Z</time>
      </trkpt>
      <trkpt lat="44.08777" lon="3.02027">
        <ele>467</ele>
        <time>2016-05-22T07:57:57Z</time>
      </trkpt>
      <trkpt lat="44.08774" lon="3.02008">
        <ele>468.8</ele>
        <time>2016-05-22T07:58:05Z</time>
      </trkpt>
      <trkpt lat="44.08773" lon="3.01988">
        <ele>471</ele>
        <time>2016-05-22T07:58:13Z</time>
      </trkpt>
      <trkpt lat="44.08774" lon="3.01969">
        <ele>472.5</ele>
        <time>2016-05-22T07:58:20Z</time>
      </trkpt>
      <trkpt lat="44.08775" lon="3.01949">
        <ele>474.6</ele>
        <time>2016-05-22T07:58:30Z</time>
      </trkpt>
      <trkpt lat="44.0878" lon="3.01931">
        <ele>476.2</ele>
        <time>2016-05-22T07:58:37Z</time>
      </trkpt>
      <trkpt lat="44.08787" lon="3.01915">
        <ele>478.4</ele>
        <time>2016-05-22T07:58:48Z</time>
      </trkpt>
      <trkpt lat="44.088" lon="3.01903">
        <ele>479.6</ele>
        <time>2016-05-22T07:58:56Z</time>
      </trkpt>
      <trkpt lat="44.08814" lon="3.01893">
        <ele>480.9</ele>
        <time>2016-05-22T07:59:05Z</time>
      </trkpt>
      <trkpt lat="44.08829" lon="3.01898">
        <ele>481.8</ele>
        <time>2016-05-22T07:59:12Z</time>
      </trkpt>
      <trkpt lat="44.08836" lon="3.01912">
        <ele>482.6</ele>
        <time>2016-05-22T07:59:18Z</time>
      </trkpt>
      <trkpt lat="44.08829" lon="3.01928">
        <ele>483.3</ele>
        <time>2016-05-22T07:59:24Z</time>
      </trkpt>
      <trkpt lat="44.08816" lon="3.01937">
        <ele>484</ele>
        <time>2016-05-22T07:59:30Z</time>
      </trkpt>
      <trkpt lat="44.08808" lon="3.01954">
        <ele>484.9</ele>
        <time>2016-05-22T07:59:37Z</time>
      </trkpt>
      <trkpt lat="44.08803" lon="3.01974">
        <ele>486.2</ele>
        <time>2016-05-22T07:59:44Z</time>
      </trkpt>
      <trkpt lat="44.08804" lon="3.01995">
        <ele>487.7</ele>
        <time>2016-05-22T07:59:52Z</time>
      </trkpt>
      <trkpt lat="44.08808" lon="3.02015">
        <ele>488.8</ele>
        <time>2016-05-22T07:59:59Z</time>
      </trkpt>
      <trkpt lat="44.08814" lon="3.02032">
        <ele>489.8</ele>
        <time>2016-05-22T08:00:06Z</time>
      </trkpt>
      <trkpt lat="44.08824" lon="3.02047">
        <ele>490.9</ele>
        <time>2016-05-22T08:00:14Z</time>
      </trkpt>
      <trkpt lat="44.08834" lon="3.02062">
        <ele>492.6</ele>
        <time>2016-05-22T08:00:22Z</time>
      </trkpt>
      <trkpt lat="44.08844" lon="3.02078">
        <ele>494.4</ele>
        <time>2016-05-22T08:00:30Z</time>
      </trkpt>
      <trkpt lat="44.08853" lon="3.02094">
        <ele>496</ele>
        <time>2016-05-22T08:00:38Z</time>
      </trkpt>
      <trkpt lat="44.08863" lon="3.02107">
        <ele>497.5</ele>
        <time>2016-05-22T08:00:46Z</time>
      </trkpt>
      <trkpt lat="44.08873" lon="3.02122">
        <ele>499.2</ele>
        <time>2016-05-22T08:00:55Z</time>
      </trkpt>
      <trkpt lat="44.08883" lon="3.02136">
        <ele>500.8</ele>
        <time>2016-05-22T08:01:03Z</time>
      </trkpt>
      <trkpt lat="44.08892" lon="3.02153">
        <ele>502.5</ele>
        <time>2016-05-22T08:01:11Z</time>
      </trkpt>
      <trkpt lat="44.08902" lon="3.02167">
        <ele>503.9</ele>
        <time>2016-05-22T08:01:19Z</time>
      </trkpt>
      <trkpt lat="44.08913" lon="3.02179">
        <ele>505.2</ele>
        <time>2016-05-22T08:01:27Z</time>
      </trkpt>
      <trkpt lat="44.08924" lon="3.02191">
        <ele>506.9</ele>
        <time>2016-05-22T08:01:35Z</time>
      </trkpt>
      <trkpt lat="44.08934" lon="3.02206">
        <ele>509.9</ele>
        <time>2016-05-22T08:01:43Z</time>
      </trkpt>
      <trkpt lat="44.08945" lon="3.02217">
        <ele>511.1</ele>
        <time>2016-05-22T08:01:51Z</time>
      </trkpt>
      <trkpt lat="44.08957" lon="3.0223">
        <ele>512.3</ele>
        <time>2016-05-22T08:01:59Z</time>
      </trkpt>
      <trkpt lat="44.08966" lon="3.02245">
        <ele>513.7</ele>
        <time>2016-05-22T08:02:08Z</time>
      </trkpt>
      <trkpt lat="44.08977" lon="3.02258">
        <ele>515.3</ele>
        <time>2016-05-22T08:02:17Z</time>
      </trkpt>
      <trkpt lat="44.08988" lon="3.02272">
        <ele>516.9</ele>
        <time>2016-05-22T08:02:26Z</time>
      </trkpt>
      <trkpt lat="44.08995" lon="3.0229">
        <ele>518.5</ele>
        <time>2016-05-22T08:02:35Z</time>
      </trkpt>
      <trkpt lat="44.09004" lon="3.02305">
        <ele>520.1</ele>
        <time>2016-05-22T08:02:44Z</time>
      </trkpt>
      <trkpt lat="44.09015" lon="3.02317">
        <ele>521.5</ele>
        <time>2016-05-22T08:02:53Z</time>
      </trkpt>
      <trkpt lat="44.09027" lon="3.02325">
        <ele>522.8</ele>
        <time>2016-05-22T08:03:01Z</time>
      </trkpt>
      <trkpt lat="44.09041" lon="3.02335">
        <ele>524.2</ele>
        <time>2016-05-22T08:03:10Z</time>
      </trkpt>
      <trkpt lat="44.09054" lon="3.02344">
        <ele>525.7</ele>
        <time>2016-05-22T08:03:18Z</time>
      </trkpt>
      <trkpt lat="44.09067" lon="3.02353">
        <ele>527.2</ele>
        <time>2016-05-22T08:03:26Z</time>
      </trkpt>
      <trkpt lat="44.09081" lon="3.02359">
        <ele>529.1</ele>
        <time>2016-05-22T08:03:35Z</time>
      </trkpt>
      <trkpt lat="44.09094" lon="3.02366">
        <ele>530.8</ele>
        <time>2016-05-22T08:03:43Z</time>
      </trkpt>
      <trkpt lat="44.09107" lon="3.02369">
        <ele>532.6</ele>
        <time>2016-05-22T08:03:50Z</time>
      </trkpt>
      <trkpt lat="44.09122" lon="3.02369">
        <ele>534.6</ele>
        <time>2016-05-22T08:03:58Z</time>
      </trkpt>
      <trkpt lat="44.09136" lon="3.02375">
        <ele>536.3</ele>
        <time>2016-05-22T08:04:06Z</time>
      </trkpt>
      <trkpt lat="44.0915" lon="3.02379">
        <ele>538.1</ele>
        <time>2016-05-22T08:04:15Z</time>
      </trkpt>
      <trkpt lat="44.09164" lon="3.02385">
        <ele>540</ele>
        <time>2016-05-22T08:04:24Z</time>
      </trkpt>
      <trkpt lat="44.09178" lon="3.02386">
        <ele>541.9</ele>
        <time>2016-05-22T08:04:33Z</time>
      </trkpt>
      <trkpt lat="44.09193" lon="3.02382">
        <ele>543.3</ele>
        <time>2016-05-22T08:04:42Z</time>
      </trkpt>
      <trkpt lat="44.09207" lon="3.02384">
        <ele>544.7</ele>
        <time>2016-05-22T08:04:51Z</time>
      </trkpt>
      <trkpt lat="44.0922" lon="3.02391">
        <ele>545.9</ele>
        <time>2016-05-22T08:04:59Z</time>
      </trkpt>
      <trkpt lat="44.09232" lon="3.02404">
        <ele>547.7</ele>
        <time>2016-05-22T08:05:08Z</time>
      </trkpt>
      <trkpt lat="44.09244" lon="3.02413">
        <ele>549.6</ele>
        <time>2016-05-22T08:05:17Z</time>
      </trkpt>
      <trkpt lat="44.09259" lon="3.02418">
        <ele>551.6</ele>
        <time>2016-05-22T08:05:26Z</time>
      </trkpt>
      <trkpt lat="44.09274" lon="3.02417">
        <ele>553.2</ele>
        <time>2016-05-22T08:05:34Z</time>
      </trkpt>
      <trkpt lat="44.09288" lon="3.0241">
        <ele>554.8</ele>
        <time>2016-05-22T08:05:42Z</time>
      </trkpt>
      <trkpt lat="44.09302" lon="3.0241">
        <ele>556.5</ele>
        <time>2016-05-22T08:05:51Z</time>
      </trkpt>
      <trkpt lat="44.09314" lon="3.024">
        <ele>558.2</ele>
        <time>2016-05-22T08:06:00Z</time>
      </trkpt>
      <trkpt lat="44.09324" lon="3.02387">
        <ele>559.6</ele>
        <time>2016-05-22T08:06:08Z</time>
      </trkpt>
      <trkpt lat="44.09338" lon="3.02384">
        <ele>560.8</ele>
        <time>2016-05-22T08:06:15Z</time>
      </trkpt>
      <trkpt lat="44.09352" lon="3.02384">
        <ele>562.1</ele>
        <time>2016-05-22T08:06:23Z</time>
      </trkpt>
      <trkpt lat="44.09366" lon="3.02377">
        <ele>563.6</ele>
        <time>2016-05-22T08:06:32Z</time>
      </trkpt>
      <trkpt lat="44.09371" lon="3.0236">
        <ele>564.9</ele>
        <time>2016-05-22T08:06:39Z</time>
      </trkpt>
      <trkpt lat="44.0938" lon="3.02346">
        <ele>566.2</ele>
        <time>2016-05-22T08:06:46Z</time>
      </trkpt>
      <trkpt lat="44.09394" lon="3.02341">
        <ele>567.9</ele>
        <time>2016-05-22T08:06:54Z</time>
      </trkpt>
      <trkpt lat="44.09399" lon="3.02321">
        <ele>569.3</ele>
        <time>2016-05-22T08:07:01Z</time>
      </trkpt>
      <trkpt lat="44.09403" lon="3.02303">
        <ele>570.6</ele>
        <time>2016-05-22T08:07:08Z</time>
      </trkpt>
      <trkpt lat="44.09403" lon="3.02282">
        <ele>571.9</ele>
        <time>2016-05-22T08:07:15Z</time>
      </trkpt>
      <trkpt lat="44.09407" lon="3.02263">
        <ele>572.8</ele>
        <time>2016-05-22T08:07:24Z</time>
      </trkpt>
      <trkpt lat="44.09417" lon="3.02249">
        <ele>573.4</ele>
        <time>2016-05-22T08:07:32Z</time>
      </trkpt>
      <trkpt lat="44.09429" lon="3.02238">
        <ele>574</ele>
        <time>2016-05-22T08:07:40Z</time>
      </trkpt>
      <trkpt lat="44.09443" lon="3.02234">
        <ele>574.5</ele>
        <time>2016-05-22T08:07:47Z</time>
      </trkpt>
      <trkpt lat="44.09457" lon="3.02232">
        <ele>574.8</ele>
        <time>2016-05-22T08:07:54Z</time>
      </trkpt>
      <trkpt lat="44.09472" lon="3.02235">
        <ele>574.2</ele>
        <time>2016-05-22T08:08:02Z</time>
      </trkpt>
      <trkpt lat="44.09485" lon="3.02244">
        <ele>573.7</ele>
        <time>2016-05-22T08:08:09Z</time>
      </trkpt>
      <trkpt lat="44.09498" lon="3.0225">
        <ele>573.3</ele>
        <time>2016-05-22T08:08:15Z</time>
      </trkpt>
      <trkpt lat="44.09507" lon="3.02266">
        <ele>572.8</ele>
        <time>2016-05-22T08:08:22Z</time>
      </trkpt>
      <trkpt lat="44.09503" lon="3.02286">
        <ele>572.4</ele>
        <time>2016-05-22T08:08:28Z</time>
      </trkpt>
      <trkpt lat="44.09469" lon="3.02282">
        <ele>571.2</ele>
        <time>2016-05-22T08:08:40Z</time>
      </trkpt>
      <trkpt lat="44.09469" lon="3.02282">
        <ele>571.2</ele>
        <time>2016-05-22T08:09:21Z</time>
      </trkpt>
      <trkpt lat="44.09444" lon="3.02265">
        <ele>570.3</ele>
        <time>2016-05-22T08:09:23Z</time>
      </trkpt>
      <trkpt lat="44.09431" lon="3.0226">
        <ele>570.1</ele>
        <time>2016-05-22T08:09:30Z</time>
      </trkpt>
      <trkpt lat="44.0942" lon="3.02263">
        <ele>569.9</ele>
        <time>2016-05-22T08:09:38Z</time>
      </trkpt>
      <trkpt lat="44.09425" lon="3.02281">
        <ele>569.7</ele>
        <time>2016-05-22T08:09:45Z</time>
      </trkpt>
      <trkpt lat="44.09436" lon="3.02293">
        <ele>569.4</ele>
        <time>2016-05-22T08:09:54Z</time>
      </trkpt>
      <trkpt lat="44.09449" lon="3.023">
        <ele>569.2</ele>
        <time>2016-05-22T08:10:01Z</time>
      </trkpt>
      <trkpt lat="44.09463" lon="3.0231">
        <ele>569</ele>
        <time>2016-05-22T08:10:07Z</time>
      </trkpt>
      <trkpt lat="44.09474" lon="3.02321">
        <ele>568.9</ele>
        <time>2016-05-22T08:10:12Z</time>
      </trkpt>
      <trkpt lat="44.0948" lon="3.02341">
        <ele>568.7</ele>
        <time>2016-05-22T08:10:18Z</time>
      </trkpt>
      <trkpt lat="44.09483" lon="3.0236">
        <ele>567.6</ele>
        <time>2016-05-22T08:10:24Z</time>
      </trkpt>
      <trkpt lat="44.09486" lon="3.02381">
        <ele>566.5</ele>
        <time>2016-05-22T08:10:30Z</time>
      </trkpt>
      <trkpt lat="44.09489" lon="3.02401">
        <ele>565.4</ele>
        <time>2016-05-22T08:10:36Z</time>
      </trkpt>
      <trkpt lat="44.09495" lon="3.02421">
        <ele>564.2</ele>
        <time>2016-05-22T08:10:42Z</time>
      </trkpt>
      <trkpt lat="44.09501" lon="3.02439">
        <ele>563.1</ele>
        <time>2016-05-22T08:10:48Z</time>
      </trkpt>
      <trkpt lat="44.0951" lon="3.02456">
        <ele>561.9</ele>
        <time>2016-05-22T08:10:54Z</time>
      </trkpt>
      <trkpt lat="44.09519" lon="3.02471">
        <ele>561.3</ele>
        <time>2016-05-22T08:10:59Z</time>
      </trkpt>
      <trkpt lat="44.0953" lon="3.02485">
        <ele>561.3</ele>
        <time>2016-05-22T08:11:04Z</time>
      </trkpt>
      <trkpt lat="44.09541" lon="3.02498">
        <ele>561.2</ele>
        <time>2016-05-22T08:11:09Z</time>
      </trkpt>
      <trkpt lat="44.09552" lon="3.02509">
        <ele>561.2</ele>
        <time>2016-05-22T08:11:14Z</time>
      </trkpt>
      <trkpt lat="44.09564" lon="3.02519">
        <ele>561.1</ele>
        <time>2016-05-22T08:11:19Z</time>
      </trkpt>
      <trkpt lat="44.09579" lon="3.02526">
        <ele>561</ele>
        <time>2016-05-22T08:11:25Z</time>
      </trkpt>
      <trkpt lat="44.09594" lon="3.02533">
        <ele>561.9</ele>
        <time>2016-05-22T08:11:31Z</time>
      </trkpt>
      <trkpt lat="44.09608" lon="3.02535">
        <ele>562.8</ele>
        <time>2016-05-22T08:11:37Z</time>
      </trkpt>
      <trkpt lat="44.09622" lon="3.02534">
        <ele>563.7</ele>
        <time>2016-05-22T08:11:43Z</time>
      </trkpt>
      <trkpt lat="44.09638" lon="3.02531">
        <ele>564.6</ele>
        <time>2016-05-22T08:11:50Z</time>
      </trkpt>
      <trkpt lat="44.09652" lon="3.02526">
        <ele>565.5</ele>
        <time>2016-05-22T08:11:57Z</time>
      </trkpt>
      <trkpt lat="44.09666" lon="3.02519">
        <ele>566.3</ele>
        <time>2016-05-22T08:12:04Z</time>
      </trkpt>
      <trkpt lat="44.0968" lon="3.02508">
        <ele>567.1</ele>
        <time>2016-05-22T08:12:11Z</time>
      </trkpt>
      <trkpt lat="44.09692" lon="3.02497">
        <ele>568</ele>
        <time>2016-05-22T08:12:18Z</time>
      </trkpt>
      <trkpt lat="44.09703" lon="3.02481">
        <ele>568.9</ele>
        <time>2016-05-22T08:12:25Z</time>
      </trkpt>
      <trkpt lat="44.09708" lon="3.02463">
        <ele>569.6</ele>
        <time>2016-05-22T08:12:31Z</time>
      </trkpt>
      <trkpt lat="44.09712" lon="3.02444">
        <ele>570.4</ele>
        <time>2016-05-22T08:12:37Z</time>
      </trkpt>
      <trkpt lat="44.09713" lon="3.02424">
        <ele>571.5</ele>
        <time>2016-05-22T08:12:44Z</time>
      </trkpt>
      <trkpt lat="44.09714" lon="3.02402">
        <ele>572.4</ele>
        <time>2016-05-22T08:12:51Z</time>
      </trkpt>
      <trkpt lat="44.09716" lon="3.02383">
        <ele>573</ele>
        <time>2016-05-22T08:12:57Z</time>
      </trkpt>
      <trkpt lat="44.09719" lon="3.02365">
        <ele>573.5</ele>
        <time>2016-05-22T08:13:03Z</time>
      </trkpt>
      <trkpt lat="44.09722" lon="3.02346">
        <ele>574.1</ele>
        <time>2016-05-22T08:13:10Z</time>
      </trkpt>
      <trkpt lat="44.09724" lon="3.02325">
        <ele>574.7</ele>
        <time>2016-05-22T08:13:17Z</time>
      </trkpt>
      <trkpt lat="44.09727" lon="3.02305">
        <ele>575.2</ele>
        <time>2016-05-22T08:13:24Z</time>
      </trkpt>
      <trkpt lat="44.0973" lon="3.02286">
        <ele>575.8</ele>
        <time>2016-05-22T08:13:31Z</time>
      </trkpt>
      <trkpt lat="44.09732" lon="3.02266">
        <ele>576.4</ele>
        <time>2016-05-22T08:13:38Z</time>
      </trkpt>
      <trkpt lat="44.09734" lon="3.02247">
        <ele>576.9</ele>
        <time>2016-05-22T08:13:45Z</time>
      </trkpt>
      <trkpt lat="44.09735" lon="3.02227">
        <ele>577.7</ele>
        <time>2016-05-22T08:13:52Z</time>
      </trkpt>
      <trkpt lat="44.09737" lon="3.02208">
        <ele>578.4</ele>
        <time>2016-05-22T08:13:59Z</time>
      </trkpt>
      <trkpt lat="44.09739" lon="3.02188">
        <ele>579.2</ele>
        <time>2016-05-22T08:14:06Z</time>
      </trkpt>
      <trkpt lat="44.09742" lon="3.02168">
        <ele>580</ele>
        <time>2016-05-22T08:14:13Z</time>
      </trkpt>
      <trkpt lat="44.09745" lon="3.02148">
        <ele>580.8</ele>
        <time>2016-05-22T08:14:20Z</time>
      </trkpt>
      <trkpt lat="44.09747" lon="3.02128">
        <ele>581.6</ele>
        <time>2016-05-22T08:14:27Z</time>
      </trkpt>
      <trkpt lat="44.09749" lon="3.02107">
        <ele>582.5</ele>
        <time>2016-05-22T08:14:34Z</time>
      </trkpt>
      <trkpt lat="44.09753" lon="3.02087">
        <ele>583.2</ele>
        <time>2016-05-22T08:14:40Z</time>
      </trkpt>
      <trkpt lat="44.09758" lon="3.02067">
        <ele>584.1</ele>
        <time>2016-05-22T08:14:49Z</time>
      </trkpt>
      <trkpt lat="44.09759" lon="3.02048">
        <ele>584.5</ele>
        <time>2016-05-22T08:14:54Z</time>
      </trkpt>
      <trkpt lat="44.09758" lon="3.02028">
        <ele>585.3</ele>
        <time>2016-05-22T08:15:02Z</time>
      </trkpt>
      <trkpt lat="44.0976" lon="3.02008">
        <ele>585.9</ele>
        <time>2016-05-22T08:15:08Z</time>
      </trkpt>
      <trkpt lat="44.09766" lon="3.01991">
        <ele>586.3</ele>
        <time>2016-05-22T08:15:13Z</time>
      </trkpt>
      <trkpt lat="44.09775" lon="3.01976">
        <ele>586.8</ele>
        <time>2016-05-22T08:15:19Z</time>
      </trkpt>
      <trkpt lat="44.09784" lon="3.01961">
        <ele>587.3</ele>
        <time>2016-05-22T08:15:25Z</time>
      </trkpt>
      <trkpt lat="44.09796" lon="3.01951">
        <ele>587.9</ele>
        <time>2016-05-22T08:15:32Z</time>
      </trkpt>
      <trkpt lat="44.0981" lon="3.0195">
        <ele>588.4</ele>
        <time>2016-05-22T08:15:38Z</time>
      </trkpt>
      <trkpt lat="44.09824" lon="3.01955">
        <ele>588.9</ele>
        <time>2016-05-22T08:15:44Z</time>
      </trkpt>
      <trkpt lat="44.09838" lon="3.01962">
        <ele>589.5</ele>
        <time>2016-05-22T08:15:51Z</time>
      </trkpt>
      <trkpt lat="44.0985" lon="3.01974">
        <ele>590.2</ele>
        <time>2016-05-22T08:15:58Z</time>
      </trkpt>
      <trkpt lat="44.09859" lon="3.0199">
        <ele>590.9</ele>
        <time>2016-05-22T08:16:05Z</time>
      </trkpt>
      <trkpt lat="44.09865" lon="3.02009">
        <ele>591.6</ele>
        <time>2016-05-22T08:16:12Z</time>
      </trkpt>
      <trkpt lat="44.09868" lon="3.02031">
        <ele>592.2</ele>
        <time>2016-05-22T08:16:19Z</time>
      </trkpt>
      <trkpt lat="44.09866" lon="3.02052">
        <ele>592.8</ele>
        <time>2016-05-22T08:16:26Z</time>
      </trkpt>
      <trkpt lat="44.09862" lon="3.02071">
        <ele>592.9</ele>
        <time>2016-05-22T08:16:32Z</time>
      </trkpt>
      <trkpt lat="44.0985" lon="3.02084">
        <ele>593</ele>
        <time>2016-05-22T08:16:39Z</time>
      </trkpt>
      <trkpt lat="44.09837" lon="3.02095">
        <ele>593.1</ele>
        <time>2016-05-22T08:16:46Z</time>
      </trkpt>
      <trkpt lat="44.09825" lon="3.02103">
        <ele>593.2</ele>
        <time>2016-05-22T08:16:52Z</time>
      </trkpt>
      <trkpt lat="44.0981" lon="3.02104">
        <ele>593.3</ele>
        <time>2016-05-22T08:16:58Z</time>
      </trkpt>
      <trkpt lat="44.09796" lon="3.02104">
        <ele>593.4</ele>
        <time>2016-05-22T08:17:04Z</time>
      </trkpt>
      <trkpt lat="44.09781" lon="3.02101">
        <ele>593.5</ele>
        <time>2016-05-22T08:17:10Z</time>
      </trkpt>
      <trkpt lat="44.09766" lon="3.021">
        <ele>593.6</ele>
        <time>2016-05-22T08:17:16Z</time>
      </trkpt>
      <trkpt lat="44.09751" lon="3.02099">
        <ele>593.7</ele>
        <time>2016-05-22T08:17:22Z</time>
      </trkpt>
      <trkpt lat="44.09737" lon="3.02096">
        <ele>593.8</ele>
        <time>2016-05-22T08:17:28Z</time>
      </trkpt>
      <trkpt lat="44.09723" lon="3.02094">
        <ele>593.9</ele>
        <time>2016-05-22T08:17:34Z</time>
      </trkpt>
      <trkpt lat="44.09708" lon="3.02091">
        <ele>593.9</ele>
        <time>2016-05-22T08:17:40Z</time>
      </trkpt>
      <trkpt lat="44.09693" lon="3.02089">
        <ele>594</ele>
        <time>2016-05-22T08:17:46Z</time>
      </trkpt>
      <trkpt lat="44.09678" lon="3.02087">
        <ele>594.1</ele>
        <time>2016-05-22T08:17:53Z</time>
      </trkpt>
      <trkpt lat="44.09664" lon="3.02084">
        <ele>594.2</ele>
        <time>2016-05-22T08:17:59Z</time>
      </trkpt>
      <trkpt lat="44.0965" lon="3.02084">
        <ele>594.3</ele>
        <time>2016-05-22T08:18:05Z</time>
      </trkpt>
      <trkpt lat="44.09636" lon="3.02082">
        <ele>594.4</ele>
        <time>2016-05-22T08:18:11Z</time>
      </trkpt>
      <trkpt lat="44.09622" lon="3.02082">
        <ele>594.5</ele>
        <time>2016-05-22T08:18:17Z</time>
      </trkpt>
      <trkpt lat="44.09607" lon="3.02081">
        <ele>594.6</ele>
        <time>2016-05-22T08:18:23Z</time>
      </trkpt>
      <trkpt lat="44.09591" lon="3.0208">
        <ele>594.7</ele>
        <time>2016-05-22T08:18:30Z</time>
      </trkpt>
      <trkpt lat="44.09577" lon="3.0208">
        <ele>594.8</ele>
        <time>2016-05-22T08:18:37Z</time>
      </trkpt>
      <trkpt lat="44.09562" lon="3.02079">
        <ele>594.9</ele>
        <time>2016-05-22T08:18:43Z</time>
      </trkpt>
      <trkpt lat="44.09546" lon="3.02082">
        <ele>595</ele>
        <time>2016-05-22T08:18:49Z</time>
      </trkpt>
      <trkpt lat="44.09533" lon="3.02083">
        <ele>595.1</ele>
        <time>2016-05-22T08:18:55Z</time>
      </trkpt>
      <trkpt lat="44.09518" lon="3.02083">
        <ele>595.2</ele>
        <time>2016-05-22T08:19:01Z</time>
      </trkpt>
      <trkpt lat="44.09503" lon="3.02084">
        <ele>595.3</ele>
        <time>2016-05-22T08:19:07Z</time>
      </trkpt>
      <trkpt lat="44.0949" lon="3.02085">
        <ele>595.4</ele>
        <time>2016-05-22T08:19:13Z</time>
      </trkpt>
      <trkpt lat="44.09475" lon="3.02085">
        <ele>595.4</ele>
        <time>2016-05-22T08:19:19Z</time>
      </trkpt>
      <trkpt lat="44.09462" lon="3.02085">
        <ele>595.5</ele>
        <time>2016-05-22T08:19:24Z</time>
      </trkpt>
      <trkpt lat="44.09447" lon="3.02088">
        <ele>595.6</ele>
        <time>2016-05-22T08:19:30Z</time>
      </trkpt>
      <trkpt lat="44.09432" lon="3.02089">
        <ele>595.7</ele>
        <time>2016-05-22T08:19:36Z</time>
      </trkpt>
      <trkpt lat="44.09419" lon="3.02092">
        <ele>595.8</ele>
        <time>2016-05-22T08:19:42Z</time>
      </trkpt>
      <trkpt lat="44.09405" lon="3.02092">
        <ele>596</ele>
        <time>2016-05-22T08:19:48Z</time>
      </trkpt>
      <trkpt lat="44.0939" lon="3.02092">
        <ele>596.5</ele>
        <time>2016-05-22T08:19:54Z</time>
      </trkpt>
      <trkpt lat="44.09376" lon="3.02092">
        <ele>596.9</ele>
        <time>2016-05-22T08:20:00Z</time>
      </trkpt>
      <trkpt lat="44.09362" lon="3.02093">
        <ele>597.3</ele>
        <time>2016-05-22T08:20:06Z</time>
      </trkpt>
      <trkpt lat="44.09347" lon="3.02095">
        <ele>597.8</ele>
        <time>2016-05-22T08:20:13Z</time>
      </trkpt>
      <trkpt lat="44.09333" lon="3.02095">
        <ele>598.2</ele>
        <time>2016-05-22T08:20:20Z</time>
      </trkpt>
      <trkpt lat="44.09319" lon="3.02096">
        <ele>598.6</ele>
        <time>2016-05-22T08:20:26Z</time>
      </trkpt>
      <trkpt lat="44.09304" lon="3.02096">
        <ele>599.1</ele>
        <time>2016-05-22T08:20:33Z</time>
      </trkpt>
      <trkpt lat="44.09289" lon="3.02096">
        <ele>599.7</ele>
        <time>2016-05-22T08:20:39Z</time>
      </trkpt>
      <trkpt lat="44.09275" lon="3.02095">
        <ele>600.2</ele>
        <time>2016-05-22T08:20:45Z</time>
      </trkpt>
      <trkpt lat="44.09261" lon="3.02096">
        <ele>600.8</ele>
        <time>2016-05-22T08:20:51Z</time>
      </trkpt>
      <trkpt lat="44.09247" lon="3.02095">
        <ele>601.4</ele>
        <time>2016-05-22T08:20:57Z</time>
      </trkpt>
      <trkpt lat="44.09233" lon="3.02095">
        <ele>601.9</ele>
        <time>2016-05-22T08:21:03Z</time>
      </trkpt>
      <trkpt lat="44.09219" lon="3.02096">
        <ele>602.5</ele>
        <time>2016-05-22T08:21:09Z</time>
      </trkpt>
      <trkpt lat="44.09205" lon="3.02096">
        <ele>603.1</ele>
        <time>2016-05-22T08:21:16Z</time>
      </trkpt>
      <trkpt lat="44.0919" lon="3.02095">
        <ele>603.5</ele>
        <time>2016-05-22T08:21:23Z</time>
      </trkpt>
      <trkpt lat="44.09175" lon="3.02093">
        <ele>603.9</ele>
        <time>2016-05-22T08:21:29Z</time>
      </trkpt>
      <trkpt lat="44.09159" lon="3.02093">
        <ele>604.3</ele>
        <time>2016-05-22T08:21:36Z</time>
      </trkpt>
      <trkpt lat="44.09145" lon="3.02096">
        <ele>604.7</ele>
        <time>2016-05-22T08:21:43Z</time>
      </trkpt>
      <trkpt lat="44.09131" lon="3.021">
        <ele>605.6</ele>
        <time>2016-05-22T08:21:59Z</time>
      </trkpt>
      <trkpt lat="44.09116" lon="3.02103">
        <ele>606.1</ele>
        <time>2016-05-22T08:22:06Z</time>
      </trkpt>
      <trkpt lat="44.09101" lon="3.02104">
        <ele>606.5</ele>
        <time>2016-05-22T08:22:13Z</time>
      </trkpt>
      <trkpt lat="44.09085" lon="3.02106">
        <ele>607.2</ele>
        <time>2016-05-22T08:22:20Z</time>
      </trkpt>
      <trkpt lat="44.09071" lon="3.02109">
        <ele>607.9</ele>
        <time>2016-05-22T08:22:26Z</time>
      </trkpt>
      <trkpt lat="44.09057" lon="3.02111">
        <ele>608.6</ele>
        <time>2016-05-22T08:22:32Z</time>
      </trkpt>
      <trkpt lat="44.09043" lon="3.02111">
        <ele>609.2</ele>
        <time>2016-05-22T08:22:38Z</time>
      </trkpt>
      <trkpt lat="44.09029" lon="3.02117">
        <ele>610.2</ele>
        <time>2016-05-22T08:22:47Z</time>
      </trkpt>
      <trkpt lat="44.09014" lon="3.02116">
        <ele>610.6</ele>
        <time>2016-05-22T08:22:53Z</time>
      </trkpt>
      <trkpt lat="44.09" lon="3.02117">
        <ele>611</ele>
        <time>2016-05-22T08:22:59Z</time>
      </trkpt>
      <trkpt lat="44.08986" lon="3.02119">
        <ele>611.3</ele>
        <time>2016-05-22T08:23:05Z</time>
      </trkpt>
      <trkpt lat="44.08971" lon="3.02121">
        <ele>611.7</ele>
        <time>2016-05-22T08:23:12Z</time>
      </trkpt>
      <trkpt lat="44.08956" lon="3.02122">
        <ele>612.2</ele>
        <time>2016-05-22T08:23:19Z</time>
      </trkpt>
      <trkpt lat="44.0894" lon="3.02123">
        <ele>612.6</ele>
        <time>2016-05-22T08:23:26Z</time>
      </trkpt>
      <trkpt lat="44.08926" lon="3.02123">
        <ele>612.9</ele>
        <time>2016-05-22T08:23:32Z</time>
      </trkpt>
      <trkpt lat="44.08913" lon="3.02123">
        <ele>613.3</ele>
        <time>2016-05-22T08:23:38Z</time>
      </trkpt>
      <trkpt lat="44.08899" lon="3.02129">
        <ele>613.6</ele>
        <time>2016-05-22T08:23:44Z</time>
      </trkpt>
      <trkpt lat="44.08883" lon="3.02131">
        <ele>614</ele>
        <time>2016-05-22T08:23:51Z</time>
      </trkpt>
      <trkpt lat="44.08869" lon="3.02135">
        <ele>614.4</ele>
        <time>2016-05-22T08:23:57Z</time>
      </trkpt>
      <trkpt lat="44.08855" lon="3.02134">
        <ele>614.7</ele>
        <time>2016-05-22T08:24:03Z</time>
      </trkpt>
      <trkpt lat="44.08841" lon="3.02134">
        <ele>615.1</ele>
        <time>2016-05-22T08:24:09Z</time>
      </trkpt>
      <trkpt lat="44.08827" lon="3.02134">
        <ele>615.5</ele>
        <time>2016-05-22T08:24:15Z</time>
      </trkpt>
      <trkpt lat="44.08811" lon="3.02135">
        <ele>615.9</ele>
        <time>2016-05-22T08:24:21Z</time>
      </trkpt>
      <trkpt lat="44.08798" lon="3.02135">
        <ele>616.2</ele>
        <time>2016-05-22T08:24:26Z</time>
      </trkpt>
      <trkpt lat="44.08783" lon="3.02136">
        <ele>616.7</ele>
        <time>2016-05-22T08:24:33Z</time>
      </trkpt>
      <trkpt lat="44.08769" lon="3.02137">
        <ele>617.1</ele>
        <time>2016-05-22T08:24:39Z</time>
      </trkpt>
      <trkpt lat="44.08755" lon="3.02136">
        <ele>617.5</ele>
        <time>2016-05-22T08:24:45Z</time>
      </trkpt>
      <trkpt lat="44.0874" lon="3.02138">
        <ele>617.9</ele>
        <time>2016-05-22T08:24:52Z</time>
      </trkpt>
      <trkpt lat="44.08725" lon="3.02141">
        <ele>618.4</ele>
        <time>2016-05-22T08:24:59Z</time>
      </trkpt>
      <trkpt lat="44.0871" lon="3.02144">
        <ele>618.8</ele>
        <time>2016-05-22T08:25:05Z</time>
      </trkpt>
      <trkpt lat="44.08695" lon="3.02145">
        <ele>619.3</ele>
        <time>2016-05-22T08:25:12Z</time>
      </trkpt>
      <trkpt lat="44.08681" lon="3.02147">
        <ele>619.7</ele>
        <time>2016-05-22T08:25:18Z</time>
      </trkpt>
      <trkpt lat="44.08665" lon="3.02149">
        <ele>620.3</ele>
        <time>2016-05-22T08:25:26Z</time>
      </trkpt>
      <trkpt lat="44.0865" lon="3.02152">
        <ele>620.7</ele>
        <time>2016-05-22T08:25:32Z</time>
      </trkpt>
      <trkpt lat="44.08634" lon="3.02153">
        <ele>621.1</ele>
        <time>2016-05-22T08:25:38Z</time>
      </trkpt>
      <trkpt lat="44.08619" lon="3.02154">
        <ele>621.7</ele>
        <time>2016-05-22T08:25:45Z</time>
      </trkpt>
      <trkpt lat="44.08604" lon="3.02156">
        <ele>622.4</ele>
        <time>2016-05-22T08:25:52Z</time>
      </trkpt>
      <trkpt lat="44.08591" lon="3.02161">
        <ele>623.4</ele>
        <time>2016-05-22T08:26:02Z</time>
      </trkpt>
      <trkpt lat="44.08576" lon="3.02161">
        <ele>624</ele>
        <time>2016-05-22T08:26:08Z</time>
      </trkpt>
      <trkpt lat="44.0856" lon="3.02162">
        <ele>624.8</ele>
        <time>2016-05-22T08:26:15Z</time>
      </trkpt>
      <trkpt lat="44.08546" lon="3.02162">
        <ele>625.4</ele>
        <time>2016-05-22T08:26:21Z</time>
      </trkpt>
      <trkpt lat="44.08532" lon="3.02163">
        <ele>625.8</ele>
        <time>2016-05-22T08:26:27Z</time>
      </trkpt>
      <trkpt lat="44.08517" lon="3.02163">
        <ele>626.3</ele>
        <time>2016-05-22T08:26:33Z</time>
      </trkpt>
      <trkpt lat="44.08502" lon="3.02166">
        <ele>626.8</ele>
        <time>2016-05-22T08:26:39Z</time>
      </trkpt>
      <trkpt lat="44.08486" lon="3.02169">
        <ele>627.2</ele>
        <time>2016-05-22T08:26:45Z</time>
      </trkpt>
      <trkpt lat="44.08471" lon="3.0217">
        <ele>627.8</ele>
        <time>2016-05-22T08:26:52Z</time>
      </trkpt>
      <trkpt lat="44.08456" lon="3.02173">
        <ele>628.2</ele>
        <time>2016-05-22T08:26:58Z</time>
      </trkpt>
      <trkpt lat="44.08442" lon="3.02176">
        <ele>628.7</ele>
        <time>2016-05-22T08:27:04Z</time>
      </trkpt>
      <trkpt lat="44.08428" lon="3.02176">
        <ele>629.7</ele>
        <time>2016-05-22T08:27:10Z</time>
      </trkpt>
      <trkpt lat="44.08414" lon="3.02178">
        <ele>630.9</ele>
        <time>2016-05-22T08:27:16Z</time>
      </trkpt>
      <trkpt lat="44.08399" lon="3.0218">
        <ele>632.1</ele>
        <time>2016-05-22T08:27:23Z</time>
      </trkpt>
      <trkpt lat="44.08385" lon="3.02183">
        <ele>632.7</ele>
        <time>2016-05-22T08:27:29Z</time>
      </trkpt>
      <trkpt lat="44.08371" lon="3.02185">
        <ele>633.4</ele>
        <time>2016-05-22T08:27:35Z</time>
      </trkpt>
      <trkpt lat="44.08356" lon="3.02186">
        <ele>634.2</ele>
        <time>2016-05-22T08:27:42Z</time>
      </trkpt>
      <trkpt lat="44.08342" lon="3.02187">
        <ele>635</ele>
        <time>2016-05-22T08:27:49Z</time>
      </trkpt>
      <trkpt lat="44.08328" lon="3.02188">
        <ele>635.7</ele>
        <time>2016-05-22T08:27:55Z</time>
      </trkpt>
      <trkpt lat="44.08313" lon="3.02189">
        <ele>636.5</ele>
        <time>2016-05-22T08:28:02Z</time>
      </trkpt>
      <trkpt lat="44.08298" lon="3.02192">
        <ele>636.4</ele>
        <time>2016-05-22T08:28:09Z</time>
      </trkpt>
      <trkpt lat="44.08284" lon="3.02197">
        <ele>636.1</ele>
        <time>2016-05-22T08:28:17Z</time>
      </trkpt>
      <trkpt lat="44.08269" lon="3.02199">
        <ele>636.5</ele>
        <time>2016-05-22T08:28:24Z</time>
      </trkpt>
      <trkpt lat="44.08255" lon="3.02202">
        <ele>636.8</ele>
        <time>2016-05-22T08:28:30Z</time>
      </trkpt>
      <trkpt lat="44.08241" lon="3.02203">
        <ele>637.1</ele>
        <time>2016-05-22T08:28:36Z</time>
      </trkpt>
      <trkpt lat="44.08226" lon="3.02203">
        <ele>637.3</ele>
        <time>2016-05-22T08:28:41Z</time>
      </trkpt>
      <trkpt lat="44.08211" lon="3.02205">
        <ele>637.6</ele>
        <time>2016-05-22T08:28:47Z</time>
      </trkpt>
      <trkpt lat="44.08197" lon="3.02207">
        <ele>637.9</ele>
        <time>2016-05-22T08:28:53Z</time>
      </trkpt>
      <trkpt lat="44.08183" lon="3.02208">
        <ele>638.2</ele>
        <time>2016-05-22T08:28:59Z</time>
      </trkpt>
      <trkpt lat="44.08169" lon="3.02211">
        <ele>638.5</ele>
        <time>2016-05-22T08:29:05Z</time>
      </trkpt>
      <trkpt lat="44.08155" lon="3.02213">
        <ele>638.8</ele>
        <time>2016-05-22T08:29:11Z</time>
      </trkpt>
      <trkpt lat="44.08141" lon="3.02216">
        <ele>639.1</ele>
        <time>2016-05-22T08:29:17Z</time>
      </trkpt>
      <trkpt lat="44.08128" lon="3.02217">
        <ele>639.5</ele>
        <time>2016-05-22T08:29:23Z</time>
      </trkpt>
      <trkpt lat="44.08113" lon="3.02219">
        <ele>640.1</ele>
        <time>2016-05-22T08:29:30Z</time>
      </trkpt>
      <trkpt lat="44.08099" lon="3.02223">
        <ele>640.6</ele>
        <time>2016-05-22T08:29:37Z</time>
      </trkpt>
      <trkpt lat="44.08085" lon="3.02225">
        <ele>641.1</ele>
        <time>2016-05-22T08:29:43Z</time>
      </trkpt>
      <trkpt lat="44.0807" lon="3.02228">
        <ele>641.8</ele>
        <time>2016-05-22T08:29:51Z</time>
      </trkpt>
      <trkpt lat="44.08056" lon="3.02228">
        <ele>642.2</ele>
        <time>2016-05-22T08:29:57Z</time>
      </trkpt>
      <trkpt lat="44.08041" lon="3.02231">
        <ele>642.6</ele>
        <time>2016-05-22T08:30:04Z</time>
      </trkpt>
      <trkpt lat="44.08025" lon="3.02232">
        <ele>642.9</ele>
        <time>2016-05-22T08:30:10Z</time>
      </trkpt>
      <trkpt lat="44.08011" lon="3.02235">
        <ele>643.2</ele>
        <time>2016-05-22T08:30:16Z</time>
      </trkpt>
      <trkpt lat="44.07995" lon="3.02237">
        <ele>643.5</ele>
        <time>2016-05-22T08:30:23Z</time>
      </trkpt>
      <trkpt lat="44.07982" lon="3.02243">
        <ele>643.8</ele>
        <time>2016-05-22T08:30:29Z</time>
      </trkpt>
      <trkpt lat="44.07967" lon="3.02244">
        <ele>644.1</ele>
        <time>2016-05-22T08:30:35Z</time>
      </trkpt>
      <trkpt lat="44.07954" lon="3.02246">
        <ele>644.4</ele>
        <time>2016-05-22T08:30:41Z</time>
      </trkpt>
      <trkpt lat="44.0794" lon="3.02248">
        <ele>644.7</ele>
        <time>2016-05-22T08:30:47Z</time>
      </trkpt>
      <trkpt lat="44.07924" lon="3.02251">
        <ele>645</ele>
        <time>2016-05-22T08:30:54Z</time>
      </trkpt>
      <trkpt lat="44.07909" lon="3.02252">
        <ele>645.3</ele>
        <time>2016-05-22T08:31:00Z</time>
      </trkpt>
      <trkpt lat="44.07895" lon="3.02253">
        <ele>645.6</ele>
        <time>2016-05-22T08:31:06Z</time>
      </trkpt>
      <trkpt lat="44.07879" lon="3.02255">
        <ele>646.3</ele>
        <time>2016-05-22T08:31:13Z</time>
      </trkpt>
      <trkpt lat="44.07865" lon="3.02257">
        <ele>647</ele>
        <time>2016-05-22T08:31:20Z</time>
      </trkpt>
      <trkpt lat="44.0785" lon="3.02259">
        <ele>647.6</ele>
        <time>2016-05-22T08:31:27Z</time>
      </trkpt>
      <trkpt lat="44.07834" lon="3.02263">
        <ele>648.3</ele>
        <time>2016-05-22T08:31:34Z</time>
      </trkpt>
      <trkpt lat="44.07821" lon="3.02265">
        <ele>648.9</ele>
        <time>2016-05-22T08:31:40Z</time>
      </trkpt>
      <trkpt lat="44.07807" lon="3.02269">
        <ele>649.4</ele>
        <time>2016-05-22T08:31:46Z</time>
      </trkpt>
      <trkpt lat="44.07793" lon="3.02272">
        <ele>649.9</ele>
        <time>2016-05-22T08:31:52Z</time>
      </trkpt>
      <trkpt lat="44.07778" lon="3.02275">
        <ele>650.4</ele>
        <time>2016-05-22T08:31:58Z</time>
      </trkpt>
      <trkpt lat="44.07763" lon="3.02278">
        <ele>651</ele>
        <time>2016-05-22T08:32:05Z</time>
      </trkpt>
      <trkpt lat="44.07747" lon="3.0228">
        <ele>651.5</ele>
        <time>2016-05-22T08:32:12Z</time>
      </trkpt>
      <trkpt lat="44.07732" lon="3.02283">
        <ele>652.3</ele>
        <time>2016-05-22T08:32:19Z</time>
      </trkpt>
      <trkpt lat="44.07718" lon="3.02286">
        <ele>653.2</ele>
        <time>2016-05-22T08:32:25Z</time>
      </trkpt>
      <trkpt lat="44.07703" lon="3.02289">
        <ele>654.2</ele>
        <time>2016-05-22T08:32:31Z</time>
      </trkpt>
      <trkpt lat="44.07689" lon="3.02289">
        <ele>655.3</ele>
        <time>2016-05-22T08:32:38Z</time>
      </trkpt>
      <trkpt lat="44.07675" lon="3.02296">
        <ele>656.3</ele>
        <time>2016-05-22T08:32:47Z</time>
      </trkpt>
      <trkpt lat="44.0766" lon="3.02297">
        <ele>656.9</ele>
        <time>2016-05-22T08:32:53Z</time>
      </trkpt>
      <trkpt lat="44.07647" lon="3.02298">
        <ele>657.5</ele>
        <time>2016-05-22T08:32:59Z</time>
      </trkpt>
      <trkpt lat="44.07633" lon="3.023">
        <ele>658</ele>
        <time>2016-05-22T08:33:03Z</time>
      </trkpt>
      <trkpt lat="44.0762" lon="3.02301">
        <ele>658.5</ele>
        <time>2016-05-22T08:33:08Z</time>
      </trkpt>
      <trkpt lat="44.07604" lon="3.02304">
        <ele>659.2</ele>
        <time>2016-05-22T08:33:15Z</time>
      </trkpt>
      <trkpt lat="44.0759" lon="3.02304">
        <ele>659.8</ele>
        <time>2016-05-22T08:33:21Z</time>
      </trkpt>
      <trkpt lat="44.07576" lon="3.02307">
        <ele>660.5</ele>
        <time>2016-05-22T08:33:27Z</time>
      </trkpt>
      <trkpt lat="44.07563" lon="3.02308">
        <ele>661.1</ele>
        <time>2016-05-22T08:33:33Z</time>
      </trkpt>
      <trkpt lat="44.07548" lon="3.02311">
        <ele>661.8</ele>
        <time>2016-05-22T08:33:39Z</time>
      </trkpt>
      <trkpt lat="44.07534" lon="3.02312">
        <ele>662.5</ele>
        <time>2016-05-22T08:33:45Z</time>
      </trkpt>
      <trkpt lat="44.0752" lon="3.02315">
        <ele>663.3</ele>
        <time>2016-05-22T08:33:52Z</time>
      </trkpt>
      <trkpt lat="44.07504" lon="3.02317">
        <ele>664.1</ele>
        <time>2016-05-22T08:33:59Z</time>
      </trkpt>
      <trkpt lat="44.0749" lon="3.0232">
        <ele>664.1</ele>
        <time>2016-05-22T08:34:05Z</time>
      </trkpt>
      <trkpt lat="44.07475" lon="3.02325">
        <ele>663.4</ele>
        <time>2016-05-22T08:34:12Z</time>
      </trkpt>
      <trkpt lat="44.07461" lon="3.02329">
        <ele>663.6</ele>
        <time>2016-05-22T08:34:19Z</time>
      </trkpt>
      <trkpt lat="44.07447" lon="3.02331">
        <ele>663.9</ele>
        <time>2016-05-22T08:34:25Z</time>
      </trkpt>
      <trkpt lat="44.07433" lon="3.02335">
        <ele>664.2</ele>
        <time>2016-05-22T08:34:31Z</time>
      </trkpt>
      <trkpt lat="44.0742" lon="3.02339">
        <ele>664.5</ele>
        <time>2016-05-22T08:34:37Z</time>
      </trkpt>
      <trkpt lat="44.07404" lon="3.0234">
        <ele>664.8</ele>
        <time>2016-05-22T08:34:43Z</time>
      </trkpt>
      <trkpt lat="44.07389" lon="3.02342">
        <ele>665.2</ele>
        <time>2016-05-22T08:34:50Z</time>
      </trkpt>
      <trkpt lat="44.07375" lon="3.02347">
        <ele>665.6</ele>
        <time>2016-05-22T08:34:58Z</time>
      </trkpt>
      <trkpt lat="44.07359" lon="3.02349">
        <ele>665.9</ele>
        <time>2016-05-22T08:35:05Z</time>
      </trkpt>
      <trkpt lat="44.07345" lon="3.02351">
        <ele>666.2</ele>
        <time>2016-05-22T08:35:11Z</time>
      </trkpt>
      <trkpt lat="44.0733" lon="3.02355">
        <ele>666.6</ele>
        <time>2016-05-22T08:35:17Z</time>
      </trkpt>
      <trkpt lat="44.07316" lon="3.02359">
        <ele>667.2</ele>
        <time>2016-05-22T08:35:23Z</time>
      </trkpt>
      <trkpt lat="44.07302" lon="3.02361">
        <ele>667.7</ele>
        <time>2016-05-22T08:35:29Z</time>
      </trkpt>
      <trkpt lat="44.07287" lon="3.02364">
        <ele>668.3</ele>
        <time>2016-05-22T08:35:35Z</time>
      </trkpt>
      <trkpt lat="44.07272" lon="3.02368">
        <ele>668.8</ele>
        <time>2016-05-22T08:35:41Z</time>
      </trkpt>
      <trkpt lat="44.07258" lon="3.02371">
        <ele>669.4</ele>
        <time>2016-05-22T08:35:47Z</time>
      </trkpt>
      <trkpt lat="44.07242" lon="3.02374">
        <ele>670.3</ele>
        <time>2016-05-22T08:35:54Z</time>
      </trkpt>
      <trkpt lat="44.07228" lon="3.02377">
        <ele>671.1</ele>
        <time>2016-05-22T08:36:00Z</time>
      </trkpt>
      <trkpt lat="44.07214" lon="3.0238">
        <ele>672.1</ele>
        <time>2016-05-22T08:36:07Z</time>
      </trkpt>
      <trkpt lat="44.072" lon="3.02384">
        <ele>672.9</ele>
        <time>2016-05-22T08:36:13Z</time>
      </trkpt>
      <trkpt lat="44.07186" lon="3.02386">
        <ele>673.6</ele>
        <time>2016-05-22T08:36:19Z</time>
      </trkpt>
      <trkpt lat="44.07171" lon="3.0239">
        <ele>674.2</ele>
        <time>2016-05-22T08:36:26Z</time>
      </trkpt>
      <trkpt lat="44.07158" lon="3.02394">
        <ele>674.8</ele>
        <time>2016-05-22T08:36:33Z</time>
      </trkpt>
      <trkpt lat="44.07143" lon="3.02399">
        <ele>675.5</ele>
        <time>2016-05-22T08:36:41Z</time>
      </trkpt>
      <trkpt lat="44.07128" lon="3.02403">
        <ele>676.2</ele>
        <time>2016-05-22T08:36:48Z</time>
      </trkpt>
      <trkpt lat="44.07114" lon="3.02406">
        <ele>676.7</ele>
        <time>2016-05-22T08:36:54Z</time>
      </trkpt>
      <trkpt lat="44.071" lon="3.02409">
        <ele>677.2</ele>
        <time>2016-05-22T08:37:00Z</time>
      </trkpt>
      <trkpt lat="44.07085" lon="3.02412">
        <ele>677.7</ele>
        <time>2016-05-22T08:37:06Z</time>
      </trkpt>
      <trkpt lat="44.0707" lon="3.02419">
        <ele>678.4</ele>
        <time>2016-05-22T08:37:14Z</time>
      </trkpt>
      <trkpt lat="44.07055" lon="3.02422">
        <ele>678.9</ele>
        <time>2016-05-22T08:37:20Z</time>
      </trkpt>
      <trkpt lat="44.07041" lon="3.02424">
        <ele>679.4</ele>
        <time>2016-05-22T08:37:26Z</time>
      </trkpt>
      <trkpt lat="44.07026" lon="3.02427">
        <ele>680</ele>
        <time>2016-05-22T08:37:33Z</time>
      </trkpt>
      <trkpt lat="44.07012" lon="3.0243">
        <ele>680.5</ele>
        <time>2016-05-22T08:37:39Z</time>
      </trkpt>
      <trkpt lat="44.06998" lon="3.02433">
        <ele>681</ele>
        <time>2016-05-22T08:37:46Z</time>
      </trkpt>
      <trkpt lat="44.06984" lon="3.02435">
        <ele>681.5</ele>
        <time>2016-05-22T08:37:52Z</time>
      </trkpt>
      <trkpt lat="44.06969" lon="3.02437">
        <ele>682</ele>
        <time>2016-05-22T08:37:59Z</time>
      </trkpt>
      <trkpt lat="44.06954" lon="3.0244">
        <ele>682.5</ele>
        <time>2016-05-22T08:38:06Z</time>
      </trkpt>
      <trkpt lat="44.06939" lon="3.02444">
        <ele>683.1</ele>
        <time>2016-05-22T08:38:13Z</time>
      </trkpt>
      <trkpt lat="44.06925" lon="3.02447">
        <ele>683.5</ele>
        <time>2016-05-22T08:38:19Z</time>
      </trkpt>
      <trkpt lat="44.0691" lon="3.02452">
        <ele>683.9</ele>
        <time>2016-05-22T08:38:25Z</time>
      </trkpt>
      <trkpt lat="44.06896" lon="3.02455">
        <ele>684.2</ele>
        <time>2016-05-22T08:38:31Z</time>
      </trkpt>
      <trkpt lat="44.06882" lon="3.02459">
        <ele>684.6</ele>
        <time>2016-05-22T08:38:37Z</time>
      </trkpt>
      <trkpt lat="44.06867" lon="3.02462">
        <ele>684.9</ele>
        <time>2016-05-22T08:38:42Z</time>
      </trkpt>
      <trkpt lat="44.06853" lon="3.02465">
        <ele>685.2</ele>
        <time>2016-05-22T08:38:47Z</time>
      </trkpt>
      <trkpt lat="44.06839" lon="3.02468">
        <ele>685.5</ele>
        <time>2016-05-22T08:38:53Z</time>
      </trkpt>
      <trkpt lat="44.06824" lon="3.02471">
        <ele>685.8</ele>
        <time>2016-05-22T08:38:59Z</time>
      </trkpt>
      <trkpt lat="44.06809" lon="3.02474">
        <ele>686.3</ele>
        <time>2016-05-22T08:39:06Z</time>
      </trkpt>
      <trkpt lat="44.06795" lon="3.02479">
        <ele>686.7</ele>
        <time>2016-05-22T08:39:13Z</time>
      </trkpt>
      <trkpt lat="44.06782" lon="3.02483">
        <ele>687.1</ele>
        <time>2016-05-22T08:39:19Z</time>
      </trkpt>
      <trkpt lat="44.06768" lon="3.02486">
        <ele>687.5</ele>
        <time>2016-05-22T08:39:25Z</time>
      </trkpt>
      <trkpt lat="44.06754" lon="3.02489">
        <ele>688</ele>
        <time>2016-05-22T08:39:32Z</time>
      </trkpt>
      <trkpt lat="44.06738" lon="3.02493">
        <ele>688.5</ele>
        <time>2016-05-22T08:39:39Z</time>
      </trkpt>
      <trkpt lat="44.06725" lon="3.02496">
        <ele>688.9</ele>
        <time>2016-05-22T08:39:45Z</time>
      </trkpt>
      <trkpt lat="44.06711" lon="3.025">
        <ele>689.3</ele>
        <time>2016-05-22T08:39:51Z</time>
      </trkpt>
      <trkpt lat="44.06703" lon="3.02506">
        <ele>689.6</ele>
        <time>2016-05-22T08:39:55Z</time>
      </trkpt>
      <trkpt lat="44.06707" lon="3.02514">
        <ele>689.8</ele>
        <time>2016-05-22T08:39:58Z</time>
      </trkpt>
      <trkpt lat="44.06723" lon="3.02516">
        <ele>689.6</ele>
        <time>2016-05-22T08:40:03Z</time>
      </trkpt>
      <trkpt lat="44.06738" lon="3.02507">
        <ele>689.1</ele>
        <time>2016-05-22T08:40:09Z</time>
      </trkpt>
      <trkpt lat="44.06752" lon="3.02501">
        <ele>688.6</ele>
        <time>2016-05-22T08:40:15Z</time>
      </trkpt>
      <trkpt lat="44.06768" lon="3.02498">
        <ele>688.1</ele>
        <time>2016-05-22T08:40:21Z</time>
      </trkpt>
      <trkpt lat="44.06782" lon="3.02496">
        <ele>687.6</ele>
        <time>2016-05-22T08:40:27Z</time>
      </trkpt>
      <trkpt lat="44.06797" lon="3.02492">
        <ele>687.1</ele>
        <time>2016-05-22T08:40:33Z</time>
      </trkpt>
      <trkpt lat="44.06813" lon="3.02489">
        <ele>686.6</ele>
        <time>2016-05-22T08:40:39Z</time>
      </trkpt>
      <trkpt lat="44.06827" lon="3.02487">
        <ele>686.2</ele>
        <time>2016-05-22T08:40:44Z</time>
      </trkpt>
      <trkpt lat="44.06842" lon="3.02483">
        <ele>685.8</ele>
        <time>2016-05-22T08:40:50Z</time>
      </trkpt>
      <trkpt lat="44.06857" lon="3.02479">
        <ele>685.4</ele>
        <time>2016-05-22T08:40:56Z</time>
      </trkpt>
      <trkpt lat="44.06872" lon="3.02475">
        <ele>685</ele>
        <time>2016-05-22T08:41:01Z</time>
      </trkpt>
      <trkpt lat="44.06886" lon="3.0247">
        <ele>684.6</ele>
        <time>2016-05-22T08:41:07Z</time>
      </trkpt>
      <trkpt lat="44.06901" lon="3.02466">
        <ele>684.1</ele>
        <time>2016-05-22T08:41:13Z</time>
      </trkpt>
      <trkpt lat="44.06914" lon="3.02462">
        <ele>683.8</ele>
        <time>2016-05-22T08:41:18Z</time>
      </trkpt>
      <trkpt lat="44.06928" lon="3.02457">
        <ele>683.2</ele>
        <time>2016-05-22T08:41:24Z</time>
      </trkpt>
      <trkpt lat="44.06943" lon="3.02455">
        <ele>682.5</ele>
        <time>2016-05-22T08:41:30Z</time>
      </trkpt>
      <trkpt lat="44.06959" lon="3.02452">
        <ele>681.7</ele>
        <time>2016-05-22T08:41:37Z</time>
      </trkpt>
      <trkpt lat="44.06973" lon="3.02446">
        <ele>681</ele>
        <time>2016-05-22T08:41:43Z</time>
      </trkpt>
      <trkpt lat="44.06986" lon="3.02442">
        <ele>680.4</ele>
        <time>2016-05-22T08:41:49Z</time>
      </trkpt>
      <trkpt lat="44.07001" lon="3.02441">
        <ele>680</ele>
        <time>2016-05-22T08:41:55Z</time>
      </trkpt>
      <trkpt lat="44.07015" lon="3.02438">
        <ele>679.5</ele>
        <time>2016-05-22T08:42:01Z</time>
      </trkpt>
      <trkpt lat="44.07029" lon="3.02436">
        <ele>679.1</ele>
        <time>2016-05-22T08:42:07Z</time>
      </trkpt>
      <trkpt lat="44.07043" lon="3.02432">
        <ele>678.7</ele>
        <time>2016-05-22T08:42:12Z</time>
      </trkpt>
      <trkpt lat="44.07056" lon="3.02429">
        <ele>678.3</ele>
        <time>2016-05-22T08:42:17Z</time>
      </trkpt>
      <trkpt lat="44.07071" lon="3.02425">
        <ele>677.8</ele>
        <time>2016-05-22T08:42:23Z</time>
      </trkpt>
      <trkpt lat="44.07086" lon="3.0242">
        <ele>677.3</ele>
        <time>2016-05-22T08:42:30Z</time>
      </trkpt>
      <trkpt lat="44.071" lon="3.02416">
        <ele>676.9</ele>
        <time>2016-05-22T08:42:36Z</time>
      </trkpt>
      <trkpt lat="44.07115" lon="3.02413">
        <ele>676.3</ele>
        <time>2016-05-22T08:42:41Z</time>
      </trkpt>
      <trkpt lat="44.07128" lon="3.02411">
        <ele>675.8</ele>
        <time>2016-05-22T08:42:46Z</time>
      </trkpt>
      <trkpt lat="44.07143" lon="3.02408">
        <ele>675.3</ele>
        <time>2016-05-22T08:42:51Z</time>
      </trkpt>
      <trkpt lat="44.07159" lon="3.02405">
        <ele>674.7</ele>
        <time>2016-05-22T08:42:56Z</time>
      </trkpt>
      <trkpt lat="44.07173" lon="3.02402">
        <ele>674.2</ele>
        <time>2016-05-22T08:43:01Z</time>
      </trkpt>
      <trkpt lat="44.07188" lon="3.024">
        <ele>673.6</ele>
        <time>2016-05-22T08:43:06Z</time>
      </trkpt>
      <trkpt lat="44.07202" lon="3.02398">
        <ele>672.7</ele>
        <time>2016-05-22T08:43:11Z</time>
      </trkpt>
      <trkpt lat="44.07216" lon="3.02396">
        <ele>671.8</ele>
        <time>2016-05-22T08:43:16Z</time>
      </trkpt>
      <trkpt lat="44.07231" lon="3.02394">
        <ele>670.9</ele>
        <time>2016-05-22T08:43:21Z</time>
      </trkpt>
      <trkpt lat="44.07245" lon="3.0239">
        <ele>669.9</ele>
        <time>2016-05-22T08:43:26Z</time>
      </trkpt>
      <trkpt lat="44.07259" lon="3.02386">
        <ele>670.1</ele>
        <time>2016-05-22T08:43:31Z</time>
      </trkpt>
      <trkpt lat="44.07274" lon="3.02381">
        <ele>670.1</ele>
        <time>2016-05-22T08:43:37Z</time>
      </trkpt>
      <trkpt lat="44.0729" lon="3.02379">
        <ele>669.5</ele>
        <time>2016-05-22T08:43:43Z</time>
      </trkpt>
      <trkpt lat="44.07304" lon="3.02376">
        <ele>669</ele>
        <time>2016-05-22T08:43:48Z</time>
      </trkpt>
      <trkpt lat="44.07317" lon="3.02374">
        <ele>668.5</ele>
        <time>2016-05-22T08:43:53Z</time>
      </trkpt>
      <trkpt lat="44.07333" lon="3.02372">
        <ele>667.9</ele>
        <time>2016-05-22T08:43:59Z</time>
      </trkpt>
      <trkpt lat="44.07347" lon="3.02368">
        <ele>667.5</ele>
        <time>2016-05-22T08:44:04Z</time>
      </trkpt>
      <trkpt lat="44.07361" lon="3.02364">
        <ele>667</ele>
        <time>2016-05-22T08:44:09Z</time>
      </trkpt>
      <trkpt lat="44.07375" lon="3.02361">
        <ele>666.5</ele>
        <time>2016-05-22T08:44:14Z</time>
      </trkpt>
      <trkpt lat="44.07389" lon="3.02358">
        <ele>666</ele>
        <time>2016-05-22T08:44:19Z</time>
      </trkpt>
      <trkpt lat="44.07404" lon="3.02355">
        <ele>665.6</ele>
        <time>2016-05-22T08:44:26Z</time>
      </trkpt>
      <trkpt lat="44.0742" lon="3.02352">
        <ele>665.3</ele>
        <time>2016-05-22T08:44:32Z</time>
      </trkpt>
      <trkpt lat="44.07435" lon="3.02349">
        <ele>665</ele>
        <time>2016-05-22T08:44:37Z</time>
      </trkpt>
      <trkpt lat="44.0745" lon="3.02345">
        <ele>664.7</ele>
        <time>2016-05-22T08:44:43Z</time>
      </trkpt>
      <trkpt lat="44.07466" lon="3.0234">
        <ele>664.3</ele>
        <time>2016-05-22T08:44:49Z</time>
      </trkpt>
      <trkpt lat="44.07482" lon="3.02337">
        <ele>664</ele>
        <time>2016-05-22T08:44:55Z</time>
      </trkpt>
      <trkpt lat="44.07496" lon="3.02335">
        <ele>663.7</ele>
        <time>2016-05-22T08:45:00Z</time>
      </trkpt>
      <trkpt lat="44.07509" lon="3.02331">
        <ele>663.4</ele>
        <time>2016-05-22T08:45:05Z</time>
      </trkpt>
      <trkpt lat="44.07524" lon="3.02329">
        <ele>663.1</ele>
        <time>2016-05-22T08:45:11Z</time>
      </trkpt>
      <trkpt lat="44.0754" lon="3.02327">
        <ele>662.5</ele>
        <time>2016-05-22T08:45:17Z</time>
      </trkpt>
      <trkpt lat="44.07556" lon="3.02324">
        <ele>661.9</ele>
        <time>2016-05-22T08:45:23Z</time>
      </trkpt>
      <trkpt lat="44.076" lon="3.02314">
        <ele>659.5</ele>
        <time>2016-05-22T08:45:35Z</time>
      </trkpt>
      <trkpt lat="44.076" lon="3.02314">
        <ele>659.5</ele>
        <time>2016-05-22T08:46:24Z</time>
      </trkpt>
      <trkpt lat="44.07629" lon="3.02306">
        <ele>657.7</ele>
        <time>2016-05-22T08:46:24Z</time>
      </trkpt>
      <trkpt lat="44.07644" lon="3.02303">
        <ele>657.5</ele>
        <time>2016-05-22T08:46:29Z</time>
      </trkpt>
      <trkpt lat="44.0766" lon="3.02299">
        <ele>657.2</ele>
        <time>2016-05-22T08:46:34Z</time>
      </trkpt>
      <trkpt lat="44.07677" lon="3.02297">
        <ele>657</ele>
        <time>2016-05-22T08:46:39Z</time>
      </trkpt>
      <trkpt lat="44.0769" lon="3.02295">
        <ele>656.8</ele>
        <time>2016-05-22T08:46:43Z</time>
      </trkpt>
      <trkpt lat="44.07705" lon="3.02295">
        <ele>656.5</ele>
        <time>2016-05-22T08:46:49Z</time>
      </trkpt>
      <trkpt lat="44.07718" lon="3.0229">
        <ele>656.2</ele>
        <time>2016-05-22T08:46:54Z</time>
      </trkpt>
      <trkpt lat="44.07733" lon="3.02286">
        <ele>656</ele>
        <time>2016-05-22T08:46:59Z</time>
      </trkpt>
      <trkpt lat="44.07748" lon="3.02283">
        <ele>655.8</ele>
        <time>2016-05-22T08:47:04Z</time>
      </trkpt>
      <trkpt lat="44.07762" lon="3.0228">
        <ele>655.7</ele>
        <time>2016-05-22T08:47:09Z</time>
      </trkpt>
      <trkpt lat="44.07776" lon="3.02278">
        <ele>655.6</ele>
        <time>2016-05-22T08:47:14Z</time>
      </trkpt>
      <trkpt lat="44.07792" lon="3.02275">
        <ele>654.9</ele>
        <time>2016-05-22T08:47:19Z</time>
      </trkpt>
      <trkpt lat="44.07809" lon="3.02274">
        <ele>651.5</ele>
        <time>2016-05-22T08:47:24Z</time>
      </trkpt>
      <trkpt lat="44.07825" lon="3.02271">
        <ele>647.6</ele>
        <time>2016-05-22T08:47:29Z</time>
      </trkpt>
      <trkpt lat="44.0784" lon="3.02269">
        <ele>644.5</ele>
        <time>2016-05-22T08:47:33Z</time>
      </trkpt>
      <trkpt lat="44.07854" lon="3.02268">
        <ele>644.6</ele>
        <time>2016-05-22T08:47:37Z</time>
      </trkpt>
      <trkpt lat="44.07868" lon="3.02266">
        <ele>644.9</ele>
        <time>2016-05-22T08:47:41Z</time>
      </trkpt>
      <trkpt lat="44.07884" lon="3.02264">
        <ele>644.1</ele>
        <time>2016-05-22T08:47:46Z</time>
      </trkpt>
      <trkpt lat="44.07901" lon="3.02261">
        <ele>643.3</ele>
        <time>2016-05-22T08:47:51Z</time>
      </trkpt>
      <trkpt lat="44.07917" lon="3.02259">
        <ele>642.5</ele>
        <time>2016-05-22T08:47:56Z</time>
      </trkpt>
      <trkpt lat="44.07933" lon="3.02257">
        <ele>641.7</ele>
        <time>2016-05-22T08:48:01Z</time>
      </trkpt>
      <trkpt lat="44.07949" lon="3.02255">
        <ele>641</ele>
        <time>2016-05-22T08:48:06Z</time>
      </trkpt>
      <trkpt lat="44.07965" lon="3.02253">
        <ele>640.8</ele>
        <time>2016-05-22T08:48:11Z</time>
      </trkpt>
      <trkpt lat="44.07979" lon="3.02253">
        <ele>640.9</ele>
        <time>2016-05-22T08:48:15Z</time>
      </trkpt>
      <trkpt lat="44.07995" lon="3.0225">
        <ele>640.2</ele>
        <time>2016-05-22T08:48:20Z</time>
      </trkpt>
      <trkpt lat="44.0801" lon="3.0225">
        <ele>637</ele>
        <time>2016-05-22T08:48:25Z</time>
      </trkpt>
      <trkpt lat="44.08025" lon="3.02246">
        <ele>636.7</ele>
        <time>2016-05-22T08:48:30Z</time>
      </trkpt>
      <trkpt lat="44.0804" lon="3.02245">
        <ele>639.1</ele>
        <time>2016-05-22T08:48:35Z</time>
      </trkpt>
      <trkpt lat="44.08055" lon="3.02242">
        <ele>641.5</ele>
        <time>2016-05-22T08:48:40Z</time>
      </trkpt>
      <trkpt lat="44.0807" lon="3.02236">
        <ele>643.9</ele>
        <time>2016-05-22T08:48:45Z</time>
      </trkpt>
      <trkpt lat="44.08085" lon="3.02234">
        <ele>643.6</ele>
        <time>2016-05-22T08:48:50Z</time>
      </trkpt>
      <trkpt lat="44.08099" lon="3.02231">
        <ele>642.7</ele>
        <time>2016-05-22T08:48:55Z</time>
      </trkpt>
      <trkpt lat="44.08114" lon="3.02225">
        <ele>641.5</ele>
        <time>2016-05-22T08:49:01Z</time>
      </trkpt>
      <trkpt lat="44.08129" lon="3.02223">
        <ele>641.1</ele>
        <time>2016-05-22T08:49:06Z</time>
      </trkpt>
      <trkpt lat="44.08144" lon="3.02223">
        <ele>640.8</ele>
        <time>2016-05-22T08:49:11Z</time>
      </trkpt>
      <trkpt lat="44.08158" lon="3.02221">
        <ele>640.6</ele>
        <time>2016-05-22T08:49:16Z</time>
      </trkpt>
      <trkpt lat="44.08172" lon="3.0222">
        <ele>640.3</ele>
        <time>2016-05-22T08:49:21Z</time>
      </trkpt>
      <trkpt lat="44.08187" lon="3.02219">
        <ele>640.1</ele>
        <time>2016-05-22T08:49:26Z</time>
      </trkpt>
      <trkpt lat="44.08203" lon="3.02217">
        <ele>639.8</ele>
        <time>2016-05-22T08:49:32Z</time>
      </trkpt>
      <trkpt lat="44.08216" lon="3.02215">
        <ele>639.5</ele>
        <time>2016-05-22T08:49:37Z</time>
      </trkpt>
      <trkpt lat="44.08232" lon="3.02211">
        <ele>639.2</ele>
        <time>2016-05-22T08:49:43Z</time>
      </trkpt>
      <trkpt lat="44.08246" lon="3.0221">
        <ele>639</ele>
        <time>2016-05-22T08:49:48Z</time>
      </trkpt>
      <trkpt lat="44.08262" lon="3.02208">
        <ele>638.6</ele>
        <time>2016-05-22T08:49:54Z</time>
      </trkpt>
      <trkpt lat="44.08276" lon="3.02204">
        <ele>638.4</ele>
        <time>2016-05-22T08:49:59Z</time>
      </trkpt>
      <trkpt lat="44.08289" lon="3.02201">
        <ele>638.1</ele>
        <time>2016-05-22T08:50:04Z</time>
      </trkpt>
      <trkpt lat="44.08303" lon="3.02202">
        <ele>637.9</ele>
        <time>2016-05-22T08:50:09Z</time>
      </trkpt>
      <trkpt lat="44.08316" lon="3.02198">
        <ele>637.6</ele>
        <time>2016-05-22T08:50:14Z</time>
      </trkpt>
      <trkpt lat="44.08331" lon="3.02197">
        <ele>637.1</ele>
        <time>2016-05-22T08:50:19Z</time>
      </trkpt>
      <trkpt lat="44.08346" lon="3.02194">
        <ele>636.5</ele>
        <time>2016-05-22T08:50:24Z</time>
      </trkpt>
      <trkpt lat="44.0836" lon="3.02193">
        <ele>636</ele>
        <time>2016-05-22T08:50:29Z</time>
      </trkpt>
      <trkpt lat="44.08375" lon="3.02191">
        <ele>635.5</ele>
        <time>2016-05-22T08:50:34Z</time>
      </trkpt>
      <trkpt lat="44.0839" lon="3.02188">
        <ele>634.9</ele>
        <time>2016-05-22T08:50:39Z</time>
      </trkpt>
      <trkpt lat="44.08404" lon="3.02186">
        <ele>634.4</ele>
        <time>2016-05-22T08:50:44Z</time>
      </trkpt>
      <trkpt lat="44.08417" lon="3.02185">
        <ele>633.8</ele>
        <time>2016-05-22T08:50:49Z</time>
      </trkpt>
      <trkpt lat="44.08431" lon="3.02183">
        <ele>633.3</ele>
        <time>2016-05-22T08:50:54Z</time>
      </trkpt>
      <trkpt lat="44.08445" lon="3.0218">
        <ele>632.7</ele>
        <time>2016-05-22T08:50:59Z</time>
      </trkpt>
      <trkpt lat="44.0846" lon="3.0218">
        <ele>631.9</ele>
        <time>2016-05-22T08:51:04Z</time>
      </trkpt>
      <trkpt lat="44.08475" lon="3.0218">
        <ele>631</ele>
        <time>2016-05-22T08:51:09Z</time>
      </trkpt>
      <trkpt lat="44.08489" lon="3.02179">
        <ele>630.4</ele>
        <time>2016-05-22T08:51:14Z</time>
      </trkpt>
      <trkpt lat="44.08503" lon="3.02176">
        <ele>629.8</ele>
        <time>2016-05-22T08:51:19Z</time>
      </trkpt>
      <trkpt lat="44.08519" lon="3.02175">
        <ele>629.3</ele>
        <time>2016-05-22T08:51:25Z</time>
      </trkpt>
      <trkpt lat="44.08533" lon="3.02173">
        <ele>629.1</ele>
        <time>2016-05-22T08:51:30Z</time>
      </trkpt>
      <trkpt lat="44.08547" lon="3.02171">
        <ele>628.8</ele>
        <time>2016-05-22T08:51:35Z</time>
      </trkpt>
      <trkpt lat="44.08563" lon="3.02169">
        <ele>628.5</ele>
        <time>2016-05-22T08:51:40Z</time>
      </trkpt>
      <trkpt lat="44.08578" lon="3.02168">
        <ele>627.9</ele>
        <time>2016-05-22T08:51:45Z</time>
      </trkpt>
      <trkpt lat="44.08593" lon="3.02166">
        <ele>627.3</ele>
        <time>2016-05-22T08:51:50Z</time>
      </trkpt>
      <trkpt lat="44.08608" lon="3.02165">
        <ele>626.6</ele>
        <time>2016-05-22T08:51:55Z</time>
      </trkpt>
      <trkpt lat="44.08624" lon="3.02163">
        <ele>625.8</ele>
        <time>2016-05-22T08:52:01Z</time>
      </trkpt>
      <trkpt lat="44.0864" lon="3.0216">
        <ele>625</ele>
        <time>2016-05-22T08:52:07Z</time>
      </trkpt>
      <trkpt lat="44.08654" lon="3.02158">
        <ele>624.3</ele>
        <time>2016-05-22T08:52:12Z</time>
      </trkpt>
      <trkpt lat="44.08669" lon="3.02157">
        <ele>623.5</ele>
        <time>2016-05-22T08:52:17Z</time>
      </trkpt>
      <trkpt lat="44.08683" lon="3.02155">
        <ele>622.5</ele>
        <time>2016-05-22T08:52:22Z</time>
      </trkpt>
      <trkpt lat="44.08698" lon="3.02154">
        <ele>621.5</ele>
        <time>2016-05-22T08:52:27Z</time>
      </trkpt>
      <trkpt lat="44.08713" lon="3.02154">
        <ele>620.7</ele>
        <time>2016-05-22T08:52:32Z</time>
      </trkpt>
      <trkpt lat="44.08727" lon="3.02152">
        <ele>620.5</ele>
        <time>2016-05-22T08:52:37Z</time>
      </trkpt>
      <trkpt lat="44.08741" lon="3.02151">
        <ele>620.6</ele>
        <time>2016-05-22T08:52:42Z</time>
      </trkpt>
      <trkpt lat="44.08756" lon="3.02151">
        <ele>620.7</ele>
        <time>2016-05-22T08:52:47Z</time>
      </trkpt>
      <trkpt lat="44.0877" lon="3.02149">
        <ele>620.8</ele>
        <time>2016-05-22T08:52:52Z</time>
      </trkpt>
      <trkpt lat="44.08786" lon="3.0215">
        <ele>620.9</ele>
        <time>2016-05-22T08:52:57Z</time>
      </trkpt>
      <trkpt lat="44.088" lon="3.02148">
        <ele>621</ele>
        <time>2016-05-22T08:53:02Z</time>
      </trkpt>
      <trkpt lat="44.08814" lon="3.02146">
        <ele>620.2</ele>
        <time>2016-05-22T08:53:07Z</time>
      </trkpt>
      <trkpt lat="44.0883" lon="3.02143">
        <ele>619</ele>
        <time>2016-05-22T08:53:13Z</time>
      </trkpt>
      <trkpt lat="44.08846" lon="3.02141">
        <ele>617.7</ele>
        <time>2016-05-22T08:53:19Z</time>
      </trkpt>
      <trkpt lat="44.08859" lon="3.02139">
        <ele>617.1</ele>
        <time>2016-05-22T08:53:24Z</time>
      </trkpt>
      <trkpt lat="44.08873" lon="3.02137">
        <ele>616.6</ele>
        <time>2016-05-22T08:53:29Z</time>
      </trkpt>
      <trkpt lat="44.08887" lon="3.02136">
        <ele>616</ele>
        <time>2016-05-22T08:53:34Z</time>
      </trkpt>
      <trkpt lat="44.08901" lon="3.02135">
        <ele>615.5</ele>
        <time>2016-05-22T08:53:39Z</time>
      </trkpt>
      <trkpt lat="44.08916" lon="3.02133">
        <ele>615</ele>
        <time>2016-05-22T08:53:44Z</time>
      </trkpt>
      <trkpt lat="44.08932" lon="3.02132">
        <ele>614.3</ele>
        <time>2016-05-22T08:53:50Z</time>
      </trkpt>
      <trkpt lat="44.08946" lon="3.02132">
        <ele>613.6</ele>
        <time>2016-05-22T08:53:55Z</time>
      </trkpt>
      <trkpt lat="44.08961" lon="3.02131">
        <ele>612.9</ele>
        <time>2016-05-22T08:54:00Z</time>
      </trkpt>
      <trkpt lat="44.08977" lon="3.0213">
        <ele>612.3</ele>
        <time>2016-05-22T08:54:06Z</time>
      </trkpt>
      <trkpt lat="44.08991" lon="3.0213">
        <ele>612.5</ele>
        <time>2016-05-22T08:54:11Z</time>
      </trkpt>
      <trkpt lat="44.09005" lon="3.02131">
        <ele>611.8</ele>
        <time>2016-05-22T08:54:16Z</time>
      </trkpt>
      <trkpt lat="44.09019" lon="3.02127">
        <ele>611</ele>
        <time>2016-05-22T08:54:21Z</time>
      </trkpt>
      <trkpt lat="44.09035" lon="3.02124">
        <ele>610.3</ele>
        <time>2016-05-22T08:54:26Z</time>
      </trkpt>
      <trkpt lat="44.0905" lon="3.02125">
        <ele>609.6</ele>
        <time>2016-05-22T08:54:31Z</time>
      </trkpt>
      <trkpt lat="44.09065" lon="3.02124">
        <ele>608.9</ele>
        <time>2016-05-22T08:54:36Z</time>
      </trkpt>
      <trkpt lat="44.0908" lon="3.02125">
        <ele>608.3</ele>
        <time>2016-05-22T08:54:41Z</time>
      </trkpt>
      <trkpt lat="44.09094" lon="3.02124">
        <ele>607.8</ele>
        <time>2016-05-22T08:54:46Z</time>
      </trkpt>
      <trkpt lat="44.09109" lon="3.02123">
        <ele>607.4</ele>
        <time>2016-05-22T08:54:51Z</time>
      </trkpt>
      <trkpt lat="44.09123" lon="3.02123">
        <ele>606.9</ele>
        <time>2016-05-22T08:54:56Z</time>
      </trkpt>
      <trkpt lat="44.09137" lon="3.02122">
        <ele>606.4</ele>
        <time>2016-05-22T08:55:01Z</time>
      </trkpt>
      <trkpt lat="44.09151" lon="3.02121">
        <ele>606</ele>
        <time>2016-05-22T08:55:06Z</time>
      </trkpt>
      <trkpt lat="44.09165" lon="3.0212">
        <ele>605.5</ele>
        <time>2016-05-22T08:55:11Z</time>
      </trkpt>
      <trkpt lat="44.09181" lon="3.02119">
        <ele>605</ele>
        <time>2016-05-22T08:55:16Z</time>
      </trkpt>
      <trkpt lat="44.09196" lon="3.02118">
        <ele>604.6</ele>
        <time>2016-05-22T08:55:21Z</time>
      </trkpt>
      <trkpt lat="44.0921" lon="3.02117">
        <ele>604.2</ele>
        <time>2016-05-22T08:55:26Z</time>
      </trkpt>
      <trkpt lat="44.09224" lon="3.02115">
        <ele>603.8</ele>
        <time>2016-05-22T08:55:31Z</time>
      </trkpt>
      <trkpt lat="44.09238" lon="3.02114">
        <ele>603.5</ele>
        <time>2016-05-22T08:55:36Z</time>
      </trkpt>
      <trkpt lat="44.09253" lon="3.02115">
        <ele>603.1</ele>
        <time>2016-05-22T08:55:41Z</time>
      </trkpt>
      <trkpt lat="44.09267" lon="3.02114">
        <ele>602.7</ele>
        <time>2016-05-22T08:55:46Z</time>
      </trkpt>
      <trkpt lat="44.09281" lon="3.02115">
        <ele>602.4</ele>
        <time>2016-05-22T08:55:51Z</time>
      </trkpt>
      <trkpt lat="44.09296" lon="3.02114">
        <ele>602</ele>
        <time>2016-05-22T08:55:56Z</time>
      </trkpt>
      <trkpt lat="44.09309" lon="3.02113">
        <ele>601.6</ele>
        <time>2016-05-22T08:56:01Z</time>
      </trkpt>
      <trkpt lat="44.09325" lon="3.02113">
        <ele>601.2</ele>
        <time>2016-05-22T08:56:07Z</time>
      </trkpt>
      <trkpt lat="44.09341" lon="3.02113">
        <ele>600.7</ele>
        <time>2016-05-22T08:56:13Z</time>
      </trkpt>
      <trkpt lat="44.09355" lon="3.02112">
        <ele>600.2</ele>
        <time>2016-05-22T08:56:18Z</time>
      </trkpt>
      <trkpt lat="44.0937" lon="3.02111">
        <ele>599.7</ele>
        <time>2016-05-22T08:56:24Z</time>
      </trkpt>
      <trkpt lat="44.09384" lon="3.02112">
        <ele>599.2</ele>
        <time>2016-05-22T08:56:29Z</time>
      </trkpt>
      <trkpt lat="44.094" lon="3.02114">
        <ele>598.7</ele>
        <time>2016-05-22T08:56:35Z</time>
      </trkpt>
      <trkpt lat="44.09414" lon="3.02116">
        <ele>598.2</ele>
        <time>2016-05-22T08:56:40Z</time>
      </trkpt>
      <trkpt lat="44.09428" lon="3.02119">
        <ele>597.8</ele>
        <time>2016-05-22T08:56:45Z</time>
      </trkpt>
      <trkpt lat="44.09442" lon="3.02122">
        <ele>597.2</ele>
        <time>2016-05-22T08:56:50Z</time>
      </trkpt>
      <trkpt lat="44.09456" lon="3.02125">
        <ele>596.6</ele>
        <time>2016-05-22T08:56:55Z</time>
      </trkpt>
      <trkpt lat="44.09469" lon="3.02125">
        <ele>596.1</ele>
        <time>2016-05-22T08:57:00Z</time>
      </trkpt>
      <trkpt lat="44.09484" lon="3.02128">
        <ele>595.5</ele>
        <time>2016-05-22T08:57:05Z</time>
      </trkpt>
      <trkpt lat="44.09499" lon="3.02132">
        <ele>594.9</ele>
        <time>2016-05-22T08:57:10Z</time>
      </trkpt>
      <trkpt lat="44.09513" lon="3.02135">
        <ele>594.2</ele>
        <time>2016-05-22T08:57:15Z</time>
      </trkpt>
      <trkpt lat="44.09527" lon="3.02136">
        <ele>593.5</ele>
        <time>2016-05-22T08:57:20Z</time>
      </trkpt>
      <trkpt lat="44.09542" lon="3.02137">
        <ele>592.7</ele>
        <time>2016-05-22T08:57:25Z</time>
      </trkpt>
      <trkpt lat="44.09556" lon="3.02138">
        <ele>591.9</ele>
        <time>2016-05-22T08:57:30Z</time>
      </trkpt>
      <trkpt lat="44.0957" lon="3.0214">
        <ele>591.2</ele>
        <time>2016-05-22T08:57:35Z</time>
      </trkpt>
      <trkpt lat="44.09586" lon="3.02141">
        <ele>590.4</ele>
        <time>2016-05-22T08:57:40Z</time>
      </trkpt>
      <trkpt lat="44.09601" lon="3.02143">
        <ele>589.5</ele>
        <time>2016-05-22T08:57:46Z</time>
      </trkpt>
      <trkpt lat="44.09615" lon="3.02147">
        <ele>588.7</ele>
        <time>2016-05-22T08:57:51Z</time>
      </trkpt>
      <trkpt lat="44.09629" lon="3.02151">
        <ele>587.9</ele>
        <time>2016-05-22T08:57:56Z</time>
      </trkpt>
      <trkpt lat="44.09643" lon="3.02157">
        <ele>586.9</ele>
        <time>2016-05-22T08:58:01Z</time>
      </trkpt>
      <trkpt lat="44.09657" lon="3.02165">
        <ele>585.9</ele>
        <time>2016-05-22T08:58:06Z</time>
      </trkpt>
      <trkpt lat="44.09673" lon="3.02172">
        <ele>584.6</ele>
        <time>2016-05-22T08:58:12Z</time>
      </trkpt>
      <trkpt lat="44.09685" lon="3.02187">
        <ele>583.7</ele>
        <time>2016-05-22T08:58:17Z</time>
      </trkpt>
      <trkpt lat="44.09693" lon="3.02204">
        <ele>582.8</ele>
        <time>2016-05-22T08:58:22Z</time>
      </trkpt>
      <trkpt lat="44.09701" lon="3.02223">
        <ele>581.7</ele>
        <time>2016-05-22T08:58:28Z</time>
      </trkpt>
      <trkpt lat="44.09706" lon="3.02244">
        <ele>580.8</ele>
        <time>2016-05-22T08:58:33Z</time>
      </trkpt>
      <trkpt lat="44.09708" lon="3.02265">
        <ele>579.9</ele>
        <time>2016-05-22T08:58:38Z</time>
      </trkpt>
      <trkpt lat="44.09709" lon="3.02286">
        <ele>579.1</ele>
        <time>2016-05-22T08:58:43Z</time>
      </trkpt>
      <trkpt lat="44.09707" lon="3.02306">
        <ele>578.3</ele>
        <time>2016-05-22T08:58:48Z</time>
      </trkpt>
      <trkpt lat="44.09706" lon="3.02326">
        <ele>577.6</ele>
        <time>2016-05-22T08:58:53Z</time>
      </trkpt>
      <trkpt lat="44.09704" lon="3.02346">
        <ele>576.8</ele>
        <time>2016-05-22T08:58:58Z</time>
      </trkpt>
      <trkpt lat="44.09701" lon="3.02367">
        <ele>575.9</ele>
        <time>2016-05-22T08:59:03Z</time>
      </trkpt>
      <trkpt lat="44.09699" lon="3.02388">
        <ele>575</ele>
        <time>2016-05-22T08:59:08Z</time>
      </trkpt>
      <trkpt lat="44.09698" lon="3.02409">
        <ele>574.1</ele>
        <time>2016-05-22T08:59:13Z</time>
      </trkpt>
      <trkpt lat="44.09694" lon="3.0243">
        <ele>573.2</ele>
        <time>2016-05-22T08:59:18Z</time>
      </trkpt>
      <trkpt lat="44.09689" lon="3.02449">
        <ele>572.4</ele>
        <time>2016-05-22T08:59:23Z</time>
      </trkpt>
      <trkpt lat="44.0968" lon="3.02465">
        <ele>571.7</ele>
        <time>2016-05-22T08:59:28Z</time>
      </trkpt>
      <trkpt lat="44.09667" lon="3.02476">
        <ele>571</ele>
        <time>2016-05-22T08:59:33Z</time>
      </trkpt>
      <trkpt lat="44.09652" lon="3.02481">
        <ele>570.2</ele>
        <time>2016-05-22T08:59:38Z</time>
      </trkpt>
      <trkpt lat="44.09637" lon="3.02484">
        <ele>569.5</ele>
        <time>2016-05-22T08:59:43Z</time>
      </trkpt>
      <trkpt lat="44.09623" lon="3.02481">
        <ele>568.8</ele>
        <time>2016-05-22T08:59:48Z</time>
      </trkpt>
      <trkpt lat="44.09609" lon="3.02472">
        <ele>567.9</ele>
        <time>2016-05-22T08:59:54Z</time>
      </trkpt>
      <trkpt lat="44.09595" lon="3.02467">
        <ele>567.2</ele>
        <time>2016-05-22T08:59:59Z</time>
      </trkpt>
      <trkpt lat="44.09581" lon="3.02463">
        <ele>566.5</ele>
        <time>2016-05-22T09:00:04Z</time>
      </trkpt>
      <trkpt lat="44.09566" lon="3.02458">
        <ele>565.8</ele>
        <time>2016-05-22T09:00:09Z</time>
      </trkpt>
      <trkpt lat="44.09553" lon="3.0245">
        <ele>565.8</ele>
        <time>2016-05-22T09:00:14Z</time>
      </trkpt>
      <trkpt lat="44.09544" lon="3.02435">
        <ele>566.4</ele>
        <time>2016-05-22T09:00:19Z</time>
      </trkpt>
      <trkpt lat="44.09541" lon="3.02416">
        <ele>567.1</ele>
        <time>2016-05-22T09:00:24Z</time>
      </trkpt>
      <trkpt lat="44.09546" lon="3.02396">
        <ele>568.5</ele>
        <time>2016-05-22T09:00:30Z</time>
      </trkpt>
      <trkpt lat="44.09553" lon="3.02379">
        <ele>569.9</ele>
        <time>2016-05-22T09:00:36Z</time>
      </trkpt>
      <trkpt lat="44.09561" lon="3.02361">
        <ele>571.4</ele>
        <time>2016-05-22T09:00:42Z</time>
      </trkpt>
      <trkpt lat="44.09569" lon="3.02343">
        <ele>573.2</ele>
        <time>2016-05-22T09:00:48Z</time>
      </trkpt>
      <trkpt lat="44.09576" lon="3.02325">
        <ele>574.6</ele>
        <time>2016-05-22T09:00:54Z</time>
      </trkpt>
      <trkpt lat="44.09581" lon="3.02307">
        <ele>575.1</ele>
        <time>2016-05-22T09:01:00Z</time>
      </trkpt>
      <trkpt lat="44.09583" lon="3.02287">
        <ele>575.8</ele>
        <time>2016-05-22T09:01:07Z</time>
      </trkpt>
      <trkpt lat="44.09587" lon="3.02284">
        <ele>575.7</ele>
        <time>2016-05-22T09:01:10Z</time>
      </trkpt>
      <trkpt lat="44.09602" lon="3.02287">
        <ele>575.4</ele>
        <time>2016-05-22T09:01:16Z</time>
      </trkpt>
      <trkpt lat="44.09616" lon="3.02287">
        <ele>575</ele>
        <time>2016-05-22T09:01:23Z</time>
      </trkpt>
      <trkpt lat="44.0963" lon="3.02278">
        <ele>574.3</ele>
        <time>2016-05-22T09:01:40Z</time>
      </trkpt>
      <trkpt lat="44.09643" lon="3.02273">
        <ele>573.8</ele>
        <time>2016-05-22T09:01:50Z</time>
      </trkpt>
      <trkpt lat="44.09657" lon="3.02268">
        <ele>573.6</ele>
        <time>2016-05-22T09:01:56Z</time>
      </trkpt>
      <trkpt lat="44.09671" lon="3.02264">
        <ele>573.3</ele>
        <time>2016-05-22T09:02:02Z</time>
      </trkpt>
      <trkpt lat="44.09686" lon="3.02259">
        <ele>573</ele>
        <time>2016-05-22T09:02:08Z</time>
      </trkpt>
      <trkpt lat="44.09693" lon="3.0226">
        <ele>572.9</ele>
        <time>2016-05-22T09:02:12Z</time>
      </trkpt>
      <trkpt lat="44.09692" lon="3.02282">
        <ele>572.6</ele>
        <time>2016-05-22T09:02:18Z</time>
      </trkpt>
      <trkpt lat="44.09682" lon="3.02299">
        <ele>572.3</ele>
        <time>2016-05-22T09:02:24Z</time>
      </trkpt>
      <trkpt lat="44.09677" lon="3.02317">
        <ele>572.1</ele>
        <time>2016-05-22T09:02:29Z</time>
      </trkpt>
      <trkpt lat="44.09672" lon="3.02336">
        <ele>571.9</ele>
        <time>2016-05-22T09:02:34Z</time>
      </trkpt>
      <trkpt lat="44.09666" lon="3.02353">
        <ele>571.7</ele>
        <time>2016-05-22T09:02:39Z</time>
      </trkpt>
      <trkpt lat="44.09662" lon="3.02374">
        <ele>569.8</ele>
        <time>2016-05-22T09:02:44Z</time>
      </trkpt>
      <trkpt lat="44.09665" lon="3.02394">
        <ele>567.9</ele>
        <time>2016-05-22T09:02:49Z</time>
      </trkpt>
      <trkpt lat="44.09678" lon="3.02406">
        <ele>566.4</ele>
        <time>2016-05-22T09:02:55Z</time>
      </trkpt>
      <trkpt lat="44.09694" lon="3.02411">
        <ele>566.3</ele>
        <time>2016-05-22T09:03:01Z</time>
      </trkpt>
      <trkpt lat="44.09721" lon="3.02415">
        <ele>566.5</ele>
        <time>2016-05-22T09:03:07Z</time>
      </trkpt>
      <trkpt lat="44.09737" lon="3.02411">
        <ele>566.9</ele>
        <time>2016-05-22T09:03:18Z</time>
      </trkpt>
      <trkpt lat="44.09751" lon="3.02405">
        <ele>567.1</ele>
        <time>2016-05-22T09:03:23Z</time>
      </trkpt>
      <trkpt lat="44.09759" lon="3.02387">
        <ele>567.3</ele>
        <time>2016-05-22T09:03:29Z</time>
      </trkpt>
      <trkpt lat="44.09763" lon="3.02368">
        <ele>568.4</ele>
        <time>2016-05-22T09:03:36Z</time>
      </trkpt>
      <trkpt lat="44.09777" lon="3.02369">
        <ele>569.9</ele>
        <time>2016-05-22T09:03:45Z</time>
      </trkpt>
      <trkpt lat="44.09789" lon="3.0238">
        <ele>572</ele>
        <time>2016-05-22T09:03:53Z</time>
      </trkpt>
      <trkpt lat="44.09804" lon="3.02383">
        <ele>574</ele>
        <time>2016-05-22T09:04:01Z</time>
      </trkpt>
      <trkpt lat="44.09818" lon="3.02388">
        <ele>575.4</ele>
        <time>2016-05-22T09:04:08Z</time>
      </trkpt>
      <trkpt lat="44.09833" lon="3.02393">
        <ele>577.1</ele>
        <time>2016-05-22T09:04:16Z</time>
      </trkpt>
      <trkpt lat="44.09846" lon="3.02392">
        <ele>578.5</ele>
        <time>2016-05-22T09:04:23Z</time>
      </trkpt>
      <trkpt lat="44.0986" lon="3.02394">
        <ele>579.8</ele>
        <time>2016-05-22T09:04:30Z</time>
      </trkpt>
      <trkpt lat="44.09875" lon="3.02398">
        <ele>581.2</ele>
        <time>2016-05-22T09:04:38Z</time>
      </trkpt>
      <trkpt lat="44.09889" lon="3.02402">
        <ele>582.6</ele>
        <time>2016-05-22T09:04:46Z</time>
      </trkpt>
      <trkpt lat="44.09903" lon="3.02406">
        <ele>584.1</ele>
        <time>2016-05-22T09:04:54Z</time>
      </trkpt>
      <trkpt lat="44.09917" lon="3.02412">
        <ele>585.5</ele>
        <time>2016-05-22T09:05:02Z</time>
      </trkpt>
      <trkpt lat="44.09931" lon="3.02419">
        <ele>586.8</ele>
        <time>2016-05-22T09:05:10Z</time>
      </trkpt>
      <trkpt lat="44.09943" lon="3.02426">
        <ele>588</ele>
        <time>2016-05-22T09:05:17Z</time>
      </trkpt>
      <trkpt lat="44.09958" lon="3.02431">
        <ele>589.3</ele>
        <time>2016-05-22T09:05:25Z</time>
      </trkpt>
      <trkpt lat="44.09972" lon="3.02437">
        <ele>590.6</ele>
        <time>2016-05-22T09:05:33Z</time>
      </trkpt>
      <trkpt lat="44.09985" lon="3.02444">
        <ele>591.7</ele>
        <time>2016-05-22T09:05:40Z</time>
      </trkpt>
      <trkpt lat="44.09998" lon="3.0245">
        <ele>593</ele>
        <time>2016-05-22T09:05:47Z</time>
      </trkpt>
      <trkpt lat="44.10011" lon="3.02457">
        <ele>594.3</ele>
        <time>2016-05-22T09:05:54Z</time>
      </trkpt>
      <trkpt lat="44.10024" lon="3.02463">
        <ele>595.5</ele>
        <time>2016-05-22T09:06:01Z</time>
      </trkpt>
      <trkpt lat="44.10037" lon="3.02468">
        <ele>596.7</ele>
        <time>2016-05-22T09:06:08Z</time>
      </trkpt>
      <trkpt lat="44.10051" lon="3.02474">
        <ele>597.8</ele>
        <time>2016-05-22T09:06:15Z</time>
      </trkpt>
      <trkpt lat="44.10064" lon="3.02479">
        <ele>598.8</ele>
        <time>2016-05-22T09:06:22Z</time>
      </trkpt>
      <trkpt lat="44.10077" lon="3.02486">
        <ele>599.9</ele>
        <time>2016-05-22T09:06:29Z</time>
      </trkpt>
      <trkpt lat="44.10091" lon="3.02492">
        <ele>600.8</ele>
        <time>2016-05-22T09:06:36Z</time>
      </trkpt>
      <trkpt lat="44.10105" lon="3.02499">
        <ele>601.8</ele>
        <time>2016-05-22T09:06:43Z</time>
      </trkpt>
      <trkpt lat="44.10119" lon="3.02506">
        <ele>602.6</ele>
        <time>2016-05-22T09:06:50Z</time>
      </trkpt>
      <trkpt lat="44.10133" lon="3.02513">
        <ele>602.9</ele>
        <time>2016-05-22T09:06:57Z</time>
      </trkpt>
      <trkpt lat="44.10147" lon="3.02521">
        <ele>603.3</ele>
        <time>2016-05-22T09:07:04Z</time>
      </trkpt>
      <trkpt lat="44.10161" lon="3.02526">
        <ele>603.7</ele>
        <time>2016-05-22T09:07:11Z</time>
      </trkpt>
      <trkpt lat="44.10175" lon="3.02532">
        <ele>604.7</ele>
        <time>2016-05-22T09:07:18Z</time>
      </trkpt>
      <trkpt lat="44.10189" lon="3.02539">
        <ele>605.7</ele>
        <time>2016-05-22T09:07:25Z</time>
      </trkpt>
      <trkpt lat="44.10202" lon="3.02546">
        <ele>606.5</ele>
        <time>2016-05-22T09:07:31Z</time>
      </trkpt>
      <trkpt lat="44.10216" lon="3.02555">
        <ele>607.1</ele>
        <time>2016-05-22T09:07:38Z</time>
      </trkpt>
      <trkpt lat="44.10231" lon="3.02562">
        <ele>607.7</ele>
        <time>2016-05-22T09:07:45Z</time>
      </trkpt>
      <trkpt lat="44.10244" lon="3.02573">
        <ele>608.3</ele>
        <time>2016-05-22T09:07:52Z</time>
      </trkpt>
      <trkpt lat="44.10257" lon="3.02585">
        <ele>608.8</ele>
        <time>2016-05-22T09:07:59Z</time>
      </trkpt>
      <trkpt lat="44.1027" lon="3.02598">
        <ele>609.4</ele>
        <time>2016-05-22T09:08:06Z</time>
      </trkpt>
      <trkpt lat="44.10281" lon="3.0261">
        <ele>609.8</ele>
        <time>2016-05-22T09:08:12Z</time>
      </trkpt>
      <trkpt lat="44.10291" lon="3.02621">
        <ele>609.9</ele>
        <time>2016-05-22T09:08:18Z</time>
      </trkpt>
      <trkpt lat="44.10302" lon="3.02633">
        <ele>610</ele>
        <time>2016-05-22T09:08:24Z</time>
      </trkpt>
      <trkpt lat="44.10313" lon="3.02645">
        <ele>610.1</ele>
        <time>2016-05-22T09:08:29Z</time>
      </trkpt>
      <trkpt lat="44.10325" lon="3.02657">
        <ele>610.2</ele>
        <time>2016-05-22T09:08:34Z</time>
      </trkpt>
      <trkpt lat="44.10336" lon="3.02669">
        <ele>610.3</ele>
        <time>2016-05-22T09:08:39Z</time>
      </trkpt>
      <trkpt lat="44.10349" lon="3.02681">
        <ele>610.4</ele>
        <time>2016-05-22T09:08:45Z</time>
      </trkpt>
      <trkpt lat="44.10361" lon="3.02695">
        <ele>610.5</ele>
        <time>2016-05-22T09:08:51Z</time>
      </trkpt>
      <trkpt lat="44.10372" lon="3.02706">
        <ele>610.6</ele>
        <time>2016-05-22T09:08:56Z</time>
      </trkpt>
      <trkpt lat="44.10384" lon="3.02719">
        <ele>610.6</ele>
        <time>2016-05-22T09:09:02Z</time>
      </trkpt>
      <trkpt lat="44.10394" lon="3.02734">
        <ele>610.7</ele>
        <time>2016-05-22T09:09:08Z</time>
      </trkpt>
      <trkpt lat="44.10404" lon="3.02751">
        <ele>610.8</ele>
        <time>2016-05-22T09:09:14Z</time>
      </trkpt>
      <trkpt lat="44.10413" lon="3.02769">
        <ele>610.9</ele>
        <time>2016-05-22T09:09:20Z</time>
      </trkpt>
      <trkpt lat="44.1042" lon="3.02788">
        <ele>611</ele>
        <time>2016-05-22T09:09:26Z</time>
      </trkpt>
      <trkpt lat="44.10425" lon="3.02808">
        <ele>611.1</ele>
        <time>2016-05-22T09:09:32Z</time>
      </trkpt>
      <trkpt lat="44.10431" lon="3.02827">
        <ele>611.2</ele>
        <time>2016-05-22T09:09:38Z</time>
      </trkpt>
      <trkpt lat="44.10436" lon="3.02845">
        <ele>611.3</ele>
        <time>2016-05-22T09:09:44Z</time>
      </trkpt>
      <trkpt lat="44.10444" lon="3.02864">
        <ele>611.4</ele>
        <time>2016-05-22T09:09:50Z</time>
      </trkpt>
      <trkpt lat="44.10451" lon="3.0288">
        <ele>611.5</ele>
        <time>2016-05-22T09:09:55Z</time>
      </trkpt>
      <trkpt lat="44.10459" lon="3.02897">
        <ele>611.6</ele>
        <time>2016-05-22T09:10:01Z</time>
      </trkpt>
      <trkpt lat="44.10467" lon="3.02913">
        <ele>611.7</ele>
        <time>2016-05-22T09:10:07Z</time>
      </trkpt>
      <trkpt lat="44.10476" lon="3.02929">
        <ele>611.8</ele>
        <time>2016-05-22T09:10:13Z</time>
      </trkpt>
      <trkpt lat="44.10486" lon="3.02945">
        <ele>611.9</ele>
        <time>2016-05-22T09:10:19Z</time>
      </trkpt>
      <trkpt lat="44.10495" lon="3.02961">
        <ele>612</ele>
        <time>2016-05-22T09:10:25Z</time>
      </trkpt>
      <trkpt lat="44.10507" lon="3.02975">
        <ele>612.1</ele>
        <time>2016-05-22T09:10:31Z</time>
      </trkpt>
      <trkpt lat="44.10518" lon="3.02989">
        <ele>612.2</ele>
        <time>2016-05-22T09:10:37Z</time>
      </trkpt>
      <trkpt lat="44.1053" lon="3.03001">
        <ele>612.3</ele>
        <time>2016-05-22T09:10:43Z</time>
      </trkpt>
      <trkpt lat="44.10542" lon="3.03014">
        <ele>612.4</ele>
        <time>2016-05-22T09:10:49Z</time>
      </trkpt>
      <trkpt lat="44.10555" lon="3.03024">
        <ele>612.4</ele>
        <time>2016-05-22T09:10:55Z</time>
      </trkpt>
      <trkpt lat="44.10568" lon="3.03034">
        <ele>612.5</ele>
        <time>2016-05-22T09:11:01Z</time>
      </trkpt>
      <trkpt lat="44.10581" lon="3.03042">
        <ele>612.6</ele>
        <time>2016-05-22T09:11:07Z</time>
      </trkpt>
      <trkpt lat="44.10594" lon="3.0305">
        <ele>612.7</ele>
        <time>2016-05-22T09:11:13Z</time>
      </trkpt>
      <trkpt lat="44.10607" lon="3.03056">
        <ele>612.8</ele>
        <time>2016-05-22T09:11:19Z</time>
      </trkpt>
      <trkpt lat="44.10621" lon="3.03062">
        <ele>612.9</ele>
        <time>2016-05-22T09:11:25Z</time>
      </trkpt>
      <trkpt lat="44.10634" lon="3.03065">
        <ele>613</ele>
        <time>2016-05-22T09:11:31Z</time>
      </trkpt>
      <trkpt lat="44.10647" lon="3.03069">
        <ele>613.1</ele>
        <time>2016-05-22T09:11:37Z</time>
      </trkpt>
      <trkpt lat="44.10661" lon="3.03072">
        <ele>613.5</ele>
        <time>2016-05-22T09:11:43Z</time>
      </trkpt>
      <trkpt lat="44.10675" lon="3.03073">
        <ele>614.2</ele>
        <time>2016-05-22T09:11:49Z</time>
      </trkpt>
      <trkpt lat="44.10689" lon="3.03076">
        <ele>615</ele>
        <time>2016-05-22T09:11:55Z</time>
      </trkpt>
      <trkpt lat="44.10702" lon="3.0308">
        <ele>615.7</ele>
        <time>2016-05-22T09:12:01Z</time>
      </trkpt>
      <trkpt lat="44.10716" lon="3.03087">
        <ele>616.4</ele>
        <time>2016-05-22T09:12:07Z</time>
      </trkpt>
      <trkpt lat="44.10729" lon="3.03097">
        <ele>617.3</ele>
        <time>2016-05-22T09:12:14Z</time>
      </trkpt>
      <trkpt lat="44.10734" lon="3.03115">
        <ele>617.8</ele>
        <time>2016-05-22T09:12:21Z</time>
      </trkpt>
      <trkpt lat="44.10728" lon="3.03135">
        <ele>617.8</ele>
        <time>2016-05-22T09:12:27Z</time>
      </trkpt>
      <trkpt lat="44.10721" lon="3.03155">
        <ele>616.7</ele>
        <time>2016-05-22T09:12:33Z</time>
      </trkpt>
      <trkpt lat="44.10715" lon="3.03172">
        <ele>615.8</ele>
        <time>2016-05-22T09:12:38Z</time>
      </trkpt>
      <trkpt lat="44.10709" lon="3.0319">
        <ele>614.9</ele>
        <time>2016-05-22T09:12:43Z</time>
      </trkpt>
      <trkpt lat="44.10704" lon="3.0321">
        <ele>614</ele>
        <time>2016-05-22T09:12:48Z</time>
      </trkpt>
      <trkpt lat="44.10699" lon="3.03229">
        <ele>612.7</ele>
        <time>2016-05-22T09:12:53Z</time>
      </trkpt>
      <trkpt lat="44.10694" lon="3.0325">
        <ele>611.2</ele>
        <time>2016-05-22T09:12:59Z</time>
      </trkpt>
      <trkpt lat="44.1069" lon="3.03268">
        <ele>609.8</ele>
        <time>2016-05-22T09:13:04Z</time>
      </trkpt>
      <trkpt lat="44.10684" lon="3.03285">
        <ele>608.5</ele>
        <time>2016-05-22T09:13:09Z</time>
      </trkpt>
      <trkpt lat="44.10678" lon="3.03305">
        <ele>607.4</ele>
        <time>2016-05-22T09:13:14Z</time>
      </trkpt>
      <trkpt lat="44.10673" lon="3.03324">
        <ele>606.3</ele>
        <time>2016-05-22T09:13:19Z</time>
      </trkpt>
      <trkpt lat="44.10668" lon="3.03341">
        <ele>605.2</ele>
        <time>2016-05-22T09:13:24Z</time>
      </trkpt>
      <trkpt lat="44.10662" lon="3.03359">
        <ele>604.2</ele>
        <time>2016-05-22T09:13:29Z</time>
      </trkpt>
      <trkpt lat="44.10656" lon="3.0338">
        <ele>602.7</ele>
        <time>2016-05-22T09:13:35Z</time>
      </trkpt>
      <trkpt lat="44.10649" lon="3.03397">
        <ele>600.9</ele>
        <time>2016-05-22T09:13:40Z</time>
      </trkpt>
      <trkpt lat="44.10644" lon="3.03416">
        <ele>599.1</ele>
        <time>2016-05-22T09:13:45Z</time>
      </trkpt>
      <trkpt lat="44.10637" lon="3.03435">
        <ele>597.2</ele>
        <time>2016-05-22T09:13:50Z</time>
      </trkpt>
      <trkpt lat="44.1063" lon="3.03453">
        <ele>595.3</ele>
        <time>2016-05-22T09:13:55Z</time>
      </trkpt>
      <trkpt lat="44.10625" lon="3.03472">
        <ele>594</ele>
        <time>2016-05-22T09:14:00Z</time>
      </trkpt>
      <trkpt lat="44.10621" lon="3.03492">
        <ele>593</ele>
        <time>2016-05-22T09:14:05Z</time>
      </trkpt>
      <trkpt lat="44.10616" lon="3.0351">
        <ele>592</ele>
        <time>2016-05-22T09:14:10Z</time>
      </trkpt>
      <trkpt lat="44.10608" lon="3.03525">
        <ele>591.3</ele>
        <time>2016-05-22T09:14:15Z</time>
      </trkpt>
      <trkpt lat="44.10595" lon="3.03539">
        <ele>591.3</ele>
        <time>2016-05-22T09:14:21Z</time>
      </trkpt>
      <trkpt lat="44.10585" lon="3.0355">
        <ele>591.8</ele>
        <time>2016-05-22T09:14:26Z</time>
      </trkpt>
      <trkpt lat="44.10572" lon="3.03562">
        <ele>592.4</ele>
        <time>2016-05-22T09:14:32Z</time>
      </trkpt>
      <trkpt lat="44.1056" lon="3.03572">
        <ele>593.1</ele>
        <time>2016-05-22T09:14:38Z</time>
      </trkpt>
      <trkpt lat="44.10547" lon="3.03583">
        <ele>594.1</ele>
        <time>2016-05-22T09:14:44Z</time>
      </trkpt>
      <trkpt lat="44.10534" lon="3.03593">
        <ele>595.3</ele>
        <time>2016-05-22T09:14:50Z</time>
      </trkpt>
      <trkpt lat="44.1052" lon="3.03598">
        <ele>596.6</ele>
        <time>2016-05-22T09:14:56Z</time>
      </trkpt>
      <trkpt lat="44.10506" lon="3.03602">
        <ele>596.8</ele>
        <time>2016-05-22T09:15:02Z</time>
      </trkpt>
      <trkpt lat="44.10491" lon="3.03603">
        <ele>596.5</ele>
        <time>2016-05-22T09:15:08Z</time>
      </trkpt>
      <trkpt lat="44.10476" lon="3.03604">
        <ele>596.2</ele>
        <time>2016-05-22T09:15:15Z</time>
      </trkpt>
      <trkpt lat="44.1046" lon="3.03606">
        <ele>595.8</ele>
        <time>2016-05-22T09:15:22Z</time>
      </trkpt>
      <trkpt lat="44.10445" lon="3.03607">
        <ele>595.5</ele>
        <time>2016-05-22T09:15:29Z</time>
      </trkpt>
      <trkpt lat="44.10431" lon="3.0361">
        <ele>595.2</ele>
        <time>2016-05-22T09:15:35Z</time>
      </trkpt>
      <trkpt lat="44.10416" lon="3.03613">
        <ele>594.9</ele>
        <time>2016-05-22T09:15:41Z</time>
      </trkpt>
      <trkpt lat="44.10401" lon="3.03617">
        <ele>594.5</ele>
        <time>2016-05-22T09:15:47Z</time>
      </trkpt>
      <trkpt lat="44.10385" lon="3.03621">
        <ele>594.2</ele>
        <time>2016-05-22T09:15:53Z</time>
      </trkpt>
      <trkpt lat="44.10369" lon="3.03623">
        <ele>593.9</ele>
        <time>2016-05-22T09:15:59Z</time>
      </trkpt>
      <trkpt lat="44.10356" lon="3.03629">
        <ele>593.5</ele>
        <time>2016-05-22T09:16:04Z</time>
      </trkpt>
      <trkpt lat="44.10342" lon="3.03634">
        <ele>592.8</ele>
        <time>2016-05-22T09:16:09Z</time>
      </trkpt>
      <trkpt lat="44.10327" lon="3.03638">
        <ele>592</ele>
        <time>2016-05-22T09:16:15Z</time>
      </trkpt>
      <trkpt lat="44.10314" lon="3.03644">
        <ele>591.3</ele>
        <time>2016-05-22T09:16:20Z</time>
      </trkpt>
      <trkpt lat="44.10298" lon="3.03648">
        <ele>590.5</ele>
        <time>2016-05-22T09:16:26Z</time>
      </trkpt>
      <trkpt lat="44.10283" lon="3.03655">
        <ele>589.7</ele>
        <time>2016-05-22T09:16:32Z</time>
      </trkpt>
      <trkpt lat="44.10269" lon="3.03661">
        <ele>588.7</ele>
        <time>2016-05-22T09:16:38Z</time>
      </trkpt>
      <trkpt lat="44.10254" lon="3.03661">
        <ele>587.8</ele>
        <time>2016-05-22T09:16:44Z</time>
      </trkpt>
      <trkpt lat="44.10239" lon="3.0366">
        <ele>587</ele>
        <time>2016-05-22T09:16:49Z</time>
      </trkpt>
      <trkpt lat="44.10224" lon="3.03658">
        <ele>586.4</ele>
        <time>2016-05-22T09:16:54Z</time>
      </trkpt>
      <trkpt lat="44.10211" lon="3.03665">
        <ele>585.7</ele>
        <time>2016-05-22T09:16:59Z</time>
      </trkpt>
      <trkpt lat="44.10202" lon="3.03682">
        <ele>585</ele>
        <time>2016-05-22T09:17:04Z</time>
      </trkpt>
      <trkpt lat="44.10196" lon="3.03701">
        <ele>584.3</ele>
        <time>2016-05-22T09:17:09Z</time>
      </trkpt>
      <trkpt lat="44.10191" lon="3.03719">
        <ele>583.5</ele>
        <time>2016-05-22T09:17:14Z</time>
      </trkpt>
      <trkpt lat="44.10185" lon="3.0374">
        <ele>582.5</ele>
        <time>2016-05-22T09:17:20Z</time>
      </trkpt>
      <trkpt lat="44.10179" lon="3.03756">
        <ele>581.7</ele>
        <time>2016-05-22T09:17:25Z</time>
      </trkpt>
      <trkpt lat="44.10171" lon="3.03773">
        <ele>580.9</ele>
        <time>2016-05-22T09:17:30Z</time>
      </trkpt>
      <trkpt lat="44.10166" lon="3.03792">
        <ele>579.4</ele>
        <time>2016-05-22T09:17:35Z</time>
      </trkpt>
      <trkpt lat="44.10159" lon="3.03811">
        <ele>577.8</ele>
        <time>2016-05-22T09:17:40Z</time>
      </trkpt>
      <trkpt lat="44.10154" lon="3.03831">
        <ele>576.1</ele>
        <time>2016-05-22T09:17:45Z</time>
      </trkpt>
      <trkpt lat="44.10155" lon="3.03853">
        <ele>574</ele>
        <time>2016-05-22T09:17:51Z</time>
      </trkpt>
      <trkpt lat="44.10161" lon="3.0387">
        <ele>572.9</ele>
        <time>2016-05-22T09:17:56Z</time>
      </trkpt>
      <trkpt lat="44.10173" lon="3.03883">
        <ele>572.3</ele>
        <time>2016-05-22T09:18:01Z</time>
      </trkpt>
      <trkpt lat="44.10187" lon="3.03898">
        <ele>571.7</ele>
        <time>2016-05-22T09:18:06Z</time>
      </trkpt>
      <trkpt lat="44.10198" lon="3.0391">
        <ele>571</ele>
        <time>2016-05-22T09:18:12Z</time>
      </trkpt>
      <trkpt lat="44.10211" lon="3.03922">
        <ele>570.3</ele>
        <time>2016-05-22T09:18:18Z</time>
      </trkpt>
      <trkpt lat="44.10226" lon="3.03928">
        <ele>569.4</ele>
        <time>2016-05-22T09:18:24Z</time>
      </trkpt>
      <trkpt lat="44.10239" lon="3.03934">
        <ele>568.6</ele>
        <time>2016-05-22T09:18:29Z</time>
      </trkpt>
      <trkpt lat="44.10253" lon="3.03944">
        <ele>567.7</ele>
        <time>2016-05-22T09:18:35Z</time>
      </trkpt>
      <trkpt lat="44.10265" lon="3.03954">
        <ele>566.9</ele>
        <time>2016-05-22T09:18:40Z</time>
      </trkpt>
      <trkpt lat="44.10277" lon="3.03966">
        <ele>566.3</ele>
        <time>2016-05-22T09:18:45Z</time>
      </trkpt>
      <trkpt lat="44.10288" lon="3.03979">
        <ele>565.7</ele>
        <time>2016-05-22T09:18:50Z</time>
      </trkpt>
      <trkpt lat="44.103" lon="3.0399">
        <ele>565.1</ele>
        <time>2016-05-22T09:18:55Z</time>
      </trkpt>
      <trkpt lat="44.10313" lon="3.03996">
        <ele>564.5</ele>
        <time>2016-05-22T09:19:00Z</time>
      </trkpt>
      <trkpt lat="44.10328" lon="3.04002">
        <ele>563.7</ele>
        <time>2016-05-22T09:19:06Z</time>
      </trkpt>
      <trkpt lat="44.10343" lon="3.04006">
        <ele>562.9</ele>
        <time>2016-05-22T09:19:12Z</time>
      </trkpt>
      <trkpt lat="44.10357" lon="3.04009">
        <ele>562.2</ele>
        <time>2016-05-22T09:19:17Z</time>
      </trkpt>
      <trkpt lat="44.10373" lon="3.04011">
        <ele>560.1</ele>
        <time>2016-05-22T09:19:22Z</time>
      </trkpt>
      <trkpt lat="44.10388" lon="3.04015">
        <ele>557.7</ele>
        <time>2016-05-22T09:19:27Z</time>
      </trkpt>
      <trkpt lat="44.10402" lon="3.0402">
        <ele>556</ele>
        <time>2016-05-22T09:19:32Z</time>
      </trkpt>
      <trkpt lat="44.10417" lon="3.04025">
        <ele>554.2</ele>
        <time>2016-05-22T09:19:37Z</time>
      </trkpt>
      <trkpt lat="44.10431" lon="3.0403">
        <ele>552.8</ele>
        <time>2016-05-22T09:19:42Z</time>
      </trkpt>
      <trkpt lat="44.10446" lon="3.04038">
        <ele>551.1</ele>
        <time>2016-05-22T09:19:48Z</time>
      </trkpt>
      <trkpt lat="44.10457" lon="3.0405">
        <ele>551</ele>
        <time>2016-05-22T09:19:53Z</time>
      </trkpt>
      <trkpt lat="44.10468" lon="3.04066">
        <ele>550.9</ele>
        <time>2016-05-22T09:19:58Z</time>
      </trkpt>
      <trkpt lat="44.10475" lon="3.04083">
        <ele>550.8</ele>
        <time>2016-05-22T09:20:02Z</time>
      </trkpt>
      <trkpt lat="44.10478" lon="3.04103">
        <ele>550.7</ele>
        <time>2016-05-22T09:20:07Z</time>
      </trkpt>
      <trkpt lat="44.10481" lon="3.04121">
        <ele>550.6</ele>
        <time>2016-05-22T09:20:12Z</time>
      </trkpt>
      <trkpt lat="44.1049" lon="3.0414">
        <ele>550</ele>
        <time>2016-05-22T09:20:17Z</time>
      </trkpt>
      <trkpt lat="44.10501" lon="3.04153">
        <ele>548.8</ele>
        <time>2016-05-22T09:20:22Z</time>
      </trkpt>
      <trkpt lat="44.10513" lon="3.04163">
        <ele>547.5</ele>
        <time>2016-05-22T09:20:27Z</time>
      </trkpt>
      <trkpt lat="44.10526" lon="3.0417">
        <ele>546.4</ele>
        <time>2016-05-22T09:20:32Z</time>
      </trkpt>
      <trkpt lat="44.10539" lon="3.04175">
        <ele>545.3</ele>
        <time>2016-05-22T09:20:37Z</time>
      </trkpt>
      <trkpt lat="44.10552" lon="3.04181">
        <ele>544.2</ele>
        <time>2016-05-22T09:20:42Z</time>
      </trkpt>
      <trkpt lat="44.10567" lon="3.04189">
        <ele>542.9</ele>
        <time>2016-05-22T09:20:47Z</time>
      </trkpt>
      <trkpt lat="44.1058" lon="3.04197">
        <ele>541.5</ele>
        <time>2016-05-22T09:20:52Z</time>
      </trkpt>
      <trkpt lat="44.10593" lon="3.04205">
        <ele>540.1</ele>
        <time>2016-05-22T09:20:57Z</time>
      </trkpt>
      <trkpt lat="44.10606" lon="3.04212">
        <ele>538.9</ele>
        <time>2016-05-22T09:21:02Z</time>
      </trkpt>
      <trkpt lat="44.10619" lon="3.04217">
        <ele>537.8</ele>
        <time>2016-05-22T09:21:07Z</time>
      </trkpt>
      <trkpt lat="44.10633" lon="3.04224">
        <ele>536.8</ele>
        <time>2016-05-22T09:21:12Z</time>
      </trkpt>
      <trkpt lat="44.10647" lon="3.04231">
        <ele>535.8</ele>
        <time>2016-05-22T09:21:17Z</time>
      </trkpt>
      <trkpt lat="44.10661" lon="3.04232">
        <ele>534</ele>
        <time>2016-05-22T09:21:22Z</time>
      </trkpt>
      <trkpt lat="44.10675" lon="3.04228">
        <ele>532.3</ele>
        <time>2016-05-22T09:21:27Z</time>
      </trkpt>
      <trkpt lat="44.10688" lon="3.0422">
        <ele>529.9</ele>
        <time>2016-05-22T09:21:33Z</time>
      </trkpt>
      <trkpt lat="44.10692" lon="3.04225">
        <ele>529.2</ele>
        <time>2016-05-22T09:21:35Z</time>
      </trkpt>
      <trkpt lat="44.10688" lon="3.04247">
        <ele>527.5</ele>
        <time>2016-05-22T09:21:40Z</time>
      </trkpt>
      <trkpt lat="44.10684" lon="3.04266">
        <ele>525.8</ele>
        <time>2016-05-22T09:21:45Z</time>
      </trkpt>
      <trkpt lat="44.10678" lon="3.04286">
        <ele>524.6</ele>
        <time>2016-05-22T09:21:50Z</time>
      </trkpt>
      <trkpt lat="44.1067" lon="3.04303">
        <ele>523.5</ele>
        <time>2016-05-22T09:21:55Z</time>
      </trkpt>
      <trkpt lat="44.1066" lon="3.04318">
        <ele>522.5</ele>
        <time>2016-05-22T09:22:00Z</time>
      </trkpt>
      <trkpt lat="44.10648" lon="3.04332">
        <ele>521.5</ele>
        <time>2016-05-22T09:22:05Z</time>
      </trkpt>
      <trkpt lat="44.10636" lon="3.04341">
        <ele>520.9</ele>
        <time>2016-05-22T09:22:09Z</time>
      </trkpt>
      <trkpt lat="44.10621" lon="3.04351">
        <ele>520.3</ele>
        <time>2016-05-22T09:22:14Z</time>
      </trkpt>
      <trkpt lat="44.10606" lon="3.0436">
        <ele>519.6</ele>
        <time>2016-05-22T09:22:19Z</time>
      </trkpt>
      <trkpt lat="44.10593" lon="3.04365">
        <ele>519.4</ele>
        <time>2016-05-22T09:22:24Z</time>
      </trkpt>
      <trkpt lat="44.10579" lon="3.04367">
        <ele>519.8</ele>
        <time>2016-05-22T09:22:29Z</time>
      </trkpt>
      <trkpt lat="44.10565" lon="3.0437">
        <ele>520.2</ele>
        <time>2016-05-22T09:22:34Z</time>
      </trkpt>
      <trkpt lat="44.10551" lon="3.04373">
        <ele>520.7</ele>
        <time>2016-05-22T09:22:39Z</time>
      </trkpt>
      <trkpt lat="44.10538" lon="3.04379">
        <ele>521.1</ele>
        <time>2016-05-22T09:22:44Z</time>
      </trkpt>
      <trkpt lat="44.10525" lon="3.04387">
        <ele>521.6</ele>
        <time>2016-05-22T09:22:50Z</time>
      </trkpt>
      <trkpt lat="44.10512" lon="3.04397">
        <ele>522.1</ele>
        <time>2016-05-22T09:22:56Z</time>
      </trkpt>
      <trkpt lat="44.10497" lon="3.04407">
        <ele>522.6</ele>
        <time>2016-05-22T09:23:02Z</time>
      </trkpt>
      <trkpt lat="44.10484" lon="3.04417">
        <ele>523.1</ele>
        <time>2016-05-22T09:23:08Z</time>
      </trkpt>
      <trkpt lat="44.10472" lon="3.04426">
        <ele>523.6</ele>
        <time>2016-05-22T09:23:14Z</time>
      </trkpt>
      <trkpt lat="44.10461" lon="3.04437">
        <ele>524.1</ele>
        <time>2016-05-22T09:23:20Z</time>
      </trkpt>
      <trkpt lat="44.10451" lon="3.04449">
        <ele>524.3</ele>
        <time>2016-05-22T09:23:26Z</time>
      </trkpt>
      <trkpt lat="44.10442" lon="3.04465">
        <ele>523.9</ele>
        <time>2016-05-22T09:23:32Z</time>
      </trkpt>
      <trkpt lat="44.10433" lon="3.04481">
        <ele>523.5</ele>
        <time>2016-05-22T09:23:38Z</time>
      </trkpt>
      <trkpt lat="44.10426" lon="3.04497">
        <ele>523.1</ele>
        <time>2016-05-22T09:23:44Z</time>
      </trkpt>
      <trkpt lat="44.10419" lon="3.04514">
        <ele>522.7</ele>
        <time>2016-05-22T09:23:50Z</time>
      </trkpt>
      <trkpt lat="44.10412" lon="3.04531">
        <ele>522.3</ele>
        <time>2016-05-22T09:23:56Z</time>
      </trkpt>
      <trkpt lat="44.10405" lon="3.04549">
        <ele>521.9</ele>
        <time>2016-05-22T09:24:02Z</time>
      </trkpt>
      <trkpt lat="44.10399" lon="3.04567">
        <ele>521.5</ele>
        <time>2016-05-22T09:24:08Z</time>
      </trkpt>
      <trkpt lat="44.10392" lon="3.04586">
        <ele>520.9</ele>
        <time>2016-05-22T09:24:14Z</time>
      </trkpt>
      <trkpt lat="44.10388" lon="3.04605">
        <ele>520.1</ele>
        <time>2016-05-22T09:24:19Z</time>
      </trkpt>
      <trkpt lat="44.10386" lon="3.04624">
        <ele>519.3</ele>
        <time>2016-05-22T09:24:24Z</time>
      </trkpt>
      <trkpt lat="44.10385" lon="3.04644">
        <ele>518.4</ele>
        <time>2016-05-22T09:24:29Z</time>
      </trkpt>
      <trkpt lat="44.10386" lon="3.04666">
        <ele>517.5</ele>
        <time>2016-05-22T09:24:35Z</time>
      </trkpt>
      <trkpt lat="44.10385" lon="3.04685">
        <ele>516.4</ele>
        <time>2016-05-22T09:24:40Z</time>
      </trkpt>
      <trkpt lat="44.10385" lon="3.04705">
        <ele>515.3</ele>
        <time>2016-05-22T09:24:45Z</time>
      </trkpt>
      <trkpt lat="44.10386" lon="3.04726">
        <ele>514.3</ele>
        <time>2016-05-22T09:24:50Z</time>
      </trkpt>
      <trkpt lat="44.10387" lon="3.04745">
        <ele>513.2</ele>
        <time>2016-05-22T09:24:55Z</time>
      </trkpt>
      <trkpt lat="44.10387" lon="3.04765">
        <ele>512.1</ele>
        <time>2016-05-22T09:25:00Z</time>
      </trkpt>
      <trkpt lat="44.10385" lon="3.04787">
        <ele>510.9</ele>
        <time>2016-05-22T09:25:05Z</time>
      </trkpt>
      <trkpt lat="44.10382" lon="3.04807">
        <ele>509.6</ele>
        <time>2016-05-22T09:25:10Z</time>
      </trkpt>
      <trkpt lat="44.1038" lon="3.04826">
        <ele>508.6</ele>
        <time>2016-05-22T09:25:15Z</time>
      </trkpt>
      <trkpt lat="44.10378" lon="3.04848">
        <ele>507.5</ele>
        <time>2016-05-22T09:25:21Z</time>
      </trkpt>
      <trkpt lat="44.10376" lon="3.04869">
        <ele>506.5</ele>
        <time>2016-05-22T09:25:26Z</time>
      </trkpt>
      <trkpt lat="44.10374" lon="3.04889">
        <ele>505.5</ele>
        <time>2016-05-22T09:25:31Z</time>
      </trkpt>
      <trkpt lat="44.10372" lon="3.0491">
        <ele>504.1</ele>
        <time>2016-05-22T09:25:36Z</time>
      </trkpt>
      <trkpt lat="44.10367" lon="3.04929">
        <ele>502.7</ele>
        <time>2016-05-22T09:25:41Z</time>
      </trkpt>
      <trkpt lat="44.1036" lon="3.04949">
        <ele>501.4</ele>
        <time>2016-05-22T09:25:46Z</time>
      </trkpt>
      <trkpt lat="44.10355" lon="3.04968">
        <ele>500.1</ele>
        <time>2016-05-22T09:25:51Z</time>
      </trkpt>
      <trkpt lat="44.1035" lon="3.0499">
        <ele>498.8</ele>
        <time>2016-05-22T09:25:56Z</time>
      </trkpt>
      <trkpt lat="44.10343" lon="3.05009">
        <ele>497.1</ele>
        <time>2016-05-22T09:26:01Z</time>
      </trkpt>
      <trkpt lat="44.10334" lon="3.0503">
        <ele>495.4</ele>
        <time>2016-05-22T09:26:06Z</time>
      </trkpt>
      <trkpt lat="44.10329" lon="3.05048">
        <ele>493.9</ele>
        <time>2016-05-22T09:26:10Z</time>
      </trkpt>
      <trkpt lat="44.10325" lon="3.05066">
        <ele>492</ele>
        <time>2016-05-22T09:26:14Z</time>
      </trkpt>
      <trkpt lat="44.10318" lon="3.05087">
        <ele>489.6</ele>
        <time>2016-05-22T09:26:19Z</time>
      </trkpt>
      <trkpt lat="44.10313" lon="3.05107">
        <ele>487.3</ele>
        <time>2016-05-22T09:26:24Z</time>
      </trkpt>
      <trkpt lat="44.10307" lon="3.05128">
        <ele>484.9</ele>
        <time>2016-05-22T09:26:29Z</time>
      </trkpt>
      <trkpt lat="44.10301" lon="3.05147">
        <ele>482.3</ele>
        <time>2016-05-22T09:26:34Z</time>
      </trkpt>
      <trkpt lat="44.10297" lon="3.05168">
        <ele>479.6</ele>
        <time>2016-05-22T09:26:39Z</time>
      </trkpt>
      <trkpt lat="44.10297" lon="3.05188">
        <ele>477</ele>
        <time>2016-05-22T09:26:44Z</time>
      </trkpt>
      <trkpt lat="44.10299" lon="3.05207">
        <ele>475.3</ele>
        <time>2016-05-22T09:26:49Z</time>
      </trkpt>
      <trkpt lat="44.10297" lon="3.05227">
        <ele>473.5</ele>
        <time>2016-05-22T09:26:54Z</time>
      </trkpt>
      <trkpt lat="44.10291" lon="3.05246">
        <ele>472.1</ele>
        <time>2016-05-22T09:26:59Z</time>
      </trkpt>
      <trkpt lat="44.10286" lon="3.05266">
        <ele>470.7</ele>
        <time>2016-05-22T09:27:04Z</time>
      </trkpt>
      <trkpt lat="44.10278" lon="3.05283">
        <ele>469.3</ele>
        <time>2016-05-22T09:27:09Z</time>
      </trkpt>
      <trkpt lat="44.10271" lon="3.05302">
        <ele>467.8</ele>
        <time>2016-05-22T09:27:14Z</time>
      </trkpt>
      <trkpt lat="44.10265" lon="3.05322">
        <ele>466.2</ele>
        <time>2016-05-22T09:27:19Z</time>
      </trkpt>
      <trkpt lat="44.10257" lon="3.05342">
        <ele>465</ele>
        <time>2016-05-22T09:27:25Z</time>
      </trkpt>
      <trkpt lat="44.1025" lon="3.05358">
        <ele>464.3</ele>
        <time>2016-05-22T09:27:30Z</time>
      </trkpt>
      <trkpt lat="44.10242" lon="3.05375">
        <ele>463.6</ele>
        <time>2016-05-22T09:27:35Z</time>
      </trkpt>
      <trkpt lat="44.10236" lon="3.05392">
        <ele>462.8</ele>
        <time>2016-05-22T09:27:40Z</time>
      </trkpt>
      <trkpt lat="44.10229" lon="3.05409">
        <ele>462</ele>
        <time>2016-05-22T09:27:45Z</time>
      </trkpt>
      <trkpt lat="44.1022" lon="3.05428">
        <ele>460.9</ele>
        <time>2016-05-22T09:27:51Z</time>
      </trkpt>
      <trkpt lat="44.10212" lon="3.05442">
        <ele>460</ele>
        <time>2016-05-22T09:27:56Z</time>
      </trkpt>
      <trkpt lat="44.10202" lon="3.05459">
        <ele>459.1</ele>
        <time>2016-05-22T09:28:01Z</time>
      </trkpt>
      <trkpt lat="44.10193" lon="3.05475">
        <ele>458.3</ele>
        <time>2016-05-22T09:28:06Z</time>
      </trkpt>
      <trkpt lat="44.10183" lon="3.0549">
        <ele>457.5</ele>
        <time>2016-05-22T09:28:11Z</time>
      </trkpt>
      <trkpt lat="44.10173" lon="3.05505">
        <ele>457.2</ele>
        <time>2016-05-22T09:28:16Z</time>
      </trkpt>
      <trkpt lat="44.10164" lon="3.0552">
        <ele>456.8</ele>
        <time>2016-05-22T09:28:21Z</time>
      </trkpt>
      <trkpt lat="44.10155" lon="3.05534">
        <ele>456.5</ele>
        <time>2016-05-22T09:28:26Z</time>
      </trkpt>
      <trkpt lat="44.10146" lon="3.05547">
        <ele>456.2</ele>
        <time>2016-05-22T09:28:31Z</time>
      </trkpt>
      <trkpt lat="44.10134" lon="3.05562">
        <ele>455.8</ele>
        <time>2016-05-22T09:28:37Z</time>
      </trkpt>
      <trkpt lat="44.10124" lon="3.05577">
        <ele>455.4</ele>
        <time>2016-05-22T09:28:42Z</time>
      </trkpt>
      <trkpt lat="44.10115" lon="3.05594">
        <ele>455.1</ele>
        <time>2016-05-22T09:28:47Z</time>
      </trkpt>
      <trkpt lat="44.10108" lon="3.0561">
        <ele>454.8</ele>
        <time>2016-05-22T09:28:52Z</time>
      </trkpt>
      <trkpt lat="44.10099" lon="3.05629">
        <ele>454.4</ele>
        <time>2016-05-22T09:28:58Z</time>
      </trkpt>
      <trkpt lat="44.10092" lon="3.05645">
        <ele>454</ele>
        <time>2016-05-22T09:29:03Z</time>
      </trkpt>
      <trkpt lat="44.10084" lon="3.05661">
        <ele>453.7</ele>
        <time>2016-05-22T09:29:07Z</time>
      </trkpt>
      <trkpt lat="44.10076" lon="3.05679">
        <ele>453.4</ele>
        <time>2016-05-22T09:29:12Z</time>
      </trkpt>
      <trkpt lat="44.10068" lon="3.05696">
        <ele>453.1</ele>
        <time>2016-05-22T09:29:17Z</time>
      </trkpt>
      <trkpt lat="44.10061" lon="3.05712">
        <ele>452.7</ele>
        <time>2016-05-22T09:29:22Z</time>
      </trkpt>
      <trkpt lat="44.10053" lon="3.05728">
        <ele>452.4</ele>
        <time>2016-05-22T09:29:27Z</time>
      </trkpt>
      <trkpt lat="44.10045" lon="3.05747">
        <ele>452</ele>
        <time>2016-05-22T09:29:33Z</time>
      </trkpt>
      <trkpt lat="44.10042" lon="3.05766">
        <ele>451.6</ele>
        <time>2016-05-22T09:29:38Z</time>
      </trkpt>
      <trkpt lat="44.10042" lon="3.05785">
        <ele>450.9</ele>
        <time>2016-05-22T09:29:43Z</time>
      </trkpt>
      <trkpt lat="44.10042" lon="3.05805">
        <ele>449.7</ele>
        <time>2016-05-22T09:29:49Z</time>
      </trkpt>
      <trkpt lat="44.1004" lon="3.05826">
        <ele>448.4</ele>
        <time>2016-05-22T09:29:55Z</time>
      </trkpt>
      <trkpt lat="44.1004" lon="3.05846">
        <ele>447.9</ele>
        <time>2016-05-22T09:30:01Z</time>
      </trkpt>
      <trkpt lat="44.1004" lon="3.05866">
        <ele>447.6</ele>
        <time>2016-05-22T09:30:06Z</time>
      </trkpt>
      <trkpt lat="44.10041" lon="3.05886">
        <ele>447.3</ele>
        <time>2016-05-22T09:30:11Z</time>
      </trkpt>
      <trkpt lat="44.1004" lon="3.05908">
        <ele>447</ele>
        <time>2016-05-22T09:30:17Z</time>
      </trkpt>
      <trkpt lat="44.10039" lon="3.05929">
        <ele>446.6</ele>
        <time>2016-05-22T09:30:23Z</time>
      </trkpt>
      <trkpt lat="44.10036" lon="3.05951">
        <ele>446.3</ele>
        <time>2016-05-22T09:30:29Z</time>
      </trkpt>
      <trkpt lat="44.10035" lon="3.05973">
        <ele>445.9</ele>
        <time>2016-05-22T09:30:35Z</time>
      </trkpt>
      <trkpt lat="44.10035" lon="3.05992">
        <ele>445.1</ele>
        <time>2016-05-22T09:30:40Z</time>
      </trkpt>
      <trkpt lat="44.10033" lon="3.06015">
        <ele>444.1</ele>
        <time>2016-05-22T09:30:46Z</time>
      </trkpt>
      <trkpt lat="44.10032" lon="3.06033">
        <ele>443.4</ele>
        <time>2016-05-22T09:30:51Z</time>
      </trkpt>
      <trkpt lat="44.10029" lon="3.06053">
        <ele>442.6</ele>
        <time>2016-05-22T09:30:56Z</time>
      </trkpt>
      <trkpt lat="44.10027" lon="3.06072">
        <ele>441.9</ele>
        <time>2016-05-22T09:31:01Z</time>
      </trkpt>
      <trkpt lat="44.10024" lon="3.06091">
        <ele>441.1</ele>
        <time>2016-05-22T09:31:06Z</time>
      </trkpt>
      <trkpt lat="44.1002" lon="3.06109">
        <ele>440.4</ele>
        <time>2016-05-22T09:31:11Z</time>
      </trkpt>
      <trkpt lat="44.10014" lon="3.0613">
        <ele>439.4</ele>
        <time>2016-05-22T09:31:17Z</time>
      </trkpt>
      <trkpt lat="44.10008" lon="3.0615">
        <ele>438.5</ele>
        <time>2016-05-22T09:31:23Z</time>
      </trkpt>
      <trkpt lat="44.10003" lon="3.06169">
        <ele>437.6</ele>
        <time>2016-05-22T09:31:28Z</time>
      </trkpt>
      <trkpt lat="44.09998" lon="3.06188">
        <ele>436.6</ele>
        <time>2016-05-22T09:31:33Z</time>
      </trkpt>
      <trkpt lat="44.0999" lon="3.06204">
        <ele>435.6</ele>
        <time>2016-05-22T09:31:38Z</time>
      </trkpt>
      <trkpt lat="44.09983" lon="3.06223">
        <ele>434</ele>
        <time>2016-05-22T09:31:44Z</time>
      </trkpt>
      <trkpt lat="44.09975" lon="3.06242">
        <ele>431.9</ele>
        <time>2016-05-22T09:31:50Z</time>
      </trkpt>
      <trkpt lat="44.09967" lon="3.06258">
        <ele>430.1</ele>
        <time>2016-05-22T09:31:55Z</time>
      </trkpt>
      <trkpt lat="44.09959" lon="3.06275">
        <ele>428</ele>
        <time>2016-05-22T09:32:01Z</time>
      </trkpt>
      <trkpt lat="44.09952" lon="3.06294">
        <ele>425.6</ele>
        <time>2016-05-22T09:32:07Z</time>
      </trkpt>
      <trkpt lat="44.09945" lon="3.06313">
        <ele>423.7</ele>
        <time>2016-05-22T09:32:13Z</time>
      </trkpt>
      <trkpt lat="44.09937" lon="3.06333">
        <ele>422.1</ele>
        <time>2016-05-22T09:32:19Z</time>
      </trkpt>
      <trkpt lat="44.0993" lon="3.06351">
        <ele>421</ele>
        <time>2016-05-22T09:32:24Z</time>
      </trkpt>
      <trkpt lat="44.09923" lon="3.06369">
        <ele>420</ele>
        <time>2016-05-22T09:32:29Z</time>
      </trkpt>
      <trkpt lat="44.09916" lon="3.06385">
        <ele>419</ele>
        <time>2016-05-22T09:32:34Z</time>
      </trkpt>
      <trkpt lat="44.0991" lon="3.06403">
        <ele>417.9</ele>
        <time>2016-05-22T09:32:39Z</time>
      </trkpt>
      <trkpt lat="44.09905" lon="3.06422">
        <ele>416.7</ele>
        <time>2016-05-22T09:32:44Z</time>
      </trkpt>
      <trkpt lat="44.099" lon="3.0644">
        <ele>415.3</ele>
        <time>2016-05-22T09:32:49Z</time>
      </trkpt>
      <trkpt lat="44.09893" lon="3.0646">
        <ele>413.6</ele>
        <time>2016-05-22T09:32:55Z</time>
      </trkpt>
      <trkpt lat="44.09887" lon="3.06477">
        <ele>412.2</ele>
        <time>2016-05-22T09:33:00Z</time>
      </trkpt>
      <trkpt lat="44.09881" lon="3.06494">
        <ele>411</ele>
        <time>2016-05-22T09:33:05Z</time>
      </trkpt>
      <trkpt lat="44.09875" lon="3.06512">
        <ele>409.9</ele>
        <time>2016-05-22T09:33:10Z</time>
      </trkpt>
      <trkpt lat="44.09868" lon="3.06529">
        <ele>408.9</ele>
        <time>2016-05-22T09:33:15Z</time>
      </trkpt>
      <trkpt lat="44.09861" lon="3.06546">
        <ele>407.9</ele>
        <time>2016-05-22T09:33:20Z</time>
      </trkpt>
      <trkpt lat="44.09852" lon="3.06563">
        <ele>406.9</ele>
        <time>2016-05-22T09:33:25Z</time>
      </trkpt>
      <trkpt lat="44.09846" lon="3.06579">
        <ele>405.7</ele>
        <time>2016-05-22T09:33:30Z</time>
      </trkpt>
      <trkpt lat="44.0984" lon="3.06597">
        <ele>404.9</ele>
        <time>2016-05-22T09:33:35Z</time>
      </trkpt>
      <trkpt lat="44.09834" lon="3.06614">
        <ele>404.7</ele>
        <time>2016-05-22T09:33:40Z</time>
      </trkpt>
      <trkpt lat="44.09828" lon="3.06634">
        <ele>404.5</ele>
        <time>2016-05-22T09:33:45Z</time>
      </trkpt>
      <trkpt lat="44.09822" lon="3.06653">
        <ele>404.3</ele>
        <time>2016-05-22T09:33:50Z</time>
      </trkpt>
      <trkpt lat="44.09815" lon="3.06669">
        <ele>404.1</ele>
        <time>2016-05-22T09:33:55Z</time>
      </trkpt>
      <trkpt lat="44.09808" lon="3.06686">
        <ele>403.9</ele>
        <time>2016-05-22T09:34:00Z</time>
      </trkpt>
      <trkpt lat="44.09803" lon="3.06707">
        <ele>403.7</ele>
        <time>2016-05-22T09:34:06Z</time>
      </trkpt>
      <trkpt lat="44.09797" lon="3.06724">
        <ele>403.3</ele>
        <time>2016-05-22T09:34:11Z</time>
      </trkpt>
      <trkpt lat="44.09792" lon="3.06745">
        <ele>402.8</ele>
        <time>2016-05-22T09:34:17Z</time>
      </trkpt>
      <trkpt lat="44.09787" lon="3.06765">
        <ele>402.3</ele>
        <time>2016-05-22T09:34:23Z</time>
      </trkpt>
      <trkpt lat="44.09781" lon="3.06785">
        <ele>401.8</ele>
        <time>2016-05-22T09:34:29Z</time>
      </trkpt>
      <trkpt lat="44.09775" lon="3.06805">
        <ele>401.3</ele>
        <time>2016-05-22T09:34:35Z</time>
      </trkpt>
      <trkpt lat="44.09769" lon="3.06824">
        <ele>400.8</ele>
        <time>2016-05-22T09:34:41Z</time>
      </trkpt>
      <trkpt lat="44.09762" lon="3.06844">
        <ele>400.3</ele>
        <time>2016-05-22T09:34:47Z</time>
      </trkpt>
      <trkpt lat="44.09757" lon="3.06865">
        <ele>399.4</ele>
        <time>2016-05-22T09:34:53Z</time>
      </trkpt>
      <trkpt lat="44.09756" lon="3.06887">
        <ele>398.3</ele>
        <time>2016-05-22T09:34:59Z</time>
      </trkpt>
      <trkpt lat="44.09754" lon="3.06907">
        <ele>397.4</ele>
        <time>2016-05-22T09:35:04Z</time>
      </trkpt>
      <trkpt lat="44.09751" lon="3.06925">
        <ele>396.4</ele>
        <time>2016-05-22T09:35:09Z</time>
      </trkpt>
      <trkpt lat="44.09747" lon="3.06944">
        <ele>395.3</ele>
        <time>2016-05-22T09:35:14Z</time>
      </trkpt>
      <trkpt lat="44.09744" lon="3.06962">
        <ele>394</ele>
        <time>2016-05-22T09:35:19Z</time>
      </trkpt>
      <trkpt lat="44.09739" lon="3.0698">
        <ele>391.7</ele>
        <time>2016-05-22T09:35:24Z</time>
      </trkpt>
      <trkpt lat="44.09736" lon="3.06999">
        <ele>389.4</ele>
        <time>2016-05-22T09:35:29Z</time>
      </trkpt>
      <trkpt lat="44.09732" lon="3.07019">
        <ele>387.3</ele>
        <time>2016-05-22T09:35:35Z</time>
      </trkpt>
      <trkpt lat="44.09731" lon="3.07041">
        <ele>385.1</ele>
        <time>2016-05-22T09:35:41Z</time>
      </trkpt>
      <trkpt lat="44.09732" lon="3.07061">
        <ele>383.2</ele>
        <time>2016-05-22T09:35:46Z</time>
      </trkpt>
      <trkpt lat="44.09738" lon="3.0708">
        <ele>381.3</ele>
        <time>2016-05-22T09:35:51Z</time>
      </trkpt>
      <trkpt lat="44.0975" lon="3.07094">
        <ele>381.1</ele>
        <time>2016-05-22T09:35:56Z</time>
      </trkpt>
      <trkpt lat="44.09761" lon="3.0711">
        <ele>381.4</ele>
        <time>2016-05-22T09:36:01Z</time>
      </trkpt>
      <trkpt lat="44.09773" lon="3.07122">
        <ele>381.7</ele>
        <time>2016-05-22T09:36:06Z</time>
      </trkpt>
      <trkpt lat="44.09786" lon="3.07132">
        <ele>381.9</ele>
        <time>2016-05-22T09:36:11Z</time>
      </trkpt>
      <trkpt lat="44.09799" lon="3.0714">
        <ele>382.4</ele>
        <time>2016-05-22T09:36:16Z</time>
      </trkpt>
      <trkpt lat="44.09811" lon="3.0715">
        <ele>383.4</ele>
        <time>2016-05-22T09:36:21Z</time>
      </trkpt>
      <trkpt lat="44.09823" lon="3.0716">
        <ele>384.6</ele>
        <time>2016-05-22T09:36:27Z</time>
      </trkpt>
      <trkpt lat="44.09836" lon="3.07169">
        <ele>384.6</ele>
        <time>2016-05-22T09:36:33Z</time>
      </trkpt>
      <trkpt lat="44.09849" lon="3.07179">
        <ele>384.5</ele>
        <time>2016-05-22T09:36:39Z</time>
      </trkpt>
      <trkpt lat="44.09863" lon="3.07188">
        <ele>384.4</ele>
        <time>2016-05-22T09:36:45Z</time>
      </trkpt>
      <trkpt lat="44.09876" lon="3.07196">
        <ele>384.3</ele>
        <time>2016-05-22T09:36:51Z</time>
      </trkpt>
      <trkpt lat="44.09891" lon="3.07207">
        <ele>384.2</ele>
        <time>2016-05-22T09:36:57Z</time>
      </trkpt>
      <trkpt lat="44.09904" lon="3.07217">
        <ele>384.2</ele>
        <time>2016-05-22T09:37:03Z</time>
      </trkpt>
      <trkpt lat="44.09918" lon="3.07226">
        <ele>384.1</ele>
        <time>2016-05-22T09:37:09Z</time>
      </trkpt>
      <trkpt lat="44.09932" lon="3.07235">
        <ele>384</ele>
        <time>2016-05-22T09:37:15Z</time>
      </trkpt>
      <trkpt lat="44.09945" lon="3.07244">
        <ele>383.9</ele>
        <time>2016-05-22T09:37:21Z</time>
      </trkpt>
      <trkpt lat="44.09959" lon="3.07251">
        <ele>383.9</ele>
        <time>2016-05-22T09:37:27Z</time>
      </trkpt>
      <trkpt lat="44.09974" lon="3.07254">
        <ele>383.8</ele>
        <time>2016-05-22T09:37:33Z</time>
      </trkpt>
      <trkpt lat="44.09989" lon="3.07256">
        <ele>383.7</ele>
        <time>2016-05-22T09:37:39Z</time>
      </trkpt>
      <trkpt lat="44.10002" lon="3.07259">
        <ele>383.6</ele>
        <time>2016-05-22T09:37:45Z</time>
      </trkpt>
      <trkpt lat="44.10016" lon="3.07265">
        <ele>383.6</ele>
        <time>2016-05-22T09:37:51Z</time>
      </trkpt>
      <trkpt lat="44.1003" lon="3.0727">
        <ele>383.5</ele>
        <time>2016-05-22T09:37:57Z</time>
      </trkpt>
      <trkpt lat="44.10044" lon="3.07275">
        <ele>383.4</ele>
        <time>2016-05-22T09:38:03Z</time>
      </trkpt>
      <trkpt lat="44.10058" lon="3.07278">
        <ele>383.3</ele>
        <time>2016-05-22T09:38:09Z</time>
      </trkpt>
      <trkpt lat="44.10073" lon="3.07282">
        <ele>383.2</ele>
        <time>2016-05-22T09:38:15Z</time>
      </trkpt>
      <trkpt lat="44.10089" lon="3.07286">
        <ele>383.2</ele>
        <time>2016-05-22T09:38:21Z</time>
      </trkpt>
      <trkpt lat="44.10104" lon="3.0729">
        <ele>383.1</ele>
        <time>2016-05-22T09:38:27Z</time>
      </trkpt>
      <trkpt lat="44.10119" lon="3.07294">
        <ele>383</ele>
        <time>2016-05-22T09:38:33Z</time>
      </trkpt>
      <trkpt lat="44.10133" lon="3.07297">
        <ele>382.9</ele>
        <time>2016-05-22T09:38:39Z</time>
      </trkpt>
      <trkpt lat="44.10148" lon="3.07302">
        <ele>382.9</ele>
        <time>2016-05-22T09:38:45Z</time>
      </trkpt>
      <trkpt lat="44.10163" lon="3.07307">
        <ele>382.8</ele>
        <time>2016-05-22T09:38:51Z</time>
      </trkpt>
      <trkpt lat="44.10177" lon="3.07313">
        <ele>382.7</ele>
        <time>2016-05-22T09:38:57Z</time>
      </trkpt>
      <trkpt lat="44.10192" lon="3.07318">
        <ele>382.6</ele>
        <time>2016-05-22T09:39:03Z</time>
      </trkpt>
      <trkpt lat="44.10208" lon="3.07323">
        <ele>382.5</ele>
        <time>2016-05-22T09:39:09Z</time>
      </trkpt>
      <trkpt lat="44.10222" lon="3.07328">
        <ele>382.5</ele>
        <time>2016-05-22T09:39:15Z</time>
      </trkpt>
      <trkpt lat="44.10235" lon="3.07331">
        <ele>382.4</ele>
        <time>2016-05-22T09:39:20Z</time>
      </trkpt>
      <trkpt lat="44.1025" lon="3.07336">
        <ele>382.3</ele>
        <time>2016-05-22T09:39:26Z</time>
      </trkpt>
      <trkpt lat="44.10264" lon="3.07342">
        <ele>382.2</ele>
        <time>2016-05-22T09:39:32Z</time>
      </trkpt>
      <trkpt lat="44.10278" lon="3.07348">
        <ele>382.2</ele>
        <time>2016-05-22T09:39:38Z</time>
      </trkpt>
      <trkpt lat="44.10292" lon="3.07352">
        <ele>382.1</ele>
        <time>2016-05-22T09:39:44Z</time>
      </trkpt>
      <trkpt lat="44.10306" lon="3.07356">
        <ele>382</ele>
        <time>2016-05-22T09:39:50Z</time>
      </trkpt>
      <trkpt lat="44.10319" lon="3.07359">
        <ele>381.9</ele>
        <time>2016-05-22T09:39:56Z</time>
      </trkpt>
      <trkpt lat="44.10333" lon="3.07363">
        <ele>381.9</ele>
        <time>2016-05-22T09:40:02Z</time>
      </trkpt>
      <trkpt lat="44.10347" lon="3.07369">
        <ele>381.8</ele>
        <time>2016-05-22T09:40:08Z</time>
      </trkpt>
      <trkpt lat="44.10362" lon="3.07373">
        <ele>381.7</ele>
        <time>2016-05-22T09:40:14Z</time>
      </trkpt>
      <trkpt lat="44.10377" lon="3.07378">
        <ele>381.6</ele>
        <time>2016-05-22T09:40:20Z</time>
      </trkpt>
      <trkpt lat="44.10392" lon="3.07383">
        <ele>381.5</ele>
        <time>2016-05-22T09:40:26Z</time>
      </trkpt>
      <trkpt lat="44.10406" lon="3.07387">
        <ele>381.5</ele>
        <time>2016-05-22T09:40:32Z</time>
      </trkpt>
      <trkpt lat="44.1042" lon="3.07392">
        <ele>381.4</ele>
        <time>2016-05-22T09:40:38Z</time>
      </trkpt>
      <trkpt lat="44.10434" lon="3.07398">
        <ele>381.3</ele>
        <time>2016-05-22T09:40:44Z</time>
      </trkpt>
      <trkpt lat="44.10447" lon="3.07407">
        <ele>381.2</ele>
        <time>2016-05-22T09:40:50Z</time>
      </trkpt>
      <trkpt lat="44.10459" lon="3.07417">
        <ele>381.2</ele>
        <time>2016-05-22T09:40:56Z</time>
      </trkpt>
      <trkpt lat="44.1047" lon="3.07433">
        <ele>380.9</ele>
        <time>2016-05-22T09:41:02Z</time>
      </trkpt>
      <trkpt lat="44.10478" lon="3.0745">
        <ele>380.4</ele>
        <time>2016-05-22T09:41:08Z</time>
      </trkpt>
      <trkpt lat="44.10486" lon="3.07468">
        <ele>379.8</ele>
        <time>2016-05-22T09:41:14Z</time>
      </trkpt>
      <trkpt lat="44.10491" lon="3.07488">
        <ele>379.2</ele>
        <time>2016-05-22T09:41:20Z</time>
      </trkpt>
      <trkpt lat="44.10496" lon="3.07506">
        <ele>378.8</ele>
        <time>2016-05-22T09:41:25Z</time>
      </trkpt>
      <trkpt lat="44.10502" lon="3.07524">
        <ele>378.3</ele>
        <time>2016-05-22T09:41:30Z</time>
      </trkpt>
      <trkpt lat="44.10512" lon="3.07534">
        <ele>377.8</ele>
        <time>2016-05-22T09:41:35Z</time>
      </trkpt>
      <trkpt lat="44.10527" lon="3.07529">
        <ele>377.8</ele>
        <time>2016-05-22T09:41:40Z</time>
      </trkpt>
      <trkpt lat="44.10541" lon="3.07521">
        <ele>377.8</ele>
        <time>2016-05-22T09:41:45Z</time>
      </trkpt>
      <trkpt lat="44.10554" lon="3.07515">
        <ele>377.7</ele>
        <time>2016-05-22T09:41:50Z</time>
      </trkpt>
      <trkpt lat="44.10567" lon="3.07504">
        <ele>377.7</ele>
        <time>2016-05-22T09:41:56Z</time>
      </trkpt>
      <trkpt lat="44.1058" lon="3.07499">
        <ele>377.7</ele>
        <time>2016-05-22T09:42:01Z</time>
      </trkpt>
      <trkpt lat="44.10594" lon="3.07507">
        <ele>377.6</ele>
        <time>2016-05-22T09:42:07Z</time>
      </trkpt>
      <trkpt lat="44.10605" lon="3.07518">
        <ele>377.6</ele>
        <time>2016-05-22T09:42:13Z</time>
      </trkpt>
    </trkseg>
  </trk>
</gpx>